<?xml version="1.0" encoding="UTF-8" standalone="no" ?>
<gpx xmlns="http://www.topografix.com/GPX/1/1" xmlns:xsi="http://www.w3.org/2001/XMLSchema-instance" xsi:schemaLocation="http://www.topografix.com/GPX/1/1 http://www.topografix.com/GPX/1/1/gpx.xsd" version="1.1" creator="VisuGPX - https://www.visugpx.com">
  <metadata>
    <name>Courbouzon Bornay Geruge (Jura)</name>
    <desc><![CDATA[Randonnée pédestre effectuée le 24 mai 2018.]]></desc>
  </metadata>
  <trk>
    <name><![CDATA[24 mai 2018 à 08:56:20]]></name>
    <cmt><![CDATA[24 mai 2018 à 08:56:20]]></cmt>
    <trkseg>
      <trkpt lat="46.65366" lon="5.52962">
        <ele>261</ele>
        <time>2018-05-24T06:56:20Z</time>
      </trkpt>
      <trkpt lat="46.65366" lon="5.52962">
        <ele>261</ele>
        <time>2018-05-24T06:56:21Z</time>
      </trkpt>
      <trkpt lat="46.65372" lon="5.52968">
        <ele>257</ele>
        <time>2018-05-24T06:57:02Z</time>
      </trkpt>
      <trkpt lat="46.65376" lon="5.5297">
        <ele>255</ele>
        <time>2018-05-24T06:57:07Z</time>
      </trkpt>
      <trkpt lat="46.6537" lon="5.52975">
        <ele>254</ele>
        <time>2018-05-24T06:57:31Z</time>
      </trkpt>
      <trkpt lat="46.65358" lon="5.52977">
        <ele>254</ele>
        <time>2018-05-24T06:57:44Z</time>
      </trkpt>
      <trkpt lat="46.65353" lon="5.52976">
        <ele>254</ele>
        <time>2018-05-24T06:57:49Z</time>
      </trkpt>
      <trkpt lat="46.6535" lon="5.52981">
        <ele>253</ele>
        <time>2018-05-24T06:57:58Z</time>
      </trkpt>
      <trkpt lat="46.6536" lon="5.53002">
        <ele>254</ele>
        <time>2018-05-24T06:58:14Z</time>
      </trkpt>
      <trkpt lat="46.65363" lon="5.53014">
        <ele>255</ele>
        <time>2018-05-24T06:58:22Z</time>
      </trkpt>
      <trkpt lat="46.65366" lon="5.53026">
        <ele>255</ele>
        <time>2018-05-24T06:58:31Z</time>
      </trkpt>
      <trkpt lat="46.65369" lon="5.5303">
        <ele>256</ele>
        <time>2018-05-24T06:58:36Z</time>
      </trkpt>
      <trkpt lat="46.65373" lon="5.53047">
        <ele>256</ele>
        <time>2018-05-24T06:58:48Z</time>
      </trkpt>
      <trkpt lat="46.65376" lon="5.53058">
        <ele>255</ele>
        <time>2018-05-24T06:58:56Z</time>
      </trkpt>
      <trkpt lat="46.65381" lon="5.53065">
        <ele>254</ele>
        <time>2018-05-24T06:59:16Z</time>
      </trkpt>
      <trkpt lat="46.65385" lon="5.53071">
        <ele>253</ele>
        <time>2018-05-24T06:59:27Z</time>
      </trkpt>
      <trkpt lat="46.65392" lon="5.53081">
        <ele>254</ele>
        <time>2018-05-24T06:59:34Z</time>
      </trkpt>
      <trkpt lat="46.65396" lon="5.53086">
        <ele>253</ele>
        <time>2018-05-24T06:59:38Z</time>
      </trkpt>
      <trkpt lat="46.654" lon="5.53092">
        <ele>253</ele>
        <time>2018-05-24T06:59:43Z</time>
      </trkpt>
      <trkpt lat="46.65404" lon="5.53096">
        <ele>253</ele>
        <time>2018-05-24T06:59:47Z</time>
      </trkpt>
      <trkpt lat="46.65429" lon="5.53136">
        <ele>254</ele>
        <time>2018-05-24T07:00:20Z</time>
      </trkpt>
      <trkpt lat="46.65432" lon="5.53141">
        <ele>254</ele>
        <time>2018-05-24T07:00:24Z</time>
      </trkpt>
      <trkpt lat="46.65438" lon="5.53152">
        <ele>254</ele>
        <time>2018-05-24T07:00:33Z</time>
      </trkpt>
      <trkpt lat="46.65445" lon="5.53163">
        <ele>254</ele>
        <time>2018-05-24T07:00:42Z</time>
      </trkpt>
      <trkpt lat="46.65453" lon="5.53175">
        <ele>255</ele>
        <time>2018-05-24T07:00:53Z</time>
      </trkpt>
      <trkpt lat="46.65463" lon="5.53194">
        <ele>256</ele>
        <time>2018-05-24T07:01:07Z</time>
      </trkpt>
      <trkpt lat="46.65463" lon="5.53204">
        <ele>256</ele>
        <time>2018-05-24T07:01:15Z</time>
      </trkpt>
      <trkpt lat="46.65453" lon="5.53219">
        <ele>256</ele>
        <time>2018-05-24T07:01:32Z</time>
      </trkpt>
      <trkpt lat="46.65427" lon="5.53259">
        <ele>256</ele>
        <time>2018-05-24T07:02:06Z</time>
      </trkpt>
      <trkpt lat="46.6542" lon="5.53268">
        <ele>256</ele>
        <time>2018-05-24T07:02:14Z</time>
      </trkpt>
      <trkpt lat="46.65416" lon="5.53273">
        <ele>257</ele>
        <time>2018-05-24T07:02:18Z</time>
      </trkpt>
      <trkpt lat="46.65408" lon="5.53282">
        <ele>257</ele>
        <time>2018-05-24T07:02:26Z</time>
      </trkpt>
      <trkpt lat="46.65405" lon="5.53288">
        <ele>257</ele>
        <time>2018-05-24T07:02:31Z</time>
      </trkpt>
      <trkpt lat="46.65401" lon="5.53293">
        <ele>257</ele>
        <time>2018-05-24T07:02:35Z</time>
      </trkpt>
      <trkpt lat="46.65393" lon="5.53301">
        <ele>257</ele>
        <time>2018-05-24T07:02:44Z</time>
      </trkpt>
      <trkpt lat="46.65387" lon="5.53307">
        <ele>257</ele>
        <time>2018-05-24T07:02:52Z</time>
      </trkpt>
      <trkpt lat="46.65385" lon="5.53317">
        <ele>257</ele>
        <time>2018-05-24T07:02:59Z</time>
      </trkpt>
      <trkpt lat="46.65381" lon="5.53322">
        <ele>258</ele>
        <time>2018-05-24T07:03:04Z</time>
      </trkpt>
      <trkpt lat="46.65358" lon="5.53348">
        <ele>260</ele>
        <time>2018-05-24T07:03:28Z</time>
      </trkpt>
      <trkpt lat="46.65358" lon="5.53356">
        <ele>260</ele>
        <time>2018-05-24T07:03:33Z</time>
      </trkpt>
      <trkpt lat="46.6536" lon="5.53362">
        <ele>261</ele>
        <time>2018-05-24T07:03:37Z</time>
      </trkpt>
      <trkpt lat="46.65367" lon="5.53371">
        <ele>261</ele>
        <time>2018-05-24T07:03:45Z</time>
      </trkpt>
      <trkpt lat="46.65371" lon="5.53376">
        <ele>261</ele>
        <time>2018-05-24T07:03:50Z</time>
      </trkpt>
      <trkpt lat="46.65399" lon="5.53417">
        <ele>263</ele>
        <time>2018-05-24T07:04:22Z</time>
      </trkpt>
      <trkpt lat="46.65403" lon="5.53422">
        <ele>263</ele>
        <time>2018-05-24T07:04:26Z</time>
      </trkpt>
      <trkpt lat="46.65407" lon="5.53426">
        <ele>263</ele>
        <time>2018-05-24T07:04:30Z</time>
      </trkpt>
      <trkpt lat="46.6541" lon="5.53432">
        <ele>264</ele>
        <time>2018-05-24T07:04:35Z</time>
      </trkpt>
      <trkpt lat="46.65415" lon="5.53436">
        <ele>264</ele>
        <time>2018-05-24T07:04:40Z</time>
      </trkpt>
      <trkpt lat="46.65419" lon="5.53442">
        <ele>264</ele>
        <time>2018-05-24T07:04:45Z</time>
      </trkpt>
      <trkpt lat="46.65427" lon="5.53452">
        <ele>265</ele>
        <time>2018-05-24T07:04:55Z</time>
      </trkpt>
      <trkpt lat="46.65435" lon="5.53461">
        <ele>265</ele>
        <time>2018-05-24T07:05:04Z</time>
      </trkpt>
      <trkpt lat="46.65443" lon="5.53469">
        <ele>265</ele>
        <time>2018-05-24T07:05:14Z</time>
      </trkpt>
      <trkpt lat="46.6545" lon="5.53479">
        <ele>265</ele>
        <time>2018-05-24T07:05:24Z</time>
      </trkpt>
      <trkpt lat="46.65482" lon="5.53523">
        <ele>268</ele>
        <time>2018-05-24T07:06:02Z</time>
      </trkpt>
      <trkpt lat="46.65501" lon="5.53555">
        <ele>270</ele>
        <time>2018-05-24T07:06:30Z</time>
      </trkpt>
      <trkpt lat="46.6551" lon="5.5358">
        <ele>271</ele>
        <time>2018-05-24T07:06:49Z</time>
      </trkpt>
      <trkpt lat="46.65517" lon="5.5359">
        <ele>271</ele>
        <time>2018-05-24T07:06:57Z</time>
      </trkpt>
      <trkpt lat="46.6553" lon="5.53627">
        <ele>275</ele>
        <time>2018-05-24T07:07:22Z</time>
      </trkpt>
      <trkpt lat="46.65537" lon="5.53648">
        <ele>275</ele>
        <time>2018-05-24T07:07:38Z</time>
      </trkpt>
      <trkpt lat="46.65537" lon="5.53662">
        <ele>276</ele>
        <time>2018-05-24T07:07:45Z</time>
      </trkpt>
      <trkpt lat="46.65542" lon="5.53674">
        <ele>276</ele>
        <time>2018-05-24T07:07:54Z</time>
      </trkpt>
      <trkpt lat="46.65544" lon="5.53688">
        <ele>276</ele>
        <time>2018-05-24T07:08:03Z</time>
      </trkpt>
      <trkpt lat="46.65542" lon="5.53738">
        <ele>279</ele>
        <time>2018-05-24T07:08:37Z</time>
      </trkpt>
      <trkpt lat="46.65536" lon="5.53766">
        <ele>280</ele>
        <time>2018-05-24T07:08:54Z</time>
      </trkpt>
      <trkpt lat="46.65533" lon="5.5378">
        <ele>280</ele>
        <time>2018-05-24T07:09:02Z</time>
      </trkpt>
      <trkpt lat="46.65532" lon="5.53794">
        <ele>279</ele>
        <time>2018-05-24T07:09:11Z</time>
      </trkpt>
      <trkpt lat="46.65533" lon="5.53822">
        <ele>279</ele>
        <time>2018-05-24T07:09:27Z</time>
      </trkpt>
      <trkpt lat="46.65531" lon="5.53849">
        <ele>280</ele>
        <time>2018-05-24T07:09:42Z</time>
      </trkpt>
      <trkpt lat="46.65531" lon="5.53857">
        <ele>280</ele>
        <time>2018-05-24T07:09:50Z</time>
      </trkpt>
      <trkpt lat="46.6553" lon="5.53864">
        <ele>280</ele>
        <time>2018-05-24T07:09:55Z</time>
      </trkpt>
      <trkpt lat="46.6553" lon="5.53879">
        <ele>280</ele>
        <time>2018-05-24T07:10:13Z</time>
      </trkpt>
      <trkpt lat="46.65531" lon="5.53885">
        <ele>281</ele>
        <time>2018-05-24T07:10:17Z</time>
      </trkpt>
      <trkpt lat="46.65529" lon="5.53894">
        <ele>281</ele>
        <time>2018-05-24T07:10:24Z</time>
      </trkpt>
      <trkpt lat="46.65526" lon="5.53901">
        <ele>282</ele>
        <time>2018-05-24T07:10:30Z</time>
      </trkpt>
      <trkpt lat="46.65525" lon="5.53907">
        <ele>282</ele>
        <time>2018-05-24T07:10:35Z</time>
      </trkpt>
      <trkpt lat="46.65519" lon="5.53919">
        <ele>283</ele>
        <time>2018-05-24T07:10:44Z</time>
      </trkpt>
      <trkpt lat="46.6551" lon="5.53958">
        <ele>286</ele>
        <time>2018-05-24T07:11:08Z</time>
      </trkpt>
      <trkpt lat="46.65506" lon="5.53961">
        <ele>286</ele>
        <time>2018-05-24T07:11:13Z</time>
      </trkpt>
      <trkpt lat="46.6547" lon="5.53948">
        <ele>287</ele>
        <time>2018-05-24T07:11:46Z</time>
      </trkpt>
      <trkpt lat="46.65464" lon="5.53949">
        <ele>287</ele>
        <time>2018-05-24T07:11:51Z</time>
      </trkpt>
      <trkpt lat="46.6546" lon="5.53953">
        <ele>287</ele>
        <time>2018-05-24T07:11:56Z</time>
      </trkpt>
      <trkpt lat="46.65457" lon="5.5396">
        <ele>287</ele>
        <time>2018-05-24T07:12:01Z</time>
      </trkpt>
      <trkpt lat="46.65449" lon="5.53973">
        <ele>289</ele>
        <time>2018-05-24T07:12:14Z</time>
      </trkpt>
      <trkpt lat="46.65444" lon="5.53978">
        <ele>289</ele>
        <time>2018-05-24T07:12:19Z</time>
      </trkpt>
      <trkpt lat="46.65419" lon="5.54009">
        <ele>294</ele>
        <time>2018-05-24T07:12:54Z</time>
      </trkpt>
      <trkpt lat="46.65415" lon="5.54013">
        <ele>294</ele>
        <time>2018-05-24T07:12:59Z</time>
      </trkpt>
      <trkpt lat="46.65412" lon="5.54018">
        <ele>294</ele>
        <time>2018-05-24T07:13:04Z</time>
      </trkpt>
      <trkpt lat="46.65407" lon="5.54024">
        <ele>296</ele>
        <time>2018-05-24T07:13:11Z</time>
      </trkpt>
      <trkpt lat="46.65402" lon="5.54028">
        <ele>297</ele>
        <time>2018-05-24T07:13:16Z</time>
      </trkpt>
      <trkpt lat="46.65397" lon="5.5403">
        <ele>297</ele>
        <time>2018-05-24T07:13:20Z</time>
      </trkpt>
      <trkpt lat="46.6537" lon="5.54052">
        <ele>301</ele>
        <time>2018-05-24T07:13:52Z</time>
      </trkpt>
      <trkpt lat="46.65366" lon="5.54056">
        <ele>302</ele>
        <time>2018-05-24T07:13:57Z</time>
      </trkpt>
      <trkpt lat="46.65357" lon="5.54069">
        <ele>303</ele>
        <time>2018-05-24T07:14:10Z</time>
      </trkpt>
      <trkpt lat="46.65355" lon="5.54077">
        <ele>303</ele>
        <time>2018-05-24T07:14:15Z</time>
      </trkpt>
      <trkpt lat="46.65354" lon="5.54085">
        <ele>304</ele>
        <time>2018-05-24T07:14:20Z</time>
      </trkpt>
      <trkpt lat="46.65353" lon="5.54092">
        <ele>304</ele>
        <time>2018-05-24T07:14:25Z</time>
      </trkpt>
      <trkpt lat="46.65353" lon="5.54099">
        <ele>303</ele>
        <time>2018-05-24T07:14:30Z</time>
      </trkpt>
      <trkpt lat="46.65354" lon="5.54107">
        <ele>303</ele>
        <time>2018-05-24T07:14:35Z</time>
      </trkpt>
      <trkpt lat="46.65353" lon="5.54115">
        <ele>304</ele>
        <time>2018-05-24T07:14:40Z</time>
      </trkpt>
      <trkpt lat="46.6535" lon="5.54121">
        <ele>303</ele>
        <time>2018-05-24T07:14:45Z</time>
      </trkpt>
      <trkpt lat="46.65345" lon="5.54124">
        <ele>303</ele>
        <time>2018-05-24T07:14:50Z</time>
      </trkpt>
      <trkpt lat="46.6534" lon="5.54126">
        <ele>303</ele>
        <time>2018-05-24T07:14:54Z</time>
      </trkpt>
      <trkpt lat="46.65336" lon="5.54129">
        <ele>304</ele>
        <time>2018-05-24T07:14:58Z</time>
      </trkpt>
      <trkpt lat="46.65332" lon="5.54132">
        <ele>304</ele>
        <time>2018-05-24T07:15:02Z</time>
      </trkpt>
      <trkpt lat="46.65327" lon="5.54134">
        <ele>305</ele>
        <time>2018-05-24T07:15:07Z</time>
      </trkpt>
      <trkpt lat="46.65322" lon="5.54136">
        <ele>304</ele>
        <time>2018-05-24T07:15:12Z</time>
      </trkpt>
      <trkpt lat="46.65316" lon="5.54137">
        <ele>305</ele>
        <time>2018-05-24T07:15:17Z</time>
      </trkpt>
      <trkpt lat="46.65312" lon="5.54138">
        <ele>305</ele>
        <time>2018-05-24T07:15:21Z</time>
      </trkpt>
      <trkpt lat="46.65272" lon="5.54142">
        <ele>305</ele>
        <time>2018-05-24T07:15:55Z</time>
      </trkpt>
      <trkpt lat="46.65262" lon="5.54142">
        <ele>306</ele>
        <time>2018-05-24T07:16:04Z</time>
      </trkpt>
      <trkpt lat="46.65242" lon="5.54144">
        <ele>306</ele>
        <time>2018-05-24T07:16:21Z</time>
      </trkpt>
      <trkpt lat="46.65237" lon="5.54145">
        <ele>305</ele>
        <time>2018-05-24T07:16:26Z</time>
      </trkpt>
      <trkpt lat="46.65233" lon="5.54148">
        <ele>305</ele>
        <time>2018-05-24T07:16:30Z</time>
      </trkpt>
      <trkpt lat="46.65223" lon="5.54152">
        <ele>305</ele>
        <time>2018-05-24T07:16:38Z</time>
      </trkpt>
      <trkpt lat="46.65219" lon="5.54156">
        <ele>305</ele>
        <time>2018-05-24T07:16:43Z</time>
      </trkpt>
      <trkpt lat="46.65219" lon="5.54163">
        <ele>305</ele>
        <time>2018-05-24T07:16:48Z</time>
      </trkpt>
      <trkpt lat="46.65224" lon="5.54174">
        <ele>305</ele>
        <time>2018-05-24T07:16:56Z</time>
      </trkpt>
      <trkpt lat="46.65227" lon="5.54182">
        <ele>306</ele>
        <time>2018-05-24T07:17:04Z</time>
      </trkpt>
      <trkpt lat="46.65236" lon="5.54184">
        <ele>306</ele>
        <time>2018-05-24T07:17:10Z</time>
      </trkpt>
      <trkpt lat="46.65239" lon="5.54188">
        <ele>306</ele>
        <time>2018-05-24T07:17:18Z</time>
      </trkpt>
      <trkpt lat="46.65244" lon="5.54191">
        <ele>306</ele>
        <time>2018-05-24T07:17:22Z</time>
      </trkpt>
      <trkpt lat="46.65258" lon="5.54202">
        <ele>308</ele>
        <time>2018-05-24T07:17:57Z</time>
      </trkpt>
      <trkpt lat="46.65267" lon="5.54209">
        <ele>309</ele>
        <time>2018-05-24T07:18:04Z</time>
      </trkpt>
      <trkpt lat="46.65302" lon="5.54218">
        <ele>312</ele>
        <time>2018-05-24T07:18:37Z</time>
      </trkpt>
      <trkpt lat="46.65318" lon="5.54234">
        <ele>312</ele>
        <time>2018-05-24T07:18:52Z</time>
      </trkpt>
      <trkpt lat="46.65325" lon="5.54251">
        <ele>313</ele>
        <time>2018-05-24T07:19:08Z</time>
      </trkpt>
      <trkpt lat="46.65321" lon="5.5427">
        <ele>314</ele>
        <time>2018-05-24T07:19:25Z</time>
      </trkpt>
      <trkpt lat="46.65324" lon="5.54291">
        <ele>317</ele>
        <time>2018-05-24T07:19:44Z</time>
      </trkpt>
      <trkpt lat="46.65323" lon="5.54305">
        <ele>318</ele>
        <time>2018-05-24T07:19:57Z</time>
      </trkpt>
      <trkpt lat="46.65324" lon="5.54318">
        <ele>319</ele>
        <time>2018-05-24T07:20:11Z</time>
      </trkpt>
      <trkpt lat="46.6532" lon="5.5433">
        <ele>327</ele>
        <time>2018-05-24T07:20:59Z</time>
      </trkpt>
      <trkpt lat="46.65321" lon="5.54329">
        <ele>330</ele>
        <time>2018-05-24T07:21:35Z</time>
      </trkpt>
      <trkpt lat="46.6531" lon="5.54331">
        <ele>331</ele>
        <time>2018-05-24T07:24:02Z</time>
      </trkpt>
      <trkpt lat="46.6531" lon="5.54349">
        <ele>332</ele>
        <time>2018-05-24T07:24:26Z</time>
      </trkpt>
      <trkpt lat="46.65319" lon="5.54357">
        <ele>332</ele>
        <time>2018-05-24T07:24:40Z</time>
      </trkpt>
      <trkpt lat="46.65331" lon="5.54382">
        <ele>335</ele>
        <time>2018-05-24T07:25:10Z</time>
      </trkpt>
      <trkpt lat="46.65336" lon="5.54396">
        <ele>337</ele>
        <time>2018-05-24T07:25:26Z</time>
      </trkpt>
      <trkpt lat="46.65339" lon="5.54409">
        <ele>340</ele>
        <time>2018-05-24T07:25:44Z</time>
      </trkpt>
      <trkpt lat="46.65354" lon="5.54452">
        <ele>345</ele>
        <time>2018-05-24T07:26:22Z</time>
      </trkpt>
      <trkpt lat="46.65356" lon="5.54469">
        <ele>349</ele>
        <time>2018-05-24T07:26:36Z</time>
      </trkpt>
      <trkpt lat="46.65349" lon="5.54479">
        <ele>350</ele>
        <time>2018-05-24T07:26:54Z</time>
      </trkpt>
      <trkpt lat="46.65346" lon="5.54488">
        <ele>355</ele>
        <time>2018-05-24T07:27:06Z</time>
      </trkpt>
      <trkpt lat="46.65341" lon="5.54491">
        <ele>356</ele>
        <time>2018-05-24T07:27:18Z</time>
      </trkpt>
      <trkpt lat="46.65337" lon="5.54494">
        <ele>359</ele>
        <time>2018-05-24T07:27:30Z</time>
      </trkpt>
      <trkpt lat="46.65332" lon="5.545">
        <ele>361</ele>
        <time>2018-05-24T07:27:42Z</time>
      </trkpt>
      <trkpt lat="46.65326" lon="5.54505">
        <ele>363</ele>
        <time>2018-05-24T07:27:54Z</time>
      </trkpt>
      <trkpt lat="46.65322" lon="5.54507">
        <ele>366</ele>
        <time>2018-05-24T07:28:17Z</time>
      </trkpt>
      <trkpt lat="46.65309" lon="5.54504">
        <ele>369</ele>
        <time>2018-05-24T07:28:47Z</time>
      </trkpt>
      <trkpt lat="46.65304" lon="5.54498">
        <ele>370</ele>
        <time>2018-05-24T07:28:59Z</time>
      </trkpt>
      <trkpt lat="46.65299" lon="5.54503">
        <ele>372</ele>
        <time>2018-05-24T07:30:29Z</time>
      </trkpt>
      <trkpt lat="46.65303" lon="5.54506">
        <ele>375</ele>
        <time>2018-05-24T07:31:23Z</time>
      </trkpt>
      <trkpt lat="46.65307" lon="5.54514">
        <ele>378</ele>
        <time>2018-05-24T07:33:23Z</time>
      </trkpt>
      <trkpt lat="46.65305" lon="5.5452">
        <ele>379</ele>
        <time>2018-05-24T07:33:28Z</time>
      </trkpt>
      <trkpt lat="46.65295" lon="5.5453">
        <ele>378</ele>
        <time>2018-05-24T07:33:39Z</time>
      </trkpt>
      <trkpt lat="46.65291" lon="5.54532">
        <ele>378</ele>
        <time>2018-05-24T07:33:43Z</time>
      </trkpt>
      <trkpt lat="46.65286" lon="5.54532">
        <ele>378</ele>
        <time>2018-05-24T07:33:47Z</time>
      </trkpt>
      <trkpt lat="46.65281" lon="5.54531">
        <ele>378</ele>
        <time>2018-05-24T07:33:51Z</time>
      </trkpt>
      <trkpt lat="46.65276" lon="5.54531">
        <ele>378</ele>
        <time>2018-05-24T07:33:56Z</time>
      </trkpt>
      <trkpt lat="46.65262" lon="5.54537">
        <ele>379</ele>
        <time>2018-05-24T07:34:11Z</time>
      </trkpt>
      <trkpt lat="46.65257" lon="5.54541">
        <ele>379</ele>
        <time>2018-05-24T07:34:16Z</time>
      </trkpt>
      <trkpt lat="46.65248" lon="5.54547">
        <ele>379</ele>
        <time>2018-05-24T07:34:25Z</time>
      </trkpt>
      <trkpt lat="46.65245" lon="5.54552">
        <ele>379</ele>
        <time>2018-05-24T07:34:30Z</time>
      </trkpt>
      <trkpt lat="46.65238" lon="5.54557">
        <ele>379</ele>
        <time>2018-05-24T07:34:38Z</time>
      </trkpt>
      <trkpt lat="46.65231" lon="5.54561">
        <ele>378</ele>
        <time>2018-05-24T07:35:12Z</time>
      </trkpt>
      <trkpt lat="46.65221" lon="5.5456">
        <ele>379</ele>
        <time>2018-05-24T07:35:19Z</time>
      </trkpt>
      <trkpt lat="46.65212" lon="5.54565">
        <ele>378</ele>
        <time>2018-05-24T07:35:27Z</time>
      </trkpt>
      <trkpt lat="46.65207" lon="5.54566">
        <ele>378</ele>
        <time>2018-05-24T07:35:31Z</time>
      </trkpt>
      <trkpt lat="46.65203" lon="5.54567">
        <ele>378</ele>
        <time>2018-05-24T07:35:35Z</time>
      </trkpt>
      <trkpt lat="46.65198" lon="5.54568">
        <ele>378</ele>
        <time>2018-05-24T07:35:39Z</time>
      </trkpt>
      <trkpt lat="46.65193" lon="5.5457">
        <ele>378</ele>
        <time>2018-05-24T07:35:43Z</time>
      </trkpt>
      <trkpt lat="46.65189" lon="5.54571">
        <ele>378</ele>
        <time>2018-05-24T07:35:47Z</time>
      </trkpt>
      <trkpt lat="46.65184" lon="5.54572">
        <ele>378</ele>
        <time>2018-05-24T07:35:52Z</time>
      </trkpt>
      <trkpt lat="46.65173" lon="5.54575">
        <ele>378</ele>
        <time>2018-05-24T07:36:01Z</time>
      </trkpt>
      <trkpt lat="46.65169" lon="5.54577">
        <ele>378</ele>
        <time>2018-05-24T07:36:05Z</time>
      </trkpt>
      <trkpt lat="46.65164" lon="5.54578">
        <ele>378</ele>
        <time>2018-05-24T07:36:09Z</time>
      </trkpt>
      <trkpt lat="46.65146" lon="5.54592">
        <ele>378</ele>
        <time>2018-05-24T07:36:27Z</time>
      </trkpt>
      <trkpt lat="46.65136" lon="5.54599">
        <ele>377</ele>
        <time>2018-05-24T07:36:40Z</time>
      </trkpt>
      <trkpt lat="46.65131" lon="5.54602">
        <ele>378</ele>
        <time>2018-05-24T07:36:45Z</time>
      </trkpt>
      <trkpt lat="46.65126" lon="5.54603">
        <ele>377</ele>
        <time>2018-05-24T07:36:50Z</time>
      </trkpt>
      <trkpt lat="46.65117" lon="5.54607">
        <ele>377</ele>
        <time>2018-05-24T07:37:00Z</time>
      </trkpt>
      <trkpt lat="46.65112" lon="5.54609">
        <ele>377</ele>
        <time>2018-05-24T07:37:05Z</time>
      </trkpt>
      <trkpt lat="46.65107" lon="5.54611">
        <ele>377</ele>
        <time>2018-05-24T07:37:10Z</time>
      </trkpt>
      <trkpt lat="46.65101" lon="5.54613">
        <ele>376</ele>
        <time>2018-05-24T07:37:18Z</time>
      </trkpt>
      <trkpt lat="46.65096" lon="5.54616">
        <ele>377</ele>
        <time>2018-05-24T07:37:30Z</time>
      </trkpt>
      <trkpt lat="46.65089" lon="5.54618">
        <ele>375</ele>
        <time>2018-05-24T07:37:48Z</time>
      </trkpt>
      <trkpt lat="46.6509" lon="5.54609">
        <ele>374</ele>
        <time>2018-05-24T07:38:18Z</time>
      </trkpt>
      <trkpt lat="46.65095" lon="5.546">
        <ele>374</ele>
        <time>2018-05-24T07:38:30Z</time>
      </trkpt>
      <trkpt lat="46.65099" lon="5.54591">
        <ele>373</ele>
        <time>2018-05-24T07:38:42Z</time>
      </trkpt>
      <trkpt lat="46.65099" lon="5.5458">
        <ele>371</ele>
        <time>2018-05-24T07:38:54Z</time>
      </trkpt>
      <trkpt lat="46.65093" lon="5.54574">
        <ele>370</ele>
        <time>2018-05-24T07:39:06Z</time>
      </trkpt>
      <trkpt lat="46.65074" lon="5.54571">
        <ele>365</ele>
        <time>2018-05-24T07:39:43Z</time>
      </trkpt>
      <trkpt lat="46.65068" lon="5.54569">
        <ele>364</ele>
        <time>2018-05-24T07:39:55Z</time>
      </trkpt>
      <trkpt lat="46.65052" lon="5.54565">
        <ele>360</ele>
        <time>2018-05-24T07:40:19Z</time>
      </trkpt>
      <trkpt lat="46.65026" lon="5.54572">
        <ele>351</ele>
        <time>2018-05-24T07:41:01Z</time>
      </trkpt>
      <trkpt lat="46.65021" lon="5.54571">
        <ele>349</ele>
        <time>2018-05-24T07:41:13Z</time>
      </trkpt>
      <trkpt lat="46.65017" lon="5.54566">
        <ele>347</ele>
        <time>2018-05-24T07:41:25Z</time>
      </trkpt>
      <trkpt lat="46.65006" lon="5.54565">
        <ele>343</ele>
        <time>2018-05-24T07:41:44Z</time>
      </trkpt>
      <trkpt lat="46.65001" lon="5.54568">
        <ele>341</ele>
        <time>2018-05-24T07:41:53Z</time>
      </trkpt>
      <trkpt lat="46.64991" lon="5.54571">
        <ele>337</ele>
        <time>2018-05-24T07:42:17Z</time>
      </trkpt>
      <trkpt lat="46.64988" lon="5.54566">
        <ele>333</ele>
        <time>2018-05-24T07:42:40Z</time>
      </trkpt>
      <trkpt lat="46.64982" lon="5.54569">
        <ele>331</ele>
        <time>2018-05-24T07:42:58Z</time>
      </trkpt>
      <trkpt lat="46.6497" lon="5.54572">
        <ele>326</ele>
        <time>2018-05-24T07:43:28Z</time>
      </trkpt>
      <trkpt lat="46.6496" lon="5.54567">
        <ele>321</ele>
        <time>2018-05-24T07:43:58Z</time>
      </trkpt>
      <trkpt lat="46.64956" lon="5.54571">
        <ele>319</ele>
        <time>2018-05-24T07:44:10Z</time>
      </trkpt>
      <trkpt lat="46.64951" lon="5.54571">
        <ele>316</ele>
        <time>2018-05-24T07:44:22Z</time>
      </trkpt>
      <trkpt lat="46.64948" lon="5.54564">
        <ele>313</ele>
        <time>2018-05-24T07:44:52Z</time>
      </trkpt>
      <trkpt lat="46.64942" lon="5.54562">
        <ele>312</ele>
        <time>2018-05-24T07:45:04Z</time>
      </trkpt>
      <trkpt lat="46.64939" lon="5.54567">
        <ele>309</ele>
        <time>2018-05-24T07:45:16Z</time>
      </trkpt>
      <trkpt lat="46.64934" lon="5.54569">
        <ele>306</ele>
        <time>2018-05-24T07:45:28Z</time>
      </trkpt>
      <trkpt lat="46.64929" lon="5.54569">
        <ele>303</ele>
        <time>2018-05-24T07:45:52Z</time>
      </trkpt>
      <trkpt lat="46.64929" lon="5.54561">
        <ele>301</ele>
        <time>2018-05-24T07:46:04Z</time>
      </trkpt>
      <trkpt lat="46.64925" lon="5.54553">
        <ele>298</ele>
        <time>2018-05-24T07:46:40Z</time>
      </trkpt>
      <trkpt lat="46.64917" lon="5.54559">
        <ele>294</ele>
        <time>2018-05-24T07:46:58Z</time>
      </trkpt>
      <trkpt lat="46.64913" lon="5.54568">
        <ele>292</ele>
        <time>2018-05-24T07:50:58Z</time>
      </trkpt>
      <trkpt lat="46.64909" lon="5.54571">
        <ele>291</ele>
        <time>2018-05-24T07:51:03Z</time>
      </trkpt>
      <trkpt lat="46.64905" lon="5.54576">
        <ele>290</ele>
        <time>2018-05-24T07:51:08Z</time>
      </trkpt>
      <trkpt lat="46.64902" lon="5.54582">
        <ele>289</ele>
        <time>2018-05-24T07:51:13Z</time>
      </trkpt>
      <trkpt lat="46.64897" lon="5.54587">
        <ele>288</ele>
        <time>2018-05-24T07:51:17Z</time>
      </trkpt>
      <trkpt lat="46.6489" lon="5.54601">
        <ele>286</ele>
        <time>2018-05-24T07:51:30Z</time>
      </trkpt>
      <trkpt lat="46.64889" lon="5.54608">
        <ele>285</ele>
        <time>2018-05-24T07:51:35Z</time>
      </trkpt>
      <trkpt lat="46.64887" lon="5.54615">
        <ele>285</ele>
        <time>2018-05-24T07:51:40Z</time>
      </trkpt>
      <trkpt lat="46.64885" lon="5.5462">
        <ele>283</ele>
        <time>2018-05-24T07:51:44Z</time>
      </trkpt>
      <trkpt lat="46.64885" lon="5.54629">
        <ele>283</ele>
        <time>2018-05-24T07:51:51Z</time>
      </trkpt>
      <trkpt lat="46.64883" lon="5.54644">
        <ele>281</ele>
        <time>2018-05-24T07:52:00Z</time>
      </trkpt>
      <trkpt lat="46.64881" lon="5.54651">
        <ele>281</ele>
        <time>2018-05-24T07:52:05Z</time>
      </trkpt>
      <trkpt lat="46.64879" lon="5.54657">
        <ele>281</ele>
        <time>2018-05-24T07:52:10Z</time>
      </trkpt>
      <trkpt lat="46.64877" lon="5.54665">
        <ele>281</ele>
        <time>2018-05-24T07:52:15Z</time>
      </trkpt>
      <trkpt lat="46.64867" lon="5.5469">
        <ele>277</ele>
        <time>2018-05-24T07:52:32Z</time>
      </trkpt>
      <trkpt lat="46.64867" lon="5.54684">
        <ele>278</ele>
        <time>2018-05-24T07:52:51Z</time>
      </trkpt>
      <trkpt lat="46.64874" lon="5.5467">
        <ele>278</ele>
        <time>2018-05-24T07:53:05Z</time>
      </trkpt>
      <trkpt lat="46.64876" lon="5.54664">
        <ele>279</ele>
        <time>2018-05-24T07:53:10Z</time>
      </trkpt>
      <trkpt lat="46.64879" lon="5.54657">
        <ele>279</ele>
        <time>2018-05-24T07:53:15Z</time>
      </trkpt>
      <trkpt lat="46.64882" lon="5.54651">
        <ele>280</ele>
        <time>2018-05-24T07:53:20Z</time>
      </trkpt>
      <trkpt lat="46.64884" lon="5.54643">
        <ele>281</ele>
        <time>2018-05-24T07:53:24Z</time>
      </trkpt>
      <trkpt lat="46.64883" lon="5.54636">
        <ele>281</ele>
        <time>2018-05-24T07:53:28Z</time>
      </trkpt>
      <trkpt lat="46.64879" lon="5.54632">
        <ele>280</ele>
        <time>2018-05-24T07:53:32Z</time>
      </trkpt>
      <trkpt lat="46.64875" lon="5.54634">
        <ele>279</ele>
        <time>2018-05-24T07:53:37Z</time>
      </trkpt>
      <trkpt lat="46.64866" lon="5.54642">
        <ele>277</ele>
        <time>2018-05-24T07:53:45Z</time>
      </trkpt>
      <trkpt lat="46.64858" lon="5.5466">
        <ele>275</ele>
        <time>2018-05-24T07:53:57Z</time>
      </trkpt>
      <trkpt lat="46.64855" lon="5.54666">
        <ele>275</ele>
        <time>2018-05-24T07:54:01Z</time>
      </trkpt>
      <trkpt lat="46.64853" lon="5.54673">
        <ele>275</ele>
        <time>2018-05-24T07:54:05Z</time>
      </trkpt>
      <trkpt lat="46.64848" lon="5.54686">
        <ele>275</ele>
        <time>2018-05-24T07:54:13Z</time>
      </trkpt>
      <trkpt lat="46.64846" lon="5.54693">
        <ele>274</ele>
        <time>2018-05-24T07:54:18Z</time>
      </trkpt>
      <trkpt lat="46.64841" lon="5.54706">
        <ele>275</ele>
        <time>2018-05-24T07:54:26Z</time>
      </trkpt>
      <trkpt lat="46.64838" lon="5.54712">
        <ele>274</ele>
        <time>2018-05-24T07:54:30Z</time>
      </trkpt>
      <trkpt lat="46.64834" lon="5.54723">
        <ele>271</ele>
        <time>2018-05-24T07:55:05Z</time>
      </trkpt>
      <trkpt lat="46.64832" lon="5.5473">
        <ele>272</ele>
        <time>2018-05-24T07:55:12Z</time>
      </trkpt>
      <trkpt lat="46.64824" lon="5.54747">
        <ele>272</ele>
        <time>2018-05-24T07:55:24Z</time>
      </trkpt>
      <trkpt lat="46.64823" lon="5.54754">
        <ele>272</ele>
        <time>2018-05-24T07:55:29Z</time>
      </trkpt>
      <trkpt lat="46.64823" lon="5.54761">
        <ele>271</ele>
        <time>2018-05-24T07:55:34Z</time>
      </trkpt>
      <trkpt lat="46.64821" lon="5.5477">
        <ele>271</ele>
        <time>2018-05-24T07:55:41Z</time>
      </trkpt>
      <trkpt lat="46.64817" lon="5.54789">
        <ele>271</ele>
        <time>2018-05-24T07:55:57Z</time>
      </trkpt>
      <trkpt lat="46.64816" lon="5.54796">
        <ele>271</ele>
        <time>2018-05-24T07:56:02Z</time>
      </trkpt>
      <trkpt lat="46.64818" lon="5.54819">
        <ele>273</ele>
        <time>2018-05-24T07:56:19Z</time>
      </trkpt>
      <trkpt lat="46.64818" lon="5.54827">
        <ele>273</ele>
        <time>2018-05-24T07:56:23Z</time>
      </trkpt>
      <trkpt lat="46.64817" lon="5.54842">
        <ele>273</ele>
        <time>2018-05-24T07:56:31Z</time>
      </trkpt>
      <trkpt lat="46.64815" lon="5.54858">
        <ele>273</ele>
        <time>2018-05-24T07:56:39Z</time>
      </trkpt>
      <trkpt lat="46.64812" lon="5.54893">
        <ele>275</ele>
        <time>2018-05-24T07:57:00Z</time>
      </trkpt>
      <trkpt lat="46.64811" lon="5.54899">
        <ele>275</ele>
        <time>2018-05-24T07:57:04Z</time>
      </trkpt>
      <trkpt lat="46.64806" lon="5.54934">
        <ele>274</ele>
        <time>2018-05-24T07:57:24Z</time>
      </trkpt>
      <trkpt lat="46.64807" lon="5.54942">
        <ele>274</ele>
        <time>2018-05-24T07:57:29Z</time>
      </trkpt>
      <trkpt lat="46.64805" lon="5.54957">
        <ele>275</ele>
        <time>2018-05-24T07:57:38Z</time>
      </trkpt>
      <trkpt lat="46.64804" lon="5.54972">
        <ele>275</ele>
        <time>2018-05-24T07:57:45Z</time>
      </trkpt>
      <trkpt lat="46.64804" lon="5.54978">
        <ele>275</ele>
        <time>2018-05-24T07:57:49Z</time>
      </trkpt>
      <trkpt lat="46.64801" lon="5.55008">
        <ele>276</ele>
        <time>2018-05-24T07:58:06Z</time>
      </trkpt>
      <trkpt lat="46.64801" lon="5.55014">
        <ele>276</ele>
        <time>2018-05-24T07:58:10Z</time>
      </trkpt>
      <trkpt lat="46.648" lon="5.55022">
        <ele>276</ele>
        <time>2018-05-24T07:58:15Z</time>
      </trkpt>
      <trkpt lat="46.64799" lon="5.55029">
        <ele>276</ele>
        <time>2018-05-24T07:58:19Z</time>
      </trkpt>
      <trkpt lat="46.64796" lon="5.55043">
        <ele>276</ele>
        <time>2018-05-24T07:58:27Z</time>
      </trkpt>
      <trkpt lat="46.64795" lon="5.5505">
        <ele>276</ele>
        <time>2018-05-24T07:58:31Z</time>
      </trkpt>
      <trkpt lat="46.64791" lon="5.55063">
        <ele>277</ele>
        <time>2018-05-24T07:58:39Z</time>
      </trkpt>
      <trkpt lat="46.64786" lon="5.55077">
        <ele>277</ele>
        <time>2018-05-24T07:58:48Z</time>
      </trkpt>
      <trkpt lat="46.64781" lon="5.55098">
        <ele>278</ele>
        <time>2018-05-24T07:58:59Z</time>
      </trkpt>
      <trkpt lat="46.64778" lon="5.55104">
        <ele>278</ele>
        <time>2018-05-24T07:59:03Z</time>
      </trkpt>
      <trkpt lat="46.64776" lon="5.5512">
        <ele>279</ele>
        <time>2018-05-24T07:59:13Z</time>
      </trkpt>
      <trkpt lat="46.64772" lon="5.55139">
        <ele>279</ele>
        <time>2018-05-24T07:59:25Z</time>
      </trkpt>
      <trkpt lat="46.64769" lon="5.55153">
        <ele>278</ele>
        <time>2018-05-24T07:59:33Z</time>
      </trkpt>
      <trkpt lat="46.64767" lon="5.5516">
        <ele>278</ele>
        <time>2018-05-24T07:59:37Z</time>
      </trkpt>
      <trkpt lat="46.64765" lon="5.55174">
        <ele>278</ele>
        <time>2018-05-24T07:59:45Z</time>
      </trkpt>
      <trkpt lat="46.64764" lon="5.5518">
        <ele>279</ele>
        <time>2018-05-24T07:59:49Z</time>
      </trkpt>
      <trkpt lat="46.64762" lon="5.55195">
        <ele>279</ele>
        <time>2018-05-24T07:59:58Z</time>
      </trkpt>
      <trkpt lat="46.6476" lon="5.55202">
        <ele>279</ele>
        <time>2018-05-24T08:00:02Z</time>
      </trkpt>
      <trkpt lat="46.6476" lon="5.55208">
        <ele>280</ele>
        <time>2018-05-24T08:00:24Z</time>
      </trkpt>
      <trkpt lat="46.64757" lon="5.55222">
        <ele>279</ele>
        <time>2018-05-24T08:00:54Z</time>
      </trkpt>
      <trkpt lat="46.64755" lon="5.55229">
        <ele>279</ele>
        <time>2018-05-24T08:00:58Z</time>
      </trkpt>
      <trkpt lat="46.64754" lon="5.55236">
        <ele>279</ele>
        <time>2018-05-24T08:01:02Z</time>
      </trkpt>
      <trkpt lat="46.64752" lon="5.5525">
        <ele>279</ele>
        <time>2018-05-24T08:01:11Z</time>
      </trkpt>
      <trkpt lat="46.64751" lon="5.55257">
        <ele>279</ele>
        <time>2018-05-24T08:01:16Z</time>
      </trkpt>
      <trkpt lat="46.64752" lon="5.55267">
        <ele>279</ele>
        <time>2018-05-24T08:01:22Z</time>
      </trkpt>
      <trkpt lat="46.64751" lon="5.55275">
        <ele>278</ele>
        <time>2018-05-24T08:01:26Z</time>
      </trkpt>
      <trkpt lat="46.6475" lon="5.55312">
        <ele>279</ele>
        <time>2018-05-24T08:01:46Z</time>
      </trkpt>
      <trkpt lat="46.64755" lon="5.55327">
        <ele>279</ele>
        <time>2018-05-24T08:01:55Z</time>
      </trkpt>
      <trkpt lat="46.64756" lon="5.55333">
        <ele>280</ele>
        <time>2018-05-24T08:01:59Z</time>
      </trkpt>
      <trkpt lat="46.64757" lon="5.5534">
        <ele>280</ele>
        <time>2018-05-24T08:02:03Z</time>
      </trkpt>
      <trkpt lat="46.64758" lon="5.55347">
        <ele>280</ele>
        <time>2018-05-24T08:02:07Z</time>
      </trkpt>
      <trkpt lat="46.6476" lon="5.55361">
        <ele>280</ele>
        <time>2018-05-24T08:02:15Z</time>
      </trkpt>
      <trkpt lat="46.6476" lon="5.55369">
        <ele>281</ele>
        <time>2018-05-24T08:02:20Z</time>
      </trkpt>
      <trkpt lat="46.64761" lon="5.55375">
        <ele>281</ele>
        <time>2018-05-24T08:02:24Z</time>
      </trkpt>
      <trkpt lat="46.64762" lon="5.55382">
        <ele>281</ele>
        <time>2018-05-24T08:02:29Z</time>
      </trkpt>
      <trkpt lat="46.64769" lon="5.55425">
        <ele>283</ele>
        <time>2018-05-24T08:02:56Z</time>
      </trkpt>
      <trkpt lat="46.6477" lon="5.55432">
        <ele>283</ele>
        <time>2018-05-24T08:03:00Z</time>
      </trkpt>
      <trkpt lat="46.64773" lon="5.55446">
        <ele>284</ele>
        <time>2018-05-24T08:03:08Z</time>
      </trkpt>
      <trkpt lat="46.64774" lon="5.55452">
        <ele>284</ele>
        <time>2018-05-24T08:03:12Z</time>
      </trkpt>
      <trkpt lat="46.64779" lon="5.55466">
        <ele>284</ele>
        <time>2018-05-24T08:03:21Z</time>
      </trkpt>
      <trkpt lat="46.64781" lon="5.55472">
        <ele>285</ele>
        <time>2018-05-24T08:03:25Z</time>
      </trkpt>
      <trkpt lat="46.64786" lon="5.55492">
        <ele>285</ele>
        <time>2018-05-24T08:03:37Z</time>
      </trkpt>
      <trkpt lat="46.64787" lon="5.55498">
        <ele>285</ele>
        <time>2018-05-24T08:03:41Z</time>
      </trkpt>
      <trkpt lat="46.6479" lon="5.55504">
        <ele>285</ele>
        <time>2018-05-24T08:03:45Z</time>
      </trkpt>
      <trkpt lat="46.648" lon="5.55544">
        <ele>284</ele>
        <time>2018-05-24T08:04:09Z</time>
      </trkpt>
      <trkpt lat="46.64803" lon="5.55549">
        <ele>284</ele>
        <time>2018-05-24T08:04:13Z</time>
      </trkpt>
      <trkpt lat="46.64818" lon="5.55587">
        <ele>286</ele>
        <time>2018-05-24T08:04:39Z</time>
      </trkpt>
      <trkpt lat="46.6482" lon="5.55595">
        <ele>286</ele>
        <time>2018-05-24T08:04:44Z</time>
      </trkpt>
      <trkpt lat="46.64824" lon="5.55607">
        <ele>286</ele>
        <time>2018-05-24T08:04:52Z</time>
      </trkpt>
      <trkpt lat="46.64827" lon="5.55613">
        <ele>287</ele>
        <time>2018-05-24T08:04:56Z</time>
      </trkpt>
      <trkpt lat="46.64828" lon="5.55619">
        <ele>287</ele>
        <time>2018-05-24T08:05:00Z</time>
      </trkpt>
      <trkpt lat="46.6483" lon="5.55626">
        <ele>287</ele>
        <time>2018-05-24T08:05:05Z</time>
      </trkpt>
      <trkpt lat="46.64845" lon="5.55655">
        <ele>292</ele>
        <time>2018-05-24T08:05:25Z</time>
      </trkpt>
      <trkpt lat="46.64848" lon="5.5566">
        <ele>292</ele>
        <time>2018-05-24T08:05:29Z</time>
      </trkpt>
      <trkpt lat="46.64872" lon="5.5568">
        <ele>294</ele>
        <time>2018-05-24T08:05:54Z</time>
      </trkpt>
      <trkpt lat="46.64868" lon="5.55692">
        <ele>294</ele>
        <time>2018-05-24T08:06:04Z</time>
      </trkpt>
      <trkpt lat="46.64863" lon="5.55695">
        <ele>294</ele>
        <time>2018-05-24T08:06:08Z</time>
      </trkpt>
      <trkpt lat="46.64858" lon="5.55698">
        <ele>295</ele>
        <time>2018-05-24T08:06:13Z</time>
      </trkpt>
      <trkpt lat="46.64844" lon="5.55708">
        <ele>295</ele>
        <time>2018-05-24T08:06:26Z</time>
      </trkpt>
      <trkpt lat="46.64836" lon="5.55715">
        <ele>296</ele>
        <time>2018-05-24T08:06:36Z</time>
      </trkpt>
      <trkpt lat="46.64826" lon="5.55721">
        <ele>296</ele>
        <time>2018-05-24T08:06:45Z</time>
      </trkpt>
      <trkpt lat="46.64816" lon="5.55725">
        <ele>296</ele>
        <time>2018-05-24T08:06:54Z</time>
      </trkpt>
      <trkpt lat="46.64811" lon="5.55727">
        <ele>296</ele>
        <time>2018-05-24T08:06:58Z</time>
      </trkpt>
      <trkpt lat="46.64807" lon="5.5573">
        <ele>296</ele>
        <time>2018-05-24T08:07:02Z</time>
      </trkpt>
      <trkpt lat="46.64797" lon="5.55734">
        <ele>295</ele>
        <time>2018-05-24T08:07:10Z</time>
      </trkpt>
      <trkpt lat="46.6476" lon="5.55754">
        <ele>297</ele>
        <time>2018-05-24T08:07:42Z</time>
      </trkpt>
      <trkpt lat="46.64755" lon="5.55756">
        <ele>297</ele>
        <time>2018-05-24T08:07:46Z</time>
      </trkpt>
      <trkpt lat="46.64735" lon="5.55769">
        <ele>296</ele>
        <time>2018-05-24T08:08:10Z</time>
      </trkpt>
      <trkpt lat="46.6473" lon="5.55772">
        <ele>296</ele>
        <time>2018-05-24T08:08:14Z</time>
      </trkpt>
      <trkpt lat="46.64712" lon="5.55782">
        <ele>295</ele>
        <time>2018-05-24T08:08:31Z</time>
      </trkpt>
      <trkpt lat="46.64697" lon="5.55791">
        <ele>296</ele>
        <time>2018-05-24T08:08:45Z</time>
      </trkpt>
      <trkpt lat="46.64675" lon="5.55806">
        <ele>295</ele>
        <time>2018-05-24T08:09:05Z</time>
      </trkpt>
      <trkpt lat="46.64646" lon="5.55827">
        <ele>296</ele>
        <time>2018-05-24T08:09:29Z</time>
      </trkpt>
      <trkpt lat="46.64642" lon="5.55831">
        <ele>295</ele>
        <time>2018-05-24T08:09:33Z</time>
      </trkpt>
      <trkpt lat="46.64637" lon="5.55835">
        <ele>295</ele>
        <time>2018-05-24T08:09:37Z</time>
      </trkpt>
      <trkpt lat="46.64633" lon="5.55837">
        <ele>294</ele>
        <time>2018-05-24T08:09:41Z</time>
      </trkpt>
      <trkpt lat="46.64629" lon="5.55841">
        <ele>294</ele>
        <time>2018-05-24T08:09:46Z</time>
      </trkpt>
      <trkpt lat="46.64624" lon="5.55843">
        <ele>293</ele>
        <time>2018-05-24T08:09:50Z</time>
      </trkpt>
      <trkpt lat="46.64611" lon="5.55852">
        <ele>291</ele>
        <time>2018-05-24T08:10:01Z</time>
      </trkpt>
      <trkpt lat="46.64606" lon="5.55856">
        <ele>291</ele>
        <time>2018-05-24T08:10:05Z</time>
      </trkpt>
      <trkpt lat="46.64602" lon="5.55859">
        <ele>292</ele>
        <time>2018-05-24T08:10:09Z</time>
      </trkpt>
      <trkpt lat="46.64585" lon="5.55873">
        <ele>292</ele>
        <time>2018-05-24T08:10:25Z</time>
      </trkpt>
      <trkpt lat="46.64571" lon="5.55883">
        <ele>292</ele>
        <time>2018-05-24T08:10:37Z</time>
      </trkpt>
      <trkpt lat="46.64562" lon="5.5589">
        <ele>292</ele>
        <time>2018-05-24T08:10:45Z</time>
      </trkpt>
      <trkpt lat="46.64558" lon="5.55893">
        <ele>292</ele>
        <time>2018-05-24T08:10:49Z</time>
      </trkpt>
      <trkpt lat="46.64546" lon="5.55904">
        <ele>292</ele>
        <time>2018-05-24T08:11:01Z</time>
      </trkpt>
      <trkpt lat="46.64541" lon="5.55908">
        <ele>292</ele>
        <time>2018-05-24T08:11:05Z</time>
      </trkpt>
      <trkpt lat="46.64537" lon="5.55912">
        <ele>293</ele>
        <time>2018-05-24T08:11:10Z</time>
      </trkpt>
      <trkpt lat="46.64532" lon="5.55914">
        <ele>292</ele>
        <time>2018-05-24T08:11:14Z</time>
      </trkpt>
      <trkpt lat="46.64528" lon="5.55917">
        <ele>292</ele>
        <time>2018-05-24T08:11:18Z</time>
      </trkpt>
      <trkpt lat="46.6451" lon="5.55925">
        <ele>292</ele>
        <time>2018-05-24T08:11:33Z</time>
      </trkpt>
      <trkpt lat="46.64505" lon="5.55928">
        <ele>292</ele>
        <time>2018-05-24T08:11:37Z</time>
      </trkpt>
      <trkpt lat="46.64499" lon="5.55931">
        <ele>292</ele>
        <time>2018-05-24T08:11:41Z</time>
      </trkpt>
      <trkpt lat="46.64494" lon="5.55933">
        <ele>293</ele>
        <time>2018-05-24T08:11:45Z</time>
      </trkpt>
      <trkpt lat="46.6448" lon="5.55941">
        <ele>292</ele>
        <time>2018-05-24T08:11:58Z</time>
      </trkpt>
      <trkpt lat="46.64467" lon="5.55948">
        <ele>293</ele>
        <time>2018-05-24T08:12:10Z</time>
      </trkpt>
      <trkpt lat="46.64457" lon="5.55952">
        <ele>293</ele>
        <time>2018-05-24T08:12:18Z</time>
      </trkpt>
      <trkpt lat="46.64452" lon="5.55953">
        <ele>294</ele>
        <time>2018-05-24T08:12:22Z</time>
      </trkpt>
      <trkpt lat="46.64441" lon="5.55953">
        <ele>294</ele>
        <time>2018-05-24T08:12:30Z</time>
      </trkpt>
      <trkpt lat="46.64436" lon="5.55952">
        <ele>294</ele>
        <time>2018-05-24T08:12:34Z</time>
      </trkpt>
      <trkpt lat="46.64415" lon="5.55955">
        <ele>296</ele>
        <time>2018-05-24T08:12:51Z</time>
      </trkpt>
      <trkpt lat="46.64411" lon="5.55959">
        <ele>296</ele>
        <time>2018-05-24T08:12:56Z</time>
      </trkpt>
      <trkpt lat="46.64405" lon="5.55959">
        <ele>296</ele>
        <time>2018-05-24T08:13:00Z</time>
      </trkpt>
      <trkpt lat="46.64396" lon="5.55965">
        <ele>296</ele>
        <time>2018-05-24T08:13:09Z</time>
      </trkpt>
      <trkpt lat="46.64391" lon="5.55968">
        <ele>296</ele>
        <time>2018-05-24T08:13:13Z</time>
      </trkpt>
      <trkpt lat="46.64383" lon="5.55975">
        <ele>295</ele>
        <time>2018-05-24T08:13:22Z</time>
      </trkpt>
      <trkpt lat="46.64379" lon="5.55977">
        <ele>295</ele>
        <time>2018-05-24T08:13:36Z</time>
      </trkpt>
      <trkpt lat="46.64378" lon="5.55997">
        <ele>295</ele>
        <time>2018-05-24T08:14:11Z</time>
      </trkpt>
      <trkpt lat="46.64381" lon="5.56014">
        <ele>296</ele>
        <time>2018-05-24T08:14:22Z</time>
      </trkpt>
      <trkpt lat="46.64384" lon="5.56028">
        <ele>296</ele>
        <time>2018-05-24T08:14:30Z</time>
      </trkpt>
      <trkpt lat="46.64385" lon="5.56036">
        <ele>297</ele>
        <time>2018-05-24T08:14:35Z</time>
      </trkpt>
      <trkpt lat="46.64386" lon="5.56043">
        <ele>297</ele>
        <time>2018-05-24T08:14:39Z</time>
      </trkpt>
      <trkpt lat="46.64386" lon="5.56051">
        <ele>297</ele>
        <time>2018-05-24T08:14:44Z</time>
      </trkpt>
      <trkpt lat="46.64385" lon="5.56058">
        <ele>298</ele>
        <time>2018-05-24T08:14:49Z</time>
      </trkpt>
      <trkpt lat="46.64383" lon="5.56065">
        <ele>297</ele>
        <time>2018-05-24T08:14:54Z</time>
      </trkpt>
      <trkpt lat="46.6438" lon="5.5608">
        <ele>299</ele>
        <time>2018-05-24T08:15:04Z</time>
      </trkpt>
      <trkpt lat="46.6437" lon="5.56098">
        <ele>300</ele>
        <time>2018-05-24T08:15:21Z</time>
      </trkpt>
      <trkpt lat="46.64359" lon="5.56114">
        <ele>301</ele>
        <time>2018-05-24T08:15:36Z</time>
      </trkpt>
      <trkpt lat="46.64356" lon="5.56121">
        <ele>302</ele>
        <time>2018-05-24T08:15:44Z</time>
      </trkpt>
      <trkpt lat="46.6435" lon="5.56129">
        <ele>302</ele>
        <time>2018-05-24T08:16:03Z</time>
      </trkpt>
      <trkpt lat="46.64343" lon="5.5614">
        <ele>305</ele>
        <time>2018-05-24T08:16:12Z</time>
      </trkpt>
      <trkpt lat="46.64337" lon="5.56151">
        <ele>305</ele>
        <time>2018-05-24T08:16:20Z</time>
      </trkpt>
      <trkpt lat="46.6433" lon="5.56164">
        <ele>305</ele>
        <time>2018-05-24T08:16:29Z</time>
      </trkpt>
      <trkpt lat="46.64328" lon="5.56169">
        <ele>305</ele>
        <time>2018-05-24T08:16:34Z</time>
      </trkpt>
      <trkpt lat="46.64324" lon="5.56176">
        <ele>306</ele>
        <time>2018-05-24T08:16:41Z</time>
      </trkpt>
      <trkpt lat="46.64321" lon="5.56182">
        <ele>306</ele>
        <time>2018-05-24T08:16:45Z</time>
      </trkpt>
      <trkpt lat="46.64318" lon="5.56187">
        <ele>307</ele>
        <time>2018-05-24T08:16:49Z</time>
      </trkpt>
      <trkpt lat="46.64313" lon="5.56201">
        <ele>307</ele>
        <time>2018-05-24T08:16:59Z</time>
      </trkpt>
      <trkpt lat="46.64314" lon="5.56215">
        <ele>308</ele>
        <time>2018-05-24T08:17:10Z</time>
      </trkpt>
      <trkpt lat="46.64318" lon="5.56229">
        <ele>309</ele>
        <time>2018-05-24T08:17:19Z</time>
      </trkpt>
      <trkpt lat="46.64316" lon="5.56236">
        <ele>309</ele>
        <time>2018-05-24T08:17:24Z</time>
      </trkpt>
      <trkpt lat="46.6431" lon="5.56233">
        <ele>309</ele>
        <time>2018-05-24T08:18:02Z</time>
      </trkpt>
      <trkpt lat="46.64312" lon="5.56223">
        <ele>311</ele>
        <time>2018-05-24T08:18:13Z</time>
      </trkpt>
      <trkpt lat="46.64314" lon="5.56225">
        <ele>311</ele>
        <time>2018-05-24T08:18:51Z</time>
      </trkpt>
      <trkpt lat="46.64311" lon="5.56232">
        <ele>310</ele>
        <time>2018-05-24T08:19:03Z</time>
      </trkpt>
      <trkpt lat="46.64313" lon="5.56238">
        <ele>310</ele>
        <time>2018-05-24T08:19:33Z</time>
      </trkpt>
      <trkpt lat="46.64312" lon="5.5624">
        <ele>310</ele>
        <time>2018-05-24T08:22:21Z</time>
      </trkpt>
      <trkpt lat="46.64307" lon="5.56264">
        <ele>310</ele>
        <time>2018-05-24T08:23:02Z</time>
      </trkpt>
      <trkpt lat="46.64293" lon="5.56293">
        <ele>310</ele>
        <time>2018-05-24T08:23:22Z</time>
      </trkpt>
      <trkpt lat="46.6429" lon="5.56299">
        <ele>310</ele>
        <time>2018-05-24T08:23:26Z</time>
      </trkpt>
      <trkpt lat="46.64287" lon="5.56305">
        <ele>310</ele>
        <time>2018-05-24T08:23:30Z</time>
      </trkpt>
      <trkpt lat="46.64285" lon="5.56312">
        <ele>308</ele>
        <time>2018-05-24T08:23:35Z</time>
      </trkpt>
      <trkpt lat="46.64285" lon="5.56319">
        <ele>308</ele>
        <time>2018-05-24T08:23:39Z</time>
      </trkpt>
      <trkpt lat="46.64285" lon="5.56327">
        <ele>309</ele>
        <time>2018-05-24T08:23:43Z</time>
      </trkpt>
      <trkpt lat="46.64284" lon="5.56341">
        <ele>308</ele>
        <time>2018-05-24T08:23:51Z</time>
      </trkpt>
      <trkpt lat="46.64283" lon="5.56347">
        <ele>308</ele>
        <time>2018-05-24T08:23:55Z</time>
      </trkpt>
      <trkpt lat="46.64281" lon="5.56362">
        <ele>307</ele>
        <time>2018-05-24T08:24:04Z</time>
      </trkpt>
      <trkpt lat="46.64281" lon="5.5637">
        <ele>308</ele>
        <time>2018-05-24T08:24:09Z</time>
      </trkpt>
      <trkpt lat="46.64275" lon="5.5642">
        <ele>307</ele>
        <time>2018-05-24T08:24:37Z</time>
      </trkpt>
      <trkpt lat="46.64272" lon="5.56425">
        <ele>307</ele>
        <time>2018-05-24T08:24:42Z</time>
      </trkpt>
      <trkpt lat="46.64267" lon="5.56427">
        <ele>306</ele>
        <time>2018-05-24T08:24:47Z</time>
      </trkpt>
      <trkpt lat="46.64252" lon="5.56422">
        <ele>306</ele>
        <time>2018-05-24T08:25:01Z</time>
      </trkpt>
      <trkpt lat="46.64247" lon="5.56421">
        <ele>306</ele>
        <time>2018-05-24T08:25:06Z</time>
      </trkpt>
      <trkpt lat="46.64232" lon="5.5642">
        <ele>303</ele>
        <time>2018-05-24T08:25:20Z</time>
      </trkpt>
      <trkpt lat="46.64212" lon="5.56422">
        <ele>302</ele>
        <time>2018-05-24T08:25:36Z</time>
      </trkpt>
      <trkpt lat="46.64207" lon="5.5642">
        <ele>301</ele>
        <time>2018-05-24T08:25:40Z</time>
      </trkpt>
      <trkpt lat="46.64197" lon="5.56415">
        <ele>301</ele>
        <time>2018-05-24T08:25:48Z</time>
      </trkpt>
      <trkpt lat="46.64188" lon="5.56408">
        <ele>302</ele>
        <time>2018-05-24T08:25:57Z</time>
      </trkpt>
      <trkpt lat="46.64184" lon="5.56405">
        <ele>302</ele>
        <time>2018-05-24T08:26:01Z</time>
      </trkpt>
      <trkpt lat="46.64164" lon="5.56396">
        <ele>300</ele>
        <time>2018-05-24T08:26:24Z</time>
      </trkpt>
      <trkpt lat="46.6416" lon="5.56392">
        <ele>299</ele>
        <time>2018-05-24T08:26:29Z</time>
      </trkpt>
      <trkpt lat="46.64141" lon="5.56376">
        <ele>299</ele>
        <time>2018-05-24T08:26:46Z</time>
      </trkpt>
      <trkpt lat="46.64137" lon="5.56374">
        <ele>299</ele>
        <time>2018-05-24T08:26:50Z</time>
      </trkpt>
      <trkpt lat="46.6413" lon="5.56369">
        <ele>299</ele>
        <time>2018-05-24T08:26:57Z</time>
      </trkpt>
      <trkpt lat="46.64127" lon="5.56365">
        <ele>299</ele>
        <time>2018-05-24T08:27:01Z</time>
      </trkpt>
      <trkpt lat="46.64123" lon="5.5636">
        <ele>298</ele>
        <time>2018-05-24T08:27:05Z</time>
      </trkpt>
      <trkpt lat="46.64113" lon="5.56352">
        <ele>299</ele>
        <time>2018-05-24T08:27:15Z</time>
      </trkpt>
      <trkpt lat="46.64095" lon="5.56336">
        <ele>299</ele>
        <time>2018-05-24T08:27:30Z</time>
      </trkpt>
      <trkpt lat="46.64091" lon="5.56333">
        <ele>300</ele>
        <time>2018-05-24T08:27:34Z</time>
      </trkpt>
      <trkpt lat="46.6408" lon="5.5633">
        <ele>300</ele>
        <time>2018-05-24T08:27:42Z</time>
      </trkpt>
      <trkpt lat="46.64075" lon="5.5633">
        <ele>301</ele>
        <time>2018-05-24T08:27:46Z</time>
      </trkpt>
      <trkpt lat="46.64053" lon="5.56332">
        <ele>300</ele>
        <time>2018-05-24T08:28:04Z</time>
      </trkpt>
      <trkpt lat="46.64049" lon="5.56332">
        <ele>301</ele>
        <time>2018-05-24T08:28:09Z</time>
      </trkpt>
      <trkpt lat="46.64044" lon="5.56332">
        <ele>301</ele>
        <time>2018-05-24T08:28:13Z</time>
      </trkpt>
      <trkpt lat="46.6404" lon="5.56331">
        <ele>301</ele>
        <time>2018-05-24T08:28:17Z</time>
      </trkpt>
      <trkpt lat="46.6403" lon="5.56328">
        <ele>301</ele>
        <time>2018-05-24T08:28:25Z</time>
      </trkpt>
      <trkpt lat="46.64017" lon="5.56321">
        <ele>302</ele>
        <time>2018-05-24T08:28:37Z</time>
      </trkpt>
      <trkpt lat="46.64013" lon="5.56319">
        <ele>302</ele>
        <time>2018-05-24T08:28:41Z</time>
      </trkpt>
      <trkpt lat="46.64004" lon="5.56311">
        <ele>303</ele>
        <time>2018-05-24T08:28:49Z</time>
      </trkpt>
      <trkpt lat="46.63999" lon="5.56308">
        <ele>303</ele>
        <time>2018-05-24T08:28:54Z</time>
      </trkpt>
      <trkpt lat="46.63989" lon="5.56298">
        <ele>305</ele>
        <time>2018-05-24T08:29:06Z</time>
      </trkpt>
      <trkpt lat="46.63983" lon="5.56291">
        <ele>306</ele>
        <time>2018-05-24T08:29:17Z</time>
      </trkpt>
      <trkpt lat="46.63973" lon="5.56281">
        <ele>306</ele>
        <time>2018-05-24T08:29:29Z</time>
      </trkpt>
      <trkpt lat="46.63961" lon="5.56273">
        <ele>307</ele>
        <time>2018-05-24T08:29:40Z</time>
      </trkpt>
      <trkpt lat="46.63957" lon="5.56272">
        <ele>307</ele>
        <time>2018-05-24T08:29:44Z</time>
      </trkpt>
      <trkpt lat="46.63952" lon="5.56268">
        <ele>307</ele>
        <time>2018-05-24T08:29:48Z</time>
      </trkpt>
      <trkpt lat="46.63944" lon="5.56261">
        <ele>307</ele>
        <time>2018-05-24T08:29:55Z</time>
      </trkpt>
      <trkpt lat="46.63937" lon="5.56262">
        <ele>308</ele>
        <time>2018-05-24T08:30:05Z</time>
      </trkpt>
      <trkpt lat="46.63929" lon="5.56256">
        <ele>308</ele>
        <time>2018-05-24T08:30:15Z</time>
      </trkpt>
      <trkpt lat="46.63925" lon="5.56252">
        <ele>308</ele>
        <time>2018-05-24T08:30:18Z</time>
      </trkpt>
      <trkpt lat="46.63922" lon="5.56247">
        <ele>308</ele>
        <time>2018-05-24T08:30:22Z</time>
      </trkpt>
      <trkpt lat="46.63891" lon="5.56223">
        <ele>311</ele>
        <time>2018-05-24T08:30:56Z</time>
      </trkpt>
      <trkpt lat="46.63886" lon="5.56219">
        <ele>312</ele>
        <time>2018-05-24T08:31:01Z</time>
      </trkpt>
      <trkpt lat="46.63882" lon="5.56216">
        <ele>312</ele>
        <time>2018-05-24T08:31:06Z</time>
      </trkpt>
      <trkpt lat="46.63868" lon="5.56211">
        <ele>314</ele>
        <time>2018-05-24T08:31:21Z</time>
      </trkpt>
      <trkpt lat="46.63863" lon="5.56211">
        <ele>315</ele>
        <time>2018-05-24T08:31:26Z</time>
      </trkpt>
      <trkpt lat="46.63858" lon="5.5621">
        <ele>315</ele>
        <time>2018-05-24T08:31:31Z</time>
      </trkpt>
      <trkpt lat="46.63848" lon="5.56208">
        <ele>316</ele>
        <time>2018-05-24T08:31:40Z</time>
      </trkpt>
      <trkpt lat="46.63842" lon="5.56206">
        <ele>317</ele>
        <time>2018-05-24T08:31:46Z</time>
      </trkpt>
      <trkpt lat="46.63832" lon="5.56197">
        <ele>319</ele>
        <time>2018-05-24T08:31:55Z</time>
      </trkpt>
      <trkpt lat="46.63808" lon="5.56183">
        <ele>318</ele>
        <time>2018-05-24T08:32:23Z</time>
      </trkpt>
      <trkpt lat="46.63788" lon="5.56147">
        <ele>323</ele>
        <time>2018-05-24T08:33:00Z</time>
      </trkpt>
      <trkpt lat="46.63783" lon="5.56129">
        <ele>326</ele>
        <time>2018-05-24T08:33:12Z</time>
      </trkpt>
      <trkpt lat="46.63781" lon="5.56122">
        <ele>327</ele>
        <time>2018-05-24T08:33:17Z</time>
      </trkpt>
      <trkpt lat="46.63779" lon="5.56091">
        <ele>328</ele>
        <time>2018-05-24T08:33:37Z</time>
      </trkpt>
      <trkpt lat="46.6378" lon="5.56084">
        <ele>327</ele>
        <time>2018-05-24T08:33:41Z</time>
      </trkpt>
      <trkpt lat="46.63779" lon="5.5607">
        <ele>328</ele>
        <time>2018-05-24T08:33:51Z</time>
      </trkpt>
      <trkpt lat="46.63778" lon="5.56055">
        <ele>330</ele>
        <time>2018-05-24T08:34:00Z</time>
      </trkpt>
      <trkpt lat="46.63772" lon="5.56033">
        <ele>332</ele>
        <time>2018-05-24T08:34:15Z</time>
      </trkpt>
      <trkpt lat="46.6377" lon="5.56026">
        <ele>332</ele>
        <time>2018-05-24T08:34:20Z</time>
      </trkpt>
      <trkpt lat="46.63767" lon="5.56011">
        <ele>333</ele>
        <time>2018-05-24T08:34:30Z</time>
      </trkpt>
      <trkpt lat="46.63764" lon="5.55982">
        <ele>334</ele>
        <time>2018-05-24T08:34:47Z</time>
      </trkpt>
      <trkpt lat="46.63757" lon="5.55948">
        <ele>336</ele>
        <time>2018-05-24T08:35:12Z</time>
      </trkpt>
      <trkpt lat="46.63754" lon="5.55941">
        <ele>336</ele>
        <time>2018-05-24T08:35:17Z</time>
      </trkpt>
      <trkpt lat="46.6375" lon="5.55936">
        <ele>337</ele>
        <time>2018-05-24T08:35:22Z</time>
      </trkpt>
      <trkpt lat="46.63743" lon="5.55935">
        <ele>337</ele>
        <time>2018-05-24T08:35:30Z</time>
      </trkpt>
      <trkpt lat="46.63738" lon="5.55933">
        <ele>338</ele>
        <time>2018-05-24T08:35:34Z</time>
      </trkpt>
      <trkpt lat="46.63734" lon="5.55932">
        <ele>338</ele>
        <time>2018-05-24T08:35:38Z</time>
      </trkpt>
      <trkpt lat="46.63727" lon="5.55932">
        <ele>339</ele>
        <time>2018-05-24T08:35:45Z</time>
      </trkpt>
      <trkpt lat="46.6372" lon="5.55932">
        <ele>340</ele>
        <time>2018-05-24T08:35:53Z</time>
      </trkpt>
      <trkpt lat="46.63716" lon="5.55932">
        <ele>340</ele>
        <time>2018-05-24T08:35:59Z</time>
      </trkpt>
      <trkpt lat="46.63692" lon="5.55919">
        <ele>346</ele>
        <time>2018-05-24T08:36:31Z</time>
      </trkpt>
      <trkpt lat="46.63689" lon="5.55918">
        <ele>348</ele>
        <time>2018-05-24T08:38:13Z</time>
      </trkpt>
      <trkpt lat="46.63685" lon="5.55922">
        <ele>350</ele>
        <time>2018-05-24T08:38:37Z</time>
      </trkpt>
      <trkpt lat="46.63683" lon="5.55916">
        <ele>354</ele>
        <time>2018-05-24T08:39:37Z</time>
      </trkpt>
      <trkpt lat="46.63678" lon="5.55911">
        <ele>353</ele>
        <time>2018-05-24T08:40:31Z</time>
      </trkpt>
      <trkpt lat="46.63674" lon="5.55909">
        <ele>354</ele>
        <time>2018-05-24T08:40:36Z</time>
      </trkpt>
      <trkpt lat="46.63669" lon="5.55905">
        <ele>354</ele>
        <time>2018-05-24T08:40:39Z</time>
      </trkpt>
      <trkpt lat="46.63666" lon="5.55898">
        <ele>354</ele>
        <time>2018-05-24T08:40:45Z</time>
      </trkpt>
      <trkpt lat="46.63659" lon="5.55889">
        <ele>353</ele>
        <time>2018-05-24T08:40:57Z</time>
      </trkpt>
      <trkpt lat="46.63641" lon="5.55872">
        <ele>355</ele>
        <time>2018-05-24T08:41:18Z</time>
      </trkpt>
      <trkpt lat="46.63635" lon="5.55868">
        <ele>355</ele>
        <time>2018-05-24T08:41:26Z</time>
      </trkpt>
      <trkpt lat="46.63631" lon="5.55863">
        <ele>355</ele>
        <time>2018-05-24T08:41:31Z</time>
      </trkpt>
      <trkpt lat="46.63621" lon="5.55852">
        <ele>357</ele>
        <time>2018-05-24T08:41:46Z</time>
      </trkpt>
      <trkpt lat="46.63614" lon="5.55846">
        <ele>357</ele>
        <time>2018-05-24T08:42:07Z</time>
      </trkpt>
      <trkpt lat="46.63605" lon="5.55834">
        <ele>361</ele>
        <time>2018-05-24T08:42:20Z</time>
      </trkpt>
      <trkpt lat="46.63598" lon="5.55826">
        <ele>362</ele>
        <time>2018-05-24T08:42:32Z</time>
      </trkpt>
      <trkpt lat="46.63595" lon="5.55821">
        <ele>362</ele>
        <time>2018-05-24T08:42:37Z</time>
      </trkpt>
      <trkpt lat="46.63592" lon="5.55816">
        <ele>363</ele>
        <time>2018-05-24T08:42:41Z</time>
      </trkpt>
      <trkpt lat="46.63587" lon="5.5581">
        <ele>363</ele>
        <time>2018-05-24T08:42:57Z</time>
      </trkpt>
      <trkpt lat="46.63582" lon="5.55803">
        <ele>365</ele>
        <time>2018-05-24T08:43:09Z</time>
      </trkpt>
      <trkpt lat="46.63577" lon="5.558">
        <ele>367</ele>
        <time>2018-05-24T08:43:21Z</time>
      </trkpt>
      <trkpt lat="46.63573" lon="5.55796">
        <ele>366</ele>
        <time>2018-05-24T08:43:51Z</time>
      </trkpt>
      <trkpt lat="46.6357" lon="5.55785">
        <ele>367</ele>
        <time>2018-05-24T08:44:08Z</time>
      </trkpt>
      <trkpt lat="46.63563" lon="5.55784">
        <ele>368</ele>
        <time>2018-05-24T08:44:18Z</time>
      </trkpt>
      <trkpt lat="46.63558" lon="5.5578">
        <ele>370</ele>
        <time>2018-05-24T08:44:23Z</time>
      </trkpt>
      <trkpt lat="46.63551" lon="5.55779">
        <ele>372</ele>
        <time>2018-05-24T08:44:31Z</time>
      </trkpt>
      <trkpt lat="46.6354" lon="5.55771">
        <ele>372</ele>
        <time>2018-05-24T08:44:45Z</time>
      </trkpt>
      <trkpt lat="46.63535" lon="5.55767">
        <ele>372</ele>
        <time>2018-05-24T08:44:53Z</time>
      </trkpt>
      <trkpt lat="46.6353" lon="5.55762">
        <ele>372</ele>
        <time>2018-05-24T08:45:01Z</time>
      </trkpt>
      <trkpt lat="46.63511" lon="5.55746">
        <ele>375</ele>
        <time>2018-05-24T08:45:26Z</time>
      </trkpt>
      <trkpt lat="46.63505" lon="5.55737">
        <ele>376</ele>
        <time>2018-05-24T08:45:37Z</time>
      </trkpt>
      <trkpt lat="46.635" lon="5.5573">
        <ele>377</ele>
        <time>2018-05-24T08:45:45Z</time>
      </trkpt>
      <trkpt lat="46.63496" lon="5.55726">
        <ele>377</ele>
        <time>2018-05-24T08:45:51Z</time>
      </trkpt>
      <trkpt lat="46.63492" lon="5.55721">
        <ele>377</ele>
        <time>2018-05-24T08:45:57Z</time>
      </trkpt>
      <trkpt lat="46.63484" lon="5.55709">
        <ele>381</ele>
        <time>2018-05-24T08:46:09Z</time>
      </trkpt>
      <trkpt lat="46.63477" lon="5.55707">
        <ele>381</ele>
        <time>2018-05-24T08:46:19Z</time>
      </trkpt>
      <trkpt lat="46.63451" lon="5.55678">
        <ele>386</ele>
        <time>2018-05-24T08:46:57Z</time>
      </trkpt>
      <trkpt lat="46.63439" lon="5.55671">
        <ele>388</ele>
        <time>2018-05-24T08:47:13Z</time>
      </trkpt>
      <trkpt lat="46.63417" lon="5.55653">
        <ele>392</ele>
        <time>2018-05-24T08:47:43Z</time>
      </trkpt>
      <trkpt lat="46.63409" lon="5.55645">
        <ele>392</ele>
        <time>2018-05-24T08:47:50Z</time>
      </trkpt>
      <trkpt lat="46.63401" lon="5.55638">
        <ele>393</ele>
        <time>2018-05-24T08:47:56Z</time>
      </trkpt>
      <trkpt lat="46.63392" lon="5.55639">
        <ele>395</ele>
        <time>2018-05-24T08:48:15Z</time>
      </trkpt>
      <trkpt lat="46.6337" lon="5.55619">
        <ele>399</ele>
        <time>2018-05-24T08:48:48Z</time>
      </trkpt>
      <trkpt lat="46.63356" lon="5.55624">
        <ele>401</ele>
        <time>2018-05-24T08:49:05Z</time>
      </trkpt>
      <trkpt lat="46.63348" lon="5.55626">
        <ele>402</ele>
        <time>2018-05-24T08:49:15Z</time>
      </trkpt>
      <trkpt lat="46.63341" lon="5.55639">
        <ele>403</ele>
        <time>2018-05-24T08:49:26Z</time>
      </trkpt>
      <trkpt lat="46.63344" lon="5.55647">
        <ele>407</ele>
        <time>2018-05-24T08:52:08Z</time>
      </trkpt>
      <trkpt lat="46.63335" lon="5.5564">
        <ele>408</ele>
        <time>2018-05-24T08:55:09Z</time>
      </trkpt>
      <trkpt lat="46.63325" lon="5.55593">
        <ele>410</ele>
        <time>2018-05-24T08:55:45Z</time>
      </trkpt>
      <trkpt lat="46.6332" lon="5.55581">
        <ele>410</ele>
        <time>2018-05-24T08:55:54Z</time>
      </trkpt>
      <trkpt lat="46.63298" lon="5.55556">
        <ele>412</ele>
        <time>2018-05-24T08:56:19Z</time>
      </trkpt>
      <trkpt lat="46.63301" lon="5.55534">
        <ele>413</ele>
        <time>2018-05-24T08:56:37Z</time>
      </trkpt>
      <trkpt lat="46.63299" lon="5.55516">
        <ele>414</ele>
        <time>2018-05-24T08:56:51Z</time>
      </trkpt>
      <trkpt lat="46.63299" lon="5.555">
        <ele>416</ele>
        <time>2018-05-24T08:57:02Z</time>
      </trkpt>
      <trkpt lat="46.63296" lon="5.55485">
        <ele>419</ele>
        <time>2018-05-24T08:57:17Z</time>
      </trkpt>
      <trkpt lat="46.63292" lon="5.55461">
        <ele>423</ele>
        <time>2018-05-24T08:57:50Z</time>
      </trkpt>
      <trkpt lat="46.63288" lon="5.55444">
        <ele>423</ele>
        <time>2018-05-24T08:58:02Z</time>
      </trkpt>
      <trkpt lat="46.63286" lon="5.55437">
        <ele>423</ele>
        <time>2018-05-24T08:58:06Z</time>
      </trkpt>
      <trkpt lat="46.63277" lon="5.55411">
        <ele>422</ele>
        <time>2018-05-24T08:58:25Z</time>
      </trkpt>
      <trkpt lat="46.63275" lon="5.55373">
        <ele>421</ele>
        <time>2018-05-24T08:58:49Z</time>
      </trkpt>
      <trkpt lat="46.63276" lon="5.55367">
        <ele>419</ele>
        <time>2018-05-24T08:59:02Z</time>
      </trkpt>
      <trkpt lat="46.63273" lon="5.55357">
        <ele>418</ele>
        <time>2018-05-24T08:59:18Z</time>
      </trkpt>
      <trkpt lat="46.63246" lon="5.55319">
        <ele>420</ele>
        <time>2018-05-24T08:59:53Z</time>
      </trkpt>
      <trkpt lat="46.63239" lon="5.5531">
        <ele>421</ele>
        <time>2018-05-24T09:00:03Z</time>
      </trkpt>
      <trkpt lat="46.63211" lon="5.55294">
        <ele>423</ele>
        <time>2018-05-24T09:00:32Z</time>
      </trkpt>
      <trkpt lat="46.63202" lon="5.55291">
        <ele>423</ele>
        <time>2018-05-24T09:00:42Z</time>
      </trkpt>
      <trkpt lat="46.63182" lon="5.55294">
        <ele>426</ele>
        <time>2018-05-24T09:01:01Z</time>
      </trkpt>
      <trkpt lat="46.63173" lon="5.55291">
        <ele>426</ele>
        <time>2018-05-24T09:01:09Z</time>
      </trkpt>
      <trkpt lat="46.63137" lon="5.55279">
        <ele>427</ele>
        <time>2018-05-24T09:01:42Z</time>
      </trkpt>
      <trkpt lat="46.63127" lon="5.55281">
        <ele>427</ele>
        <time>2018-05-24T09:01:50Z</time>
      </trkpt>
      <trkpt lat="46.63118" lon="5.55284">
        <ele>427</ele>
        <time>2018-05-24T09:01:57Z</time>
      </trkpt>
      <trkpt lat="46.63108" lon="5.55281">
        <ele>427</ele>
        <time>2018-05-24T09:02:04Z</time>
      </trkpt>
      <trkpt lat="46.63098" lon="5.55283">
        <ele>428</ele>
        <time>2018-05-24T09:02:12Z</time>
      </trkpt>
      <trkpt lat="46.63088" lon="5.55281">
        <ele>429</ele>
        <time>2018-05-24T09:02:20Z</time>
      </trkpt>
      <trkpt lat="46.63079" lon="5.55277">
        <ele>429</ele>
        <time>2018-05-24T09:02:28Z</time>
      </trkpt>
      <trkpt lat="46.6307" lon="5.55285">
        <ele>429</ele>
        <time>2018-05-24T09:02:37Z</time>
      </trkpt>
      <trkpt lat="46.63062" lon="5.55284">
        <ele>429</ele>
        <time>2018-05-24T09:02:44Z</time>
      </trkpt>
      <trkpt lat="46.63052" lon="5.5529">
        <ele>430</ele>
        <time>2018-05-24T09:02:53Z</time>
      </trkpt>
      <trkpt lat="46.63033" lon="5.55293">
        <ele>430</ele>
        <time>2018-05-24T09:03:09Z</time>
      </trkpt>
      <trkpt lat="46.63015" lon="5.553">
        <ele>431</ele>
        <time>2018-05-24T09:03:25Z</time>
      </trkpt>
      <trkpt lat="46.62996" lon="5.55304">
        <ele>430</ele>
        <time>2018-05-24T09:03:40Z</time>
      </trkpt>
      <trkpt lat="46.62988" lon="5.55313">
        <ele>431</ele>
        <time>2018-05-24T09:03:46Z</time>
      </trkpt>
      <trkpt lat="46.62979" lon="5.55314">
        <ele>432</ele>
        <time>2018-05-24T09:03:53Z</time>
      </trkpt>
      <trkpt lat="46.6297" lon="5.55316">
        <ele>431</ele>
        <time>2018-05-24T09:04:01Z</time>
      </trkpt>
      <trkpt lat="46.62953" lon="5.55327">
        <ele>432</ele>
        <time>2018-05-24T09:04:18Z</time>
      </trkpt>
      <trkpt lat="46.62945" lon="5.55334">
        <ele>432</ele>
        <time>2018-05-24T09:04:26Z</time>
      </trkpt>
      <trkpt lat="46.62936" lon="5.55339">
        <ele>432</ele>
        <time>2018-05-24T09:04:35Z</time>
      </trkpt>
      <trkpt lat="46.62918" lon="5.55345">
        <ele>433</ele>
        <time>2018-05-24T09:04:50Z</time>
      </trkpt>
      <trkpt lat="46.62907" lon="5.55348">
        <ele>435</ele>
        <time>2018-05-24T09:05:04Z</time>
      </trkpt>
      <trkpt lat="46.6289" lon="5.55352">
        <ele>435</ele>
        <time>2018-05-24T09:05:21Z</time>
      </trkpt>
      <trkpt lat="46.62851" lon="5.55362">
        <ele>440</ele>
        <time>2018-05-24T09:05:57Z</time>
      </trkpt>
      <trkpt lat="46.62821" lon="5.55359">
        <ele>441</ele>
        <time>2018-05-24T09:06:27Z</time>
      </trkpt>
      <trkpt lat="46.62803" lon="5.55349">
        <ele>442</ele>
        <time>2018-05-24T09:06:43Z</time>
      </trkpt>
      <trkpt lat="46.62793" lon="5.55346">
        <ele>443</ele>
        <time>2018-05-24T09:06:52Z</time>
      </trkpt>
      <trkpt lat="46.62784" lon="5.55347">
        <ele>443</ele>
        <time>2018-05-24T09:07:00Z</time>
      </trkpt>
      <trkpt lat="46.62777" lon="5.55353">
        <ele>444</ele>
        <time>2018-05-24T09:07:10Z</time>
      </trkpt>
      <trkpt lat="46.6277" lon="5.55363">
        <ele>446</ele>
        <time>2018-05-24T09:07:19Z</time>
      </trkpt>
      <trkpt lat="46.6276" lon="5.55361">
        <ele>447</ele>
        <time>2018-05-24T09:07:26Z</time>
      </trkpt>
      <trkpt lat="46.62742" lon="5.55369">
        <ele>449</ele>
        <time>2018-05-24T09:07:42Z</time>
      </trkpt>
      <trkpt lat="46.6273" lon="5.55393">
        <ele>451</ele>
        <time>2018-05-24T09:08:03Z</time>
      </trkpt>
      <trkpt lat="46.62723" lon="5.554">
        <ele>451</ele>
        <time>2018-05-24T09:08:12Z</time>
      </trkpt>
      <trkpt lat="46.62715" lon="5.55398">
        <ele>453</ele>
        <time>2018-05-24T09:08:25Z</time>
      </trkpt>
      <trkpt lat="46.6271" lon="5.55398">
        <ele>453</ele>
        <time>2018-05-24T09:08:30Z</time>
      </trkpt>
      <trkpt lat="46.62705" lon="5.55398">
        <ele>454</ele>
        <time>2018-05-24T09:08:43Z</time>
      </trkpt>
      <trkpt lat="46.62701" lon="5.55394">
        <ele>454</ele>
        <time>2018-05-24T09:09:01Z</time>
      </trkpt>
      <trkpt lat="46.62693" lon="5.55389">
        <ele>454</ele>
        <time>2018-05-24T09:09:13Z</time>
      </trkpt>
      <trkpt lat="46.62683" lon="5.55374">
        <ele>456</ele>
        <time>2018-05-24T09:09:28Z</time>
      </trkpt>
      <trkpt lat="46.6267" lon="5.55366">
        <ele>455</ele>
        <time>2018-05-24T09:09:41Z</time>
      </trkpt>
      <trkpt lat="46.62665" lon="5.55364">
        <ele>455</ele>
        <time>2018-05-24T09:09:45Z</time>
      </trkpt>
      <trkpt lat="46.62661" lon="5.55365">
        <ele>455</ele>
        <time>2018-05-24T09:09:49Z</time>
      </trkpt>
      <trkpt lat="46.62655" lon="5.55366">
        <ele>455</ele>
        <time>2018-05-24T09:09:54Z</time>
      </trkpt>
      <trkpt lat="46.62644" lon="5.55365">
        <ele>455</ele>
        <time>2018-05-24T09:10:02Z</time>
      </trkpt>
      <trkpt lat="46.62639" lon="5.55363">
        <ele>454</ele>
        <time>2018-05-24T09:10:06Z</time>
      </trkpt>
      <trkpt lat="46.62635" lon="5.55361">
        <ele>454</ele>
        <time>2018-05-24T09:10:09Z</time>
      </trkpt>
      <trkpt lat="46.62611" lon="5.55356">
        <ele>455</ele>
        <time>2018-05-24T09:10:29Z</time>
      </trkpt>
      <trkpt lat="46.62602" lon="5.55354">
        <ele>455</ele>
        <time>2018-05-24T09:10:37Z</time>
      </trkpt>
      <trkpt lat="46.62583" lon="5.55363">
        <ele>454</ele>
        <time>2018-05-24T09:10:54Z</time>
      </trkpt>
      <trkpt lat="46.62574" lon="5.5536">
        <ele>454</ele>
        <time>2018-05-24T09:11:01Z</time>
      </trkpt>
      <trkpt lat="46.62565" lon="5.55361">
        <ele>455</ele>
        <time>2018-05-24T09:11:09Z</time>
      </trkpt>
      <trkpt lat="46.62545" lon="5.55361">
        <ele>454</ele>
        <time>2018-05-24T09:11:28Z</time>
      </trkpt>
      <trkpt lat="46.62536" lon="5.55361">
        <ele>454</ele>
        <time>2018-05-24T09:11:35Z</time>
      </trkpt>
      <trkpt lat="46.62527" lon="5.55358">
        <ele>454</ele>
        <time>2018-05-24T09:11:42Z</time>
      </trkpt>
      <trkpt lat="46.62499" lon="5.55353">
        <ele>454</ele>
        <time>2018-05-24T09:12:05Z</time>
      </trkpt>
      <trkpt lat="46.62462" lon="5.55349">
        <ele>454</ele>
        <time>2018-05-24T09:12:34Z</time>
      </trkpt>
      <trkpt lat="46.62452" lon="5.55348">
        <ele>454</ele>
        <time>2018-05-24T09:12:41Z</time>
      </trkpt>
      <trkpt lat="46.62442" lon="5.55345">
        <ele>454</ele>
        <time>2018-05-24T09:12:48Z</time>
      </trkpt>
      <trkpt lat="46.62424" lon="5.55342">
        <ele>453</ele>
        <time>2018-05-24T09:13:03Z</time>
      </trkpt>
      <trkpt lat="46.62414" lon="5.55343">
        <ele>453</ele>
        <time>2018-05-24T09:13:11Z</time>
      </trkpt>
      <trkpt lat="46.62405" lon="5.5534">
        <ele>453</ele>
        <time>2018-05-24T09:13:19Z</time>
      </trkpt>
      <trkpt lat="46.62368" lon="5.55349">
        <ele>453</ele>
        <time>2018-05-24T09:13:52Z</time>
      </trkpt>
      <trkpt lat="46.62358" lon="5.55352">
        <ele>453</ele>
        <time>2018-05-24T09:14:02Z</time>
      </trkpt>
      <trkpt lat="46.62349" lon="5.55355">
        <ele>453</ele>
        <time>2018-05-24T09:14:11Z</time>
      </trkpt>
      <trkpt lat="46.6234" lon="5.55359">
        <ele>454</ele>
        <time>2018-05-24T09:14:19Z</time>
      </trkpt>
      <trkpt lat="46.6233" lon="5.55362">
        <ele>454</ele>
        <time>2018-05-24T09:14:28Z</time>
      </trkpt>
      <trkpt lat="46.62326" lon="5.55365">
        <ele>455</ele>
        <time>2018-05-24T09:14:33Z</time>
      </trkpt>
      <trkpt lat="46.62321" lon="5.55366">
        <ele>455</ele>
        <time>2018-05-24T09:14:38Z</time>
      </trkpt>
      <trkpt lat="46.62316" lon="5.55369">
        <ele>455</ele>
        <time>2018-05-24T09:14:43Z</time>
      </trkpt>
      <trkpt lat="46.6231" lon="5.5537">
        <ele>455</ele>
        <time>2018-05-24T09:14:48Z</time>
      </trkpt>
      <trkpt lat="46.62305" lon="5.5537">
        <ele>455</ele>
        <time>2018-05-24T09:14:52Z</time>
      </trkpt>
      <trkpt lat="46.62271" lon="5.55381">
        <ele>459</ele>
        <time>2018-05-24T09:15:24Z</time>
      </trkpt>
      <trkpt lat="46.62261" lon="5.55385">
        <ele>461</ele>
        <time>2018-05-24T09:15:34Z</time>
      </trkpt>
      <trkpt lat="46.62251" lon="5.55385">
        <ele>461</ele>
        <time>2018-05-24T09:15:43Z</time>
      </trkpt>
      <trkpt lat="46.62241" lon="5.55384">
        <ele>462</ele>
        <time>2018-05-24T09:15:52Z</time>
      </trkpt>
      <trkpt lat="46.62222" lon="5.55385">
        <ele>462</ele>
        <time>2018-05-24T09:16:10Z</time>
      </trkpt>
      <trkpt lat="46.62213" lon="5.55386">
        <ele>464</ele>
        <time>2018-05-24T09:16:19Z</time>
      </trkpt>
      <trkpt lat="46.62195" lon="5.55384">
        <ele>466</ele>
        <time>2018-05-24T09:16:34Z</time>
      </trkpt>
      <trkpt lat="46.62185" lon="5.55385">
        <ele>466</ele>
        <time>2018-05-24T09:16:42Z</time>
      </trkpt>
      <trkpt lat="46.62167" lon="5.55379">
        <ele>466</ele>
        <time>2018-05-24T09:16:57Z</time>
      </trkpt>
      <trkpt lat="46.6213" lon="5.55371">
        <ele>470</ele>
        <time>2018-05-24T09:17:32Z</time>
      </trkpt>
      <trkpt lat="46.62106" lon="5.55364">
        <ele>472</ele>
        <time>2018-05-24T09:17:54Z</time>
      </trkpt>
      <trkpt lat="46.62102" lon="5.5536">
        <ele>472</ele>
        <time>2018-05-24T09:17:58Z</time>
      </trkpt>
      <trkpt lat="46.62097" lon="5.55357">
        <ele>472</ele>
        <time>2018-05-24T09:18:03Z</time>
      </trkpt>
      <trkpt lat="46.62093" lon="5.55354">
        <ele>472</ele>
        <time>2018-05-24T09:18:07Z</time>
      </trkpt>
      <trkpt lat="46.62087" lon="5.55351">
        <ele>472</ele>
        <time>2018-05-24T09:18:12Z</time>
      </trkpt>
      <trkpt lat="46.62082" lon="5.55348">
        <ele>472</ele>
        <time>2018-05-24T09:18:17Z</time>
      </trkpt>
      <trkpt lat="46.62078" lon="5.55347">
        <ele>472</ele>
        <time>2018-05-24T09:18:21Z</time>
      </trkpt>
      <trkpt lat="46.62052" lon="5.55346">
        <ele>475</ele>
        <time>2018-05-24T09:18:43Z</time>
      </trkpt>
      <trkpt lat="46.62047" lon="5.55346">
        <ele>475</ele>
        <time>2018-05-24T09:18:47Z</time>
      </trkpt>
      <trkpt lat="46.62042" lon="5.55346">
        <ele>475</ele>
        <time>2018-05-24T09:18:51Z</time>
      </trkpt>
      <trkpt lat="46.62037" lon="5.55346">
        <ele>475</ele>
        <time>2018-05-24T09:18:55Z</time>
      </trkpt>
      <trkpt lat="46.62033" lon="5.55347">
        <ele>475</ele>
        <time>2018-05-24T09:18:59Z</time>
      </trkpt>
      <trkpt lat="46.62018" lon="5.55355">
        <ele>475</ele>
        <time>2018-05-24T09:19:14Z</time>
      </trkpt>
      <trkpt lat="46.62013" lon="5.55358">
        <ele>475</ele>
        <time>2018-05-24T09:19:19Z</time>
      </trkpt>
      <trkpt lat="46.62005" lon="5.55368">
        <ele>476</ele>
        <time>2018-05-24T09:19:29Z</time>
      </trkpt>
      <trkpt lat="46.61995" lon="5.55372">
        <ele>476</ele>
        <time>2018-05-24T09:19:38Z</time>
      </trkpt>
      <trkpt lat="46.6199" lon="5.55373">
        <ele>477</ele>
        <time>2018-05-24T09:19:42Z</time>
      </trkpt>
      <trkpt lat="46.61975" lon="5.5538">
        <ele>477</ele>
        <time>2018-05-24T09:19:55Z</time>
      </trkpt>
      <trkpt lat="46.61971" lon="5.55384">
        <ele>477</ele>
        <time>2018-05-24T09:20:00Z</time>
      </trkpt>
      <trkpt lat="46.61966" lon="5.55387">
        <ele>477</ele>
        <time>2018-05-24T09:20:05Z</time>
      </trkpt>
      <trkpt lat="46.61962" lon="5.5539">
        <ele>478</ele>
        <time>2018-05-24T09:20:10Z</time>
      </trkpt>
      <trkpt lat="46.61957" lon="5.55391">
        <ele>479</ele>
        <time>2018-05-24T09:20:14Z</time>
      </trkpt>
      <trkpt lat="46.61953" lon="5.55392">
        <ele>480</ele>
        <time>2018-05-24T09:20:18Z</time>
      </trkpt>
      <trkpt lat="46.6195" lon="5.55398">
        <ele>481</ele>
        <time>2018-05-24T09:20:23Z</time>
      </trkpt>
      <trkpt lat="46.61946" lon="5.55401">
        <ele>481</ele>
        <time>2018-05-24T09:20:27Z</time>
      </trkpt>
      <trkpt lat="46.61941" lon="5.55402">
        <ele>481</ele>
        <time>2018-05-24T09:20:31Z</time>
      </trkpt>
      <trkpt lat="46.61935" lon="5.55406">
        <ele>481</ele>
        <time>2018-05-24T09:20:39Z</time>
      </trkpt>
      <trkpt lat="46.61925" lon="5.55411">
        <ele>481</ele>
        <time>2018-05-24T09:20:49Z</time>
      </trkpt>
      <trkpt lat="46.6192" lon="5.55412">
        <ele>481</ele>
        <time>2018-05-24T09:20:53Z</time>
      </trkpt>
      <trkpt lat="46.6191" lon="5.55418">
        <ele>481</ele>
        <time>2018-05-24T09:21:05Z</time>
      </trkpt>
      <trkpt lat="46.61905" lon="5.5542">
        <ele>482</ele>
        <time>2018-05-24T09:21:09Z</time>
      </trkpt>
      <trkpt lat="46.619" lon="5.55422">
        <ele>482</ele>
        <time>2018-05-24T09:21:14Z</time>
      </trkpt>
      <trkpt lat="46.61888" lon="5.55424">
        <ele>482</ele>
        <time>2018-05-24T09:21:25Z</time>
      </trkpt>
      <trkpt lat="46.6187" lon="5.55431">
        <ele>483</ele>
        <time>2018-05-24T09:21:42Z</time>
      </trkpt>
      <trkpt lat="46.61841" lon="5.55433">
        <ele>484</ele>
        <time>2018-05-24T09:22:06Z</time>
      </trkpt>
      <trkpt lat="46.61832" lon="5.55437">
        <ele>483</ele>
        <time>2018-05-24T09:22:16Z</time>
      </trkpt>
      <trkpt lat="46.61822" lon="5.55438">
        <ele>483</ele>
        <time>2018-05-24T09:22:25Z</time>
      </trkpt>
      <trkpt lat="46.61812" lon="5.55439">
        <ele>484</ele>
        <time>2018-05-24T09:22:34Z</time>
      </trkpt>
      <trkpt lat="46.61774" lon="5.55448">
        <ele>486</ele>
        <time>2018-05-24T09:23:12Z</time>
      </trkpt>
      <trkpt lat="46.61755" lon="5.55449">
        <ele>488</ele>
        <time>2018-05-24T09:23:27Z</time>
      </trkpt>
      <trkpt lat="46.61737" lon="5.55452">
        <ele>489</ele>
        <time>2018-05-24T09:23:43Z</time>
      </trkpt>
      <trkpt lat="46.61732" lon="5.55452">
        <ele>489</ele>
        <time>2018-05-24T09:23:48Z</time>
      </trkpt>
      <trkpt lat="46.61721" lon="5.55454">
        <ele>490</ele>
        <time>2018-05-24T09:23:58Z</time>
      </trkpt>
      <trkpt lat="46.61717" lon="5.55455">
        <ele>490</ele>
        <time>2018-05-24T09:24:03Z</time>
      </trkpt>
      <trkpt lat="46.61711" lon="5.55455">
        <ele>490</ele>
        <time>2018-05-24T09:24:09Z</time>
      </trkpt>
      <trkpt lat="46.61706" lon="5.55457">
        <ele>491</ele>
        <time>2018-05-24T09:24:20Z</time>
      </trkpt>
      <trkpt lat="46.61699" lon="5.55458">
        <ele>492</ele>
        <time>2018-05-24T09:24:32Z</time>
      </trkpt>
      <trkpt lat="46.61694" lon="5.55461">
        <ele>491</ele>
        <time>2018-05-24T09:24:37Z</time>
      </trkpt>
      <trkpt lat="46.6168" lon="5.55459">
        <ele>491</ele>
        <time>2018-05-24T09:24:52Z</time>
      </trkpt>
      <trkpt lat="46.61654" lon="5.55434">
        <ele>493</ele>
        <time>2018-05-24T09:25:26Z</time>
      </trkpt>
      <trkpt lat="46.61646" lon="5.55427">
        <ele>494</ele>
        <time>2018-05-24T09:25:34Z</time>
      </trkpt>
      <trkpt lat="46.6164" lon="5.55411">
        <ele>495</ele>
        <time>2018-05-24T09:25:46Z</time>
      </trkpt>
      <trkpt lat="46.61635" lon="5.55408">
        <ele>495</ele>
        <time>2018-05-24T09:25:51Z</time>
      </trkpt>
      <trkpt lat="46.61636" lon="5.55411">
        <ele>494</ele>
        <time>2018-05-24T09:27:15Z</time>
      </trkpt>
      <trkpt lat="46.6164" lon="5.55415">
        <ele>494</ele>
        <time>2018-05-24T09:27:20Z</time>
      </trkpt>
      <trkpt lat="46.61646" lon="5.55419">
        <ele>495</ele>
        <time>2018-05-24T09:27:27Z</time>
      </trkpt>
      <trkpt lat="46.6165" lon="5.55422">
        <ele>497</ele>
        <time>2018-05-24T09:27:31Z</time>
      </trkpt>
      <trkpt lat="46.61654" lon="5.55424">
        <ele>497</ele>
        <time>2018-05-24T09:27:36Z</time>
      </trkpt>
      <trkpt lat="46.61659" lon="5.55423">
        <ele>497</ele>
        <time>2018-05-24T09:27:41Z</time>
      </trkpt>
      <trkpt lat="46.61664" lon="5.55423">
        <ele>497</ele>
        <time>2018-05-24T09:27:47Z</time>
      </trkpt>
      <trkpt lat="46.61669" lon="5.55417">
        <ele>497</ele>
        <time>2018-05-24T09:27:54Z</time>
      </trkpt>
      <trkpt lat="46.61674" lon="5.55403">
        <ele>498</ele>
        <time>2018-05-24T09:28:04Z</time>
      </trkpt>
      <trkpt lat="46.61679" lon="5.5539">
        <ele>498</ele>
        <time>2018-05-24T09:28:14Z</time>
      </trkpt>
      <trkpt lat="46.61682" lon="5.55385">
        <ele>498</ele>
        <time>2018-05-24T09:28:18Z</time>
      </trkpt>
      <trkpt lat="46.61691" lon="5.55369">
        <ele>500</ele>
        <time>2018-05-24T09:28:33Z</time>
      </trkpt>
      <trkpt lat="46.61695" lon="5.55366">
        <ele>500</ele>
        <time>2018-05-24T09:28:37Z</time>
      </trkpt>
      <trkpt lat="46.617" lon="5.55363">
        <ele>500</ele>
        <time>2018-05-24T09:28:42Z</time>
      </trkpt>
      <trkpt lat="46.61708" lon="5.55355">
        <ele>500</ele>
        <time>2018-05-24T09:28:52Z</time>
      </trkpt>
      <trkpt lat="46.6172" lon="5.55341">
        <ele>501</ele>
        <time>2018-05-24T09:29:07Z</time>
      </trkpt>
      <trkpt lat="46.61723" lon="5.55335">
        <ele>502</ele>
        <time>2018-05-24T09:29:12Z</time>
      </trkpt>
      <trkpt lat="46.61725" lon="5.55329">
        <ele>502</ele>
        <time>2018-05-24T09:29:16Z</time>
      </trkpt>
      <trkpt lat="46.61727" lon="5.55313">
        <ele>503</ele>
        <time>2018-05-24T09:29:26Z</time>
      </trkpt>
      <trkpt lat="46.61726" lon="5.55295">
        <ele>503</ele>
        <time>2018-05-24T09:29:39Z</time>
      </trkpt>
      <trkpt lat="46.6172" lon="5.55267">
        <ele>505</ele>
        <time>2018-05-24T09:30:01Z</time>
      </trkpt>
      <trkpt lat="46.61717" lon="5.55253">
        <ele>504</ele>
        <time>2018-05-24T09:30:10Z</time>
      </trkpt>
      <trkpt lat="46.61719" lon="5.5524">
        <ele>505</ele>
        <time>2018-05-24T09:30:19Z</time>
      </trkpt>
      <trkpt lat="46.61716" lon="5.55223">
        <ele>504</ele>
        <time>2018-05-24T09:30:32Z</time>
      </trkpt>
      <trkpt lat="46.61711" lon="5.55202">
        <ele>505</ele>
        <time>2018-05-24T09:30:48Z</time>
      </trkpt>
      <trkpt lat="46.6171" lon="5.55187">
        <ele>504</ele>
        <time>2018-05-24T09:30:56Z</time>
      </trkpt>
      <trkpt lat="46.6171" lon="5.55146">
        <ele>507</ele>
        <time>2018-05-24T09:31:23Z</time>
      </trkpt>
      <trkpt lat="46.61699" lon="5.55116">
        <ele>510</ele>
        <time>2018-05-24T09:31:50Z</time>
      </trkpt>
      <trkpt lat="46.61691" lon="5.55111">
        <ele>509</ele>
        <time>2018-05-24T09:31:57Z</time>
      </trkpt>
      <trkpt lat="46.61684" lon="5.551">
        <ele>509</ele>
        <time>2018-05-24T09:32:08Z</time>
      </trkpt>
      <trkpt lat="46.61683" lon="5.55086">
        <ele>512</ele>
        <time>2018-05-24T09:32:18Z</time>
      </trkpt>
      <trkpt lat="46.61691" lon="5.55073">
        <ele>514</ele>
        <time>2018-05-24T09:32:34Z</time>
      </trkpt>
      <trkpt lat="46.61726" lon="5.55078">
        <ele>516</ele>
        <time>2018-05-24T09:33:12Z</time>
      </trkpt>
      <trkpt lat="46.61738" lon="5.55083">
        <ele>516</ele>
        <time>2018-05-24T09:33:27Z</time>
      </trkpt>
      <trkpt lat="46.61749" lon="5.55085">
        <ele>516</ele>
        <time>2018-05-24T09:33:40Z</time>
      </trkpt>
      <trkpt lat="46.6175" lon="5.551">
        <ele>518</ele>
        <time>2018-05-24T09:33:58Z</time>
      </trkpt>
      <trkpt lat="46.61757" lon="5.55106">
        <ele>518</ele>
        <time>2018-05-24T09:41:03Z</time>
      </trkpt>
      <trkpt lat="46.61774" lon="5.55126">
        <ele>512</ele>
        <time>2018-05-24T09:43:49Z</time>
      </trkpt>
      <trkpt lat="46.61764" lon="5.5512">
        <ele>515</ele>
        <time>2018-05-24T09:44:20Z</time>
      </trkpt>
      <trkpt lat="46.6176" lon="5.55105">
        <ele>518</ele>
        <time>2018-05-24T09:44:38Z</time>
      </trkpt>
      <trkpt lat="46.61748" lon="5.55105">
        <ele>519</ele>
        <time>2018-05-24T09:51:23Z</time>
      </trkpt>
      <trkpt lat="46.61748" lon="5.55103">
        <ele>518</ele>
        <time>2018-05-24T10:12:58Z</time>
      </trkpt>
      <trkpt lat="46.61723" lon="5.55072">
        <ele>518</ele>
        <time>2018-05-24T10:34:09Z</time>
      </trkpt>
      <trkpt lat="46.61714" lon="5.55071">
        <ele>518</ele>
        <time>2018-05-24T10:34:18Z</time>
      </trkpt>
      <trkpt lat="46.61705" lon="5.55068">
        <ele>517</ele>
        <time>2018-05-24T10:34:27Z</time>
      </trkpt>
      <trkpt lat="46.61696" lon="5.55067">
        <ele>517</ele>
        <time>2018-05-24T10:34:36Z</time>
      </trkpt>
      <trkpt lat="46.61686" lon="5.5507">
        <ele>516</ele>
        <time>2018-05-24T10:34:45Z</time>
      </trkpt>
      <trkpt lat="46.61683" lon="5.55081">
        <ele>515</ele>
        <time>2018-05-24T10:34:54Z</time>
      </trkpt>
      <trkpt lat="46.61685" lon="5.55108">
        <ele>515</ele>
        <time>2018-05-24T10:35:13Z</time>
      </trkpt>
      <trkpt lat="46.61692" lon="5.55135">
        <ele>515</ele>
        <time>2018-05-24T10:35:30Z</time>
      </trkpt>
      <trkpt lat="46.61693" lon="5.55148">
        <ele>514</ele>
        <time>2018-05-24T10:35:39Z</time>
      </trkpt>
      <trkpt lat="46.61697" lon="5.55162">
        <ele>512</ele>
        <time>2018-05-24T10:35:47Z</time>
      </trkpt>
      <trkpt lat="46.61704" lon="5.55177">
        <ele>510</ele>
        <time>2018-05-24T10:36:03Z</time>
      </trkpt>
      <trkpt lat="46.61708" lon="5.55189">
        <ele>509</ele>
        <time>2018-05-24T10:36:15Z</time>
      </trkpt>
      <trkpt lat="46.6171" lon="5.55209">
        <ele>509</ele>
        <time>2018-05-24T10:36:32Z</time>
      </trkpt>
      <trkpt lat="46.61718" lon="5.55242">
        <ele>506</ele>
        <time>2018-05-24T10:36:56Z</time>
      </trkpt>
      <trkpt lat="46.61718" lon="5.55258">
        <ele>506</ele>
        <time>2018-05-24T10:37:09Z</time>
      </trkpt>
      <trkpt lat="46.6168" lon="5.55258">
        <ele>502</ele>
        <time>2018-05-24T10:37:59Z</time>
      </trkpt>
      <trkpt lat="46.61674" lon="5.55255">
        <ele>502</ele>
        <time>2018-05-24T10:38:06Z</time>
      </trkpt>
      <trkpt lat="46.61661" lon="5.55254">
        <ele>501</ele>
        <time>2018-05-24T10:38:18Z</time>
      </trkpt>
      <trkpt lat="46.6165" lon="5.55248">
        <ele>500</ele>
        <time>2018-05-24T10:38:23Z</time>
      </trkpt>
      <trkpt lat="46.61641" lon="5.55259">
        <ele>500</ele>
        <time>2018-05-24T10:38:33Z</time>
      </trkpt>
      <trkpt lat="46.61637" lon="5.55272">
        <ele>501</ele>
        <time>2018-05-24T10:38:36Z</time>
      </trkpt>
      <trkpt lat="46.61626" lon="5.55266">
        <ele>501</ele>
        <time>2018-05-24T10:38:44Z</time>
      </trkpt>
      <trkpt lat="46.61617" lon="5.55253">
        <ele>499</ele>
        <time>2018-05-24T10:38:57Z</time>
      </trkpt>
      <trkpt lat="46.61601" lon="5.55248">
        <ele>497</ele>
        <time>2018-05-24T10:39:09Z</time>
      </trkpt>
      <trkpt lat="46.61589" lon="5.55242">
        <ele>495</ele>
        <time>2018-05-24T10:39:37Z</time>
      </trkpt>
      <trkpt lat="46.61579" lon="5.55228">
        <ele>491</ele>
        <time>2018-05-24T10:39:56Z</time>
      </trkpt>
      <trkpt lat="46.61563" lon="5.55218">
        <ele>487</ele>
        <time>2018-05-24T10:40:14Z</time>
      </trkpt>
      <trkpt lat="46.61554" lon="5.55223">
        <ele>490</ele>
        <time>2018-05-24T10:40:21Z</time>
      </trkpt>
      <trkpt lat="46.61547" lon="5.55211">
        <ele>488</ele>
        <time>2018-05-24T10:40:31Z</time>
      </trkpt>
      <trkpt lat="46.61536" lon="5.55208">
        <ele>485</ele>
        <time>2018-05-24T10:40:48Z</time>
      </trkpt>
      <trkpt lat="46.61526" lon="5.55206">
        <ele>484</ele>
        <time>2018-05-24T10:41:02Z</time>
      </trkpt>
      <trkpt lat="46.61487" lon="5.55132">
        <ele>463</ele>
        <time>2018-05-24T10:42:41Z</time>
      </trkpt>
      <trkpt lat="46.61481" lon="5.55122">
        <ele>461</ele>
        <time>2018-05-24T10:42:58Z</time>
      </trkpt>
      <trkpt lat="46.61477" lon="5.5511">
        <ele>460</ele>
        <time>2018-05-24T10:43:08Z</time>
      </trkpt>
      <trkpt lat="46.61473" lon="5.55095">
        <ele>458</ele>
        <time>2018-05-24T10:43:24Z</time>
      </trkpt>
      <trkpt lat="46.6147" lon="5.55077">
        <ele>452</ele>
        <time>2018-05-24T10:43:54Z</time>
      </trkpt>
      <trkpt lat="46.61467" lon="5.55065">
        <ele>449</ele>
        <time>2018-05-24T10:44:12Z</time>
      </trkpt>
      <trkpt lat="46.61466" lon="5.5505">
        <ele>447</ele>
        <time>2018-05-24T10:44:35Z</time>
      </trkpt>
      <trkpt lat="46.61468" lon="5.55037">
        <ele>444</ele>
        <time>2018-05-24T10:44:55Z</time>
      </trkpt>
      <trkpt lat="46.61464" lon="5.5502">
        <ele>443</ele>
        <time>2018-05-24T10:45:10Z</time>
      </trkpt>
      <trkpt lat="46.61462" lon="5.55007">
        <ele>441</ele>
        <time>2018-05-24T10:45:30Z</time>
      </trkpt>
      <trkpt lat="46.61457" lon="5.54995">
        <ele>442</ele>
        <time>2018-05-24T10:45:44Z</time>
      </trkpt>
      <trkpt lat="46.61457" lon="5.5498">
        <ele>442</ele>
        <time>2018-05-24T10:45:57Z</time>
      </trkpt>
      <trkpt lat="46.61458" lon="5.54964">
        <ele>439</ele>
        <time>2018-05-24T10:46:05Z</time>
      </trkpt>
      <trkpt lat="46.61449" lon="5.54953">
        <ele>433</ele>
        <time>2018-05-24T10:46:43Z</time>
      </trkpt>
      <trkpt lat="46.61434" lon="5.54937">
        <ele>433</ele>
        <time>2018-05-24T10:47:11Z</time>
      </trkpt>
      <trkpt lat="46.61428" lon="5.54927">
        <ele>431</ele>
        <time>2018-05-24T10:47:21Z</time>
      </trkpt>
      <trkpt lat="46.61414" lon="5.54919">
        <ele>430</ele>
        <time>2018-05-24T10:47:39Z</time>
      </trkpt>
      <trkpt lat="46.61394" lon="5.54894">
        <ele>427</ele>
        <time>2018-05-24T10:47:57Z</time>
      </trkpt>
      <trkpt lat="46.61384" lon="5.54895">
        <ele>424</ele>
        <time>2018-05-24T10:48:12Z</time>
      </trkpt>
      <trkpt lat="46.61358" lon="5.54908">
        <ele>425</ele>
        <time>2018-05-24T10:48:52Z</time>
      </trkpt>
      <trkpt lat="46.61353" lon="5.54911">
        <ele>426</ele>
        <time>2018-05-24T10:48:57Z</time>
      </trkpt>
      <trkpt lat="46.61347" lon="5.5491">
        <ele>425</ele>
        <time>2018-05-24T10:49:02Z</time>
      </trkpt>
      <trkpt lat="46.61338" lon="5.54914">
        <ele>424</ele>
        <time>2018-05-24T10:49:13Z</time>
      </trkpt>
      <trkpt lat="46.61328" lon="5.54915">
        <ele>425</ele>
        <time>2018-05-24T10:49:26Z</time>
      </trkpt>
      <trkpt lat="46.613" lon="5.54925">
        <ele>428</ele>
        <time>2018-05-24T10:49:59Z</time>
      </trkpt>
      <trkpt lat="46.61293" lon="5.54935">
        <ele>432</ele>
        <time>2018-05-24T10:50:13Z</time>
      </trkpt>
      <trkpt lat="46.61284" lon="5.54945">
        <ele>433</ele>
        <time>2018-05-24T10:50:31Z</time>
      </trkpt>
      <trkpt lat="46.6126" lon="5.54945">
        <ele>436</ele>
        <time>2018-05-24T10:51:07Z</time>
      </trkpt>
      <trkpt lat="46.61251" lon="5.54945">
        <ele>439</ele>
        <time>2018-05-24T10:51:30Z</time>
      </trkpt>
      <trkpt lat="46.6124" lon="5.54929">
        <ele>442</ele>
        <time>2018-05-24T10:51:57Z</time>
      </trkpt>
      <trkpt lat="46.61227" lon="5.5492">
        <ele>442</ele>
        <time>2018-05-24T10:52:18Z</time>
      </trkpt>
      <trkpt lat="46.61217" lon="5.54916">
        <ele>444</ele>
        <time>2018-05-24T10:52:29Z</time>
      </trkpt>
      <trkpt lat="46.61209" lon="5.54906">
        <ele>445</ele>
        <time>2018-05-24T10:52:40Z</time>
      </trkpt>
      <trkpt lat="46.61201" lon="5.54898">
        <ele>445</ele>
        <time>2018-05-24T10:52:50Z</time>
      </trkpt>
      <trkpt lat="46.61189" lon="5.5488">
        <ele>446</ele>
        <time>2018-05-24T10:53:08Z</time>
      </trkpt>
      <trkpt lat="46.61182" lon="5.5487">
        <ele>444</ele>
        <time>2018-05-24T10:53:17Z</time>
      </trkpt>
      <trkpt lat="46.61176" lon="5.54859">
        <ele>445</ele>
        <time>2018-05-24T10:53:23Z</time>
      </trkpt>
      <trkpt lat="46.61168" lon="5.5485">
        <ele>444</ele>
        <time>2018-05-24T10:53:30Z</time>
      </trkpt>
      <trkpt lat="46.61159" lon="5.54845">
        <ele>444</ele>
        <time>2018-05-24T10:53:38Z</time>
      </trkpt>
      <trkpt lat="46.61149" lon="5.54845">
        <ele>445</ele>
        <time>2018-05-24T10:53:48Z</time>
      </trkpt>
      <trkpt lat="46.61134" lon="5.54836">
        <ele>446</ele>
        <time>2018-05-24T10:54:06Z</time>
      </trkpt>
      <trkpt lat="46.61124" lon="5.54832">
        <ele>446</ele>
        <time>2018-05-24T10:54:16Z</time>
      </trkpt>
      <trkpt lat="46.61103" lon="5.54829">
        <ele>448</ele>
        <time>2018-05-24T10:54:34Z</time>
      </trkpt>
      <trkpt lat="46.61093" lon="5.54831">
        <ele>449</ele>
        <time>2018-05-24T10:54:43Z</time>
      </trkpt>
      <trkpt lat="46.61068" lon="5.54852">
        <ele>453</ele>
        <time>2018-05-24T10:55:09Z</time>
      </trkpt>
      <trkpt lat="46.61057" lon="5.54873">
        <ele>457</ele>
        <time>2018-05-24T10:55:26Z</time>
      </trkpt>
      <trkpt lat="46.61047" lon="5.54876">
        <ele>457</ele>
        <time>2018-05-24T10:55:33Z</time>
      </trkpt>
      <trkpt lat="46.61038" lon="5.54873">
        <ele>456</ele>
        <time>2018-05-24T10:55:41Z</time>
      </trkpt>
      <trkpt lat="46.61027" lon="5.54864">
        <ele>456</ele>
        <time>2018-05-24T10:55:54Z</time>
      </trkpt>
      <trkpt lat="46.60988" lon="5.54855">
        <ele>456</ele>
        <time>2018-05-24T10:56:32Z</time>
      </trkpt>
      <trkpt lat="46.60978" lon="5.54853">
        <ele>455</ele>
        <time>2018-05-24T10:56:40Z</time>
      </trkpt>
      <trkpt lat="46.60942" lon="5.54833">
        <ele>454</ele>
        <time>2018-05-24T10:57:13Z</time>
      </trkpt>
      <trkpt lat="46.60917" lon="5.54816">
        <ele>452</ele>
        <time>2018-05-24T10:57:36Z</time>
      </trkpt>
      <trkpt lat="46.60908" lon="5.5481">
        <ele>453</ele>
        <time>2018-05-24T10:57:44Z</time>
      </trkpt>
      <trkpt lat="46.60894" lon="5.548">
        <ele>454</ele>
        <time>2018-05-24T10:57:56Z</time>
      </trkpt>
      <trkpt lat="46.60884" lon="5.54796">
        <ele>454</ele>
        <time>2018-05-24T10:58:04Z</time>
      </trkpt>
      <trkpt lat="46.60868" lon="5.54779">
        <ele>454</ele>
        <time>2018-05-24T10:58:22Z</time>
      </trkpt>
      <trkpt lat="46.60854" lon="5.54761">
        <ele>456</ele>
        <time>2018-05-24T10:58:38Z</time>
      </trkpt>
      <trkpt lat="46.60834" lon="5.54751">
        <ele>458</ele>
        <time>2018-05-24T10:58:55Z</time>
      </trkpt>
      <trkpt lat="46.6082" lon="5.54744">
        <ele>457</ele>
        <time>2018-05-24T10:59:08Z</time>
      </trkpt>
      <trkpt lat="46.60814" lon="5.54741">
        <ele>457</ele>
        <time>2018-05-24T10:59:13Z</time>
      </trkpt>
      <trkpt lat="46.6081" lon="5.54738">
        <ele>457</ele>
        <time>2018-05-24T10:59:17Z</time>
      </trkpt>
      <trkpt lat="46.60802" lon="5.54731">
        <ele>458</ele>
        <time>2018-05-24T10:59:25Z</time>
      </trkpt>
      <trkpt lat="46.60798" lon="5.54726">
        <ele>458</ele>
        <time>2018-05-24T10:59:30Z</time>
      </trkpt>
      <trkpt lat="46.60795" lon="5.54719">
        <ele>457</ele>
        <time>2018-05-24T10:59:35Z</time>
      </trkpt>
      <trkpt lat="46.60796" lon="5.54703">
        <ele>457</ele>
        <time>2018-05-24T10:59:44Z</time>
      </trkpt>
      <trkpt lat="46.60797" lon="5.54696">
        <ele>457</ele>
        <time>2018-05-24T10:59:48Z</time>
      </trkpt>
      <trkpt lat="46.608" lon="5.54682">
        <ele>458</ele>
        <time>2018-05-24T10:59:57Z</time>
      </trkpt>
      <trkpt lat="46.60803" lon="5.54668">
        <ele>457</ele>
        <time>2018-05-24T11:00:06Z</time>
      </trkpt>
      <trkpt lat="46.60805" lon="5.54655">
        <ele>457</ele>
        <time>2018-05-24T11:00:14Z</time>
      </trkpt>
      <trkpt lat="46.60807" lon="5.54648">
        <ele>458</ele>
        <time>2018-05-24T11:00:18Z</time>
      </trkpt>
      <trkpt lat="46.60809" lon="5.54642">
        <ele>458</ele>
        <time>2018-05-24T11:00:23Z</time>
      </trkpt>
      <trkpt lat="46.60813" lon="5.54637">
        <ele>459</ele>
        <time>2018-05-24T11:00:28Z</time>
      </trkpt>
      <trkpt lat="46.60822" lon="5.54632">
        <ele>459</ele>
        <time>2018-05-24T11:00:36Z</time>
      </trkpt>
      <trkpt lat="46.60849" lon="5.54624">
        <ele>459</ele>
        <time>2018-05-24T11:01:05Z</time>
      </trkpt>
      <trkpt lat="46.60852" lon="5.54619">
        <ele>459</ele>
        <time>2018-05-24T11:01:11Z</time>
      </trkpt>
      <trkpt lat="46.60858" lon="5.5461">
        <ele>460</ele>
        <time>2018-05-24T11:01:23Z</time>
      </trkpt>
      <trkpt lat="46.60862" lon="5.54605">
        <ele>460</ele>
        <time>2018-05-24T11:01:28Z</time>
      </trkpt>
      <trkpt lat="46.60868" lon="5.54595">
        <ele>461</ele>
        <time>2018-05-24T11:01:39Z</time>
      </trkpt>
      <trkpt lat="46.60869" lon="5.54588">
        <ele>462</ele>
        <time>2018-05-24T11:01:45Z</time>
      </trkpt>
      <trkpt lat="46.60882" lon="5.54564">
        <ele>465</ele>
        <time>2018-05-24T11:02:07Z</time>
      </trkpt>
      <trkpt lat="46.60887" lon="5.54558">
        <ele>465</ele>
        <time>2018-05-24T11:02:14Z</time>
      </trkpt>
      <trkpt lat="46.60891" lon="5.54556">
        <ele>466</ele>
        <time>2018-05-24T11:02:19Z</time>
      </trkpt>
      <trkpt lat="46.60895" lon="5.54551">
        <ele>466</ele>
        <time>2018-05-24T11:02:24Z</time>
      </trkpt>
      <trkpt lat="46.60911" lon="5.54542">
        <ele>468</ele>
        <time>2018-05-24T11:02:41Z</time>
      </trkpt>
      <trkpt lat="46.60925" lon="5.54532">
        <ele>470</ele>
        <time>2018-05-24T11:02:54Z</time>
      </trkpt>
      <trkpt lat="46.6095" lon="5.54523">
        <ele>473</ele>
        <time>2018-05-24T11:03:22Z</time>
      </trkpt>
      <trkpt lat="46.60983" lon="5.54505">
        <ele>477</ele>
        <time>2018-05-24T11:03:56Z</time>
      </trkpt>
      <trkpt lat="46.60999" lon="5.54494">
        <ele>481</ele>
        <time>2018-05-24T11:04:14Z</time>
      </trkpt>
      <trkpt lat="46.61009" lon="5.54489">
        <ele>481</ele>
        <time>2018-05-24T11:04:23Z</time>
      </trkpt>
      <trkpt lat="46.61017" lon="5.54481">
        <ele>482</ele>
        <time>2018-05-24T11:04:31Z</time>
      </trkpt>
      <trkpt lat="46.61044" lon="5.5447">
        <ele>486</ele>
        <time>2018-05-24T11:05:05Z</time>
      </trkpt>
      <trkpt lat="46.61082" lon="5.54453">
        <ele>490</ele>
        <time>2018-05-24T11:05:42Z</time>
      </trkpt>
      <trkpt lat="46.61098" lon="5.54417">
        <ele>497</ele>
        <time>2018-05-24T11:06:23Z</time>
      </trkpt>
      <trkpt lat="46.61108" lon="5.54411">
        <ele>498</ele>
        <time>2018-05-24T11:06:35Z</time>
      </trkpt>
      <trkpt lat="46.61131" lon="5.54406">
        <ele>501</ele>
        <time>2018-05-24T11:07:04Z</time>
      </trkpt>
      <trkpt lat="46.6114" lon="5.54407">
        <ele>501</ele>
        <time>2018-05-24T11:07:25Z</time>
      </trkpt>
      <trkpt lat="46.61145" lon="5.544">
        <ele>501</ele>
        <time>2018-05-24T11:07:38Z</time>
      </trkpt>
      <trkpt lat="46.61146" lon="5.54391">
        <ele>503</ele>
        <time>2018-05-24T11:07:46Z</time>
      </trkpt>
      <trkpt lat="46.61148" lon="5.54385">
        <ele>504</ele>
        <time>2018-05-24T11:07:52Z</time>
      </trkpt>
      <trkpt lat="46.6115" lon="5.54379">
        <ele>504</ele>
        <time>2018-05-24T11:07:58Z</time>
      </trkpt>
      <trkpt lat="46.61152" lon="5.54365">
        <ele>505</ele>
        <time>2018-05-24T11:08:07Z</time>
      </trkpt>
      <trkpt lat="46.61155" lon="5.54341">
        <ele>508</ele>
        <time>2018-05-24T11:08:24Z</time>
      </trkpt>
      <trkpt lat="46.61157" lon="5.54336">
        <ele>508</ele>
        <time>2018-05-24T11:08:30Z</time>
      </trkpt>
      <trkpt lat="46.61159" lon="5.54329">
        <ele>509</ele>
        <time>2018-05-24T11:08:35Z</time>
      </trkpt>
      <trkpt lat="46.61159" lon="5.54323">
        <ele>509</ele>
        <time>2018-05-24T11:09:01Z</time>
      </trkpt>
      <trkpt lat="46.61162" lon="5.54315">
        <ele>511</ele>
        <time>2018-05-24T11:09:13Z</time>
      </trkpt>
      <trkpt lat="46.61163" lon="5.54305">
        <ele>510</ele>
        <time>2018-05-24T11:09:25Z</time>
      </trkpt>
      <trkpt lat="46.61168" lon="5.54298">
        <ele>510</ele>
        <time>2018-05-24T11:09:37Z</time>
      </trkpt>
      <trkpt lat="46.61171" lon="5.54292">
        <ele>509</ele>
        <time>2018-05-24T11:09:43Z</time>
      </trkpt>
      <trkpt lat="46.61176" lon="5.54289">
        <ele>508</ele>
        <time>2018-05-24T11:09:49Z</time>
      </trkpt>
      <trkpt lat="46.61178" lon="5.54283">
        <ele>508</ele>
        <time>2018-05-24T11:09:55Z</time>
      </trkpt>
      <trkpt lat="46.61172" lon="5.54277">
        <ele>508</ele>
        <time>2018-05-24T11:10:07Z</time>
      </trkpt>
      <trkpt lat="46.61179" lon="5.54272">
        <ele>506</ele>
        <time>2018-05-24T11:10:31Z</time>
      </trkpt>
      <trkpt lat="46.61183" lon="5.54269">
        <ele>506</ele>
        <time>2018-05-24T11:10:38Z</time>
      </trkpt>
      <trkpt lat="46.61197" lon="5.5426">
        <ele>506</ele>
        <time>2018-05-24T11:11:00Z</time>
      </trkpt>
      <trkpt lat="46.61202" lon="5.54258">
        <ele>506</ele>
        <time>2018-05-24T11:11:06Z</time>
      </trkpt>
      <trkpt lat="46.61207" lon="5.54256">
        <ele>506</ele>
        <time>2018-05-24T11:11:10Z</time>
      </trkpt>
      <trkpt lat="46.61216" lon="5.5425">
        <ele>503</ele>
        <time>2018-05-24T11:11:20Z</time>
      </trkpt>
      <trkpt lat="46.61222" lon="5.54247">
        <ele>505</ele>
        <time>2018-05-24T11:11:27Z</time>
      </trkpt>
      <trkpt lat="46.61229" lon="5.54247">
        <ele>506</ele>
        <time>2018-05-24T11:11:35Z</time>
      </trkpt>
      <trkpt lat="46.61239" lon="5.54254">
        <ele>507</ele>
        <time>2018-05-24T11:11:50Z</time>
      </trkpt>
      <trkpt lat="46.61251" lon="5.54263">
        <ele>507</ele>
        <time>2018-05-24T11:12:06Z</time>
      </trkpt>
      <trkpt lat="46.6127" lon="5.54269">
        <ele>504</ele>
        <time>2018-05-24T11:12:31Z</time>
      </trkpt>
      <trkpt lat="46.61288" lon="5.54282">
        <ele>503</ele>
        <time>2018-05-24T11:12:50Z</time>
      </trkpt>
      <trkpt lat="46.6131" lon="5.54307">
        <ele>503</ele>
        <time>2018-05-24T11:13:18Z</time>
      </trkpt>
      <trkpt lat="46.61316" lon="5.54318">
        <ele>501</ele>
        <time>2018-05-24T11:13:28Z</time>
      </trkpt>
      <trkpt lat="46.61339" lon="5.54326">
        <ele>499</ele>
        <time>2018-05-24T11:13:50Z</time>
      </trkpt>
      <trkpt lat="46.61349" lon="5.54327">
        <ele>500</ele>
        <time>2018-05-24T11:13:59Z</time>
      </trkpt>
      <trkpt lat="46.61355" lon="5.54336">
        <ele>499</ele>
        <time>2018-05-24T11:14:08Z</time>
      </trkpt>
      <trkpt lat="46.61359" lon="5.54349">
        <ele>499</ele>
        <time>2018-05-24T11:14:17Z</time>
      </trkpt>
      <trkpt lat="46.61368" lon="5.54352">
        <ele>494</ele>
        <time>2018-05-24T11:14:55Z</time>
      </trkpt>
      <trkpt lat="46.61376" lon="5.54336">
        <ele>490</ele>
        <time>2018-05-24T11:15:31Z</time>
      </trkpt>
      <trkpt lat="46.61386" lon="5.54324">
        <ele>488</ele>
        <time>2018-05-24T11:15:50Z</time>
      </trkpt>
      <trkpt lat="46.614" lon="5.54314">
        <ele>487</ele>
        <time>2018-05-24T11:16:06Z</time>
      </trkpt>
      <trkpt lat="46.6141" lon="5.54312">
        <ele>487</ele>
        <time>2018-05-24T11:16:14Z</time>
      </trkpt>
      <trkpt lat="46.61417" lon="5.54305">
        <ele>487</ele>
        <time>2018-05-24T11:16:22Z</time>
      </trkpt>
      <trkpt lat="46.61429" lon="5.54303">
        <ele>487</ele>
        <time>2018-05-24T11:16:33Z</time>
      </trkpt>
      <trkpt lat="46.61437" lon="5.543">
        <ele>486</ele>
        <time>2018-05-24T11:16:43Z</time>
      </trkpt>
      <trkpt lat="46.61446" lon="5.54289">
        <ele>485</ele>
        <time>2018-05-24T11:16:55Z</time>
      </trkpt>
      <trkpt lat="46.61451" lon="5.54276">
        <ele>484</ele>
        <time>2018-05-24T11:17:05Z</time>
      </trkpt>
      <trkpt lat="46.61453" lon="5.5427">
        <ele>485</ele>
        <time>2018-05-24T11:17:09Z</time>
      </trkpt>
      <trkpt lat="46.61453" lon="5.54263">
        <ele>485</ele>
        <time>2018-05-24T11:17:14Z</time>
      </trkpt>
      <trkpt lat="46.61457" lon="5.54256">
        <ele>485</ele>
        <time>2018-05-24T11:17:21Z</time>
      </trkpt>
      <trkpt lat="46.61459" lon="5.5425">
        <ele>484</ele>
        <time>2018-05-24T11:17:26Z</time>
      </trkpt>
      <trkpt lat="46.61462" lon="5.54244">
        <ele>484</ele>
        <time>2018-05-24T11:17:31Z</time>
      </trkpt>
      <trkpt lat="46.61464" lon="5.54237">
        <ele>484</ele>
        <time>2018-05-24T11:17:36Z</time>
      </trkpt>
      <trkpt lat="46.61467" lon="5.54232">
        <ele>484</ele>
        <time>2018-05-24T11:17:41Z</time>
      </trkpt>
      <trkpt lat="46.61475" lon="5.54215">
        <ele>485</ele>
        <time>2018-05-24T11:17:55Z</time>
      </trkpt>
      <trkpt lat="46.61477" lon="5.5421">
        <ele>485</ele>
        <time>2018-05-24T11:18:05Z</time>
      </trkpt>
      <trkpt lat="46.6148" lon="5.54203">
        <ele>486</ele>
        <time>2018-05-24T11:18:11Z</time>
      </trkpt>
      <trkpt lat="46.61483" lon="5.54197">
        <ele>485</ele>
        <time>2018-05-24T11:18:15Z</time>
      </trkpt>
      <trkpt lat="46.61485" lon="5.54191">
        <ele>485</ele>
        <time>2018-05-24T11:18:20Z</time>
      </trkpt>
      <trkpt lat="46.61496" lon="5.54176">
        <ele>485</ele>
        <time>2018-05-24T11:18:34Z</time>
      </trkpt>
      <trkpt lat="46.61504" lon="5.54155">
        <ele>484</ele>
        <time>2018-05-24T11:18:51Z</time>
      </trkpt>
      <trkpt lat="46.61506" lon="5.54149">
        <ele>484</ele>
        <time>2018-05-24T11:18:56Z</time>
      </trkpt>
      <trkpt lat="46.61512" lon="5.54122">
        <ele>483</ele>
        <time>2018-05-24T11:19:18Z</time>
      </trkpt>
      <trkpt lat="46.6153" lon="5.54081">
        <ele>487</ele>
        <time>2018-05-24T11:19:52Z</time>
      </trkpt>
      <trkpt lat="46.61533" lon="5.54076">
        <ele>488</ele>
        <time>2018-05-24T11:19:57Z</time>
      </trkpt>
      <trkpt lat="46.61536" lon="5.5407">
        <ele>488</ele>
        <time>2018-05-24T11:20:02Z</time>
      </trkpt>
      <trkpt lat="46.61543" lon="5.5406">
        <ele>489</ele>
        <time>2018-05-24T11:20:11Z</time>
      </trkpt>
      <trkpt lat="46.61546" lon="5.54053">
        <ele>490</ele>
        <time>2018-05-24T11:20:19Z</time>
      </trkpt>
      <trkpt lat="46.61547" lon="5.54045">
        <ele>490</ele>
        <time>2018-05-24T11:20:25Z</time>
      </trkpt>
      <trkpt lat="46.61548" lon="5.54039">
        <ele>491</ele>
        <time>2018-05-24T11:20:30Z</time>
      </trkpt>
      <trkpt lat="46.6155" lon="5.54029">
        <ele>492</ele>
        <time>2018-05-24T11:20:38Z</time>
      </trkpt>
      <trkpt lat="46.61555" lon="5.54022">
        <ele>494</ele>
        <time>2018-05-24T11:20:47Z</time>
      </trkpt>
      <trkpt lat="46.61565" lon="5.54021">
        <ele>495</ele>
        <time>2018-05-24T11:20:59Z</time>
      </trkpt>
      <trkpt lat="46.61582" lon="5.5402">
        <ele>498</ele>
        <time>2018-05-24T11:21:30Z</time>
      </trkpt>
      <trkpt lat="46.61586" lon="5.5402">
        <ele>498</ele>
        <time>2018-05-24T11:21:35Z</time>
      </trkpt>
      <trkpt lat="46.61596" lon="5.54023">
        <ele>499</ele>
        <time>2018-05-24T11:21:44Z</time>
      </trkpt>
      <trkpt lat="46.61606" lon="5.54026">
        <ele>499</ele>
        <time>2018-05-24T11:21:54Z</time>
      </trkpt>
      <trkpt lat="46.61616" lon="5.5403">
        <ele>500</ele>
        <time>2018-05-24T11:22:04Z</time>
      </trkpt>
      <trkpt lat="46.6162" lon="5.54032">
        <ele>500</ele>
        <time>2018-05-24T11:22:08Z</time>
      </trkpt>
      <trkpt lat="46.61641" lon="5.54033">
        <ele>501</ele>
        <time>2018-05-24T11:22:26Z</time>
      </trkpt>
      <trkpt lat="46.61645" lon="5.54032">
        <ele>501</ele>
        <time>2018-05-24T11:22:30Z</time>
      </trkpt>
      <trkpt lat="46.6168" lon="5.54021">
        <ele>502</ele>
        <time>2018-05-24T11:23:03Z</time>
      </trkpt>
      <trkpt lat="46.61687" lon="5.54018">
        <ele>503</ele>
        <time>2018-05-24T11:23:10Z</time>
      </trkpt>
      <trkpt lat="46.61698" lon="5.54016">
        <ele>504</ele>
        <time>2018-05-24T11:23:19Z</time>
      </trkpt>
      <trkpt lat="46.61735" lon="5.54015">
        <ele>507</ele>
        <time>2018-05-24T11:23:53Z</time>
      </trkpt>
      <trkpt lat="46.6174" lon="5.54014">
        <ele>507</ele>
        <time>2018-05-24T11:23:58Z</time>
      </trkpt>
      <trkpt lat="46.61744" lon="5.54014">
        <ele>507</ele>
        <time>2018-05-24T11:24:02Z</time>
      </trkpt>
      <trkpt lat="46.61763" lon="5.54012">
        <ele>508</ele>
        <time>2018-05-24T11:24:18Z</time>
      </trkpt>
      <trkpt lat="46.61768" lon="5.54014">
        <ele>508</ele>
        <time>2018-05-24T11:24:23Z</time>
      </trkpt>
      <trkpt lat="46.61778" lon="5.54018">
        <ele>508</ele>
        <time>2018-05-24T11:24:33Z</time>
      </trkpt>
      <trkpt lat="46.61783" lon="5.5402">
        <ele>509</ele>
        <time>2018-05-24T11:24:38Z</time>
      </trkpt>
      <trkpt lat="46.61788" lon="5.54021">
        <ele>510</ele>
        <time>2018-05-24T11:24:42Z</time>
      </trkpt>
      <trkpt lat="46.61794" lon="5.5402">
        <ele>510</ele>
        <time>2018-05-24T11:24:51Z</time>
      </trkpt>
      <trkpt lat="46.618" lon="5.54012">
        <ele>512</ele>
        <time>2018-05-24T11:25:52Z</time>
      </trkpt>
      <trkpt lat="46.61802" lon="5.54002">
        <ele>512</ele>
        <time>2018-05-24T11:26:09Z</time>
      </trkpt>
      <trkpt lat="46.61805" lon="5.53995">
        <ele>512</ele>
        <time>2018-05-24T11:26:14Z</time>
      </trkpt>
      <trkpt lat="46.61808" lon="5.53989">
        <ele>513</ele>
        <time>2018-05-24T11:26:19Z</time>
      </trkpt>
      <trkpt lat="46.61811" lon="5.53985">
        <ele>512</ele>
        <time>2018-05-24T11:26:23Z</time>
      </trkpt>
      <trkpt lat="46.61811" lon="5.53974">
        <ele>514</ele>
        <time>2018-05-24T11:26:34Z</time>
      </trkpt>
      <trkpt lat="46.61815" lon="5.53979">
        <ele>514</ele>
        <time>2018-05-24T11:26:40Z</time>
      </trkpt>
      <trkpt lat="46.61819" lon="5.53983">
        <ele>514</ele>
        <time>2018-05-24T11:26:44Z</time>
      </trkpt>
      <trkpt lat="46.61825" lon="5.53985">
        <ele>515</ele>
        <time>2018-05-24T11:26:51Z</time>
      </trkpt>
      <trkpt lat="46.6183" lon="5.53986">
        <ele>515</ele>
        <time>2018-05-24T11:26:56Z</time>
      </trkpt>
      <trkpt lat="46.61836" lon="5.53983">
        <ele>516</ele>
        <time>2018-05-24T11:27:04Z</time>
      </trkpt>
      <trkpt lat="46.61841" lon="5.5398">
        <ele>515</ele>
        <time>2018-05-24T11:27:28Z</time>
      </trkpt>
      <trkpt lat="46.61847" lon="5.53973">
        <ele>516</ele>
        <time>2018-05-24T11:29:00Z</time>
      </trkpt>
      <trkpt lat="46.61851" lon="5.53972">
        <ele>516</ele>
        <time>2018-05-24T11:29:12Z</time>
      </trkpt>
      <trkpt lat="46.61854" lon="5.53967">
        <ele>517</ele>
        <time>2018-05-24T11:29:24Z</time>
      </trkpt>
      <trkpt lat="46.6186" lon="5.53967">
        <ele>516</ele>
        <time>2018-05-24T11:29:28Z</time>
      </trkpt>
      <trkpt lat="46.61871" lon="5.53964">
        <ele>518</ele>
        <time>2018-05-24T11:29:39Z</time>
      </trkpt>
      <trkpt lat="46.61895" lon="5.53956">
        <ele>517</ele>
        <time>2018-05-24T11:29:59Z</time>
      </trkpt>
      <trkpt lat="46.619" lon="5.53954">
        <ele>517</ele>
        <time>2018-05-24T11:30:05Z</time>
      </trkpt>
      <trkpt lat="46.61909" lon="5.53949">
        <ele>517</ele>
        <time>2018-05-24T11:30:15Z</time>
      </trkpt>
      <trkpt lat="46.61914" lon="5.53947">
        <ele>517</ele>
        <time>2018-05-24T11:30:20Z</time>
      </trkpt>
      <trkpt lat="46.61921" lon="5.53941">
        <ele>517</ele>
        <time>2018-05-24T11:30:34Z</time>
      </trkpt>
      <trkpt lat="46.61926" lon="5.5394">
        <ele>518</ele>
        <time>2018-05-24T11:30:52Z</time>
      </trkpt>
      <trkpt lat="46.61933" lon="5.53936">
        <ele>517</ele>
        <time>2018-05-24T11:31:04Z</time>
      </trkpt>
      <trkpt lat="46.6194" lon="5.53934">
        <ele>518</ele>
        <time>2018-05-24T11:31:16Z</time>
      </trkpt>
      <trkpt lat="46.61944" lon="5.53938">
        <ele>517</ele>
        <time>2018-05-24T11:31:40Z</time>
      </trkpt>
      <trkpt lat="46.61962" lon="5.53935">
        <ele>516</ele>
        <time>2018-05-24T11:32:01Z</time>
      </trkpt>
      <trkpt lat="46.61972" lon="5.53934">
        <ele>517</ele>
        <time>2018-05-24T11:32:09Z</time>
      </trkpt>
      <trkpt lat="46.61983" lon="5.53933">
        <ele>515</ele>
        <time>2018-05-24T11:32:21Z</time>
      </trkpt>
      <trkpt lat="46.61994" lon="5.53929">
        <ele>513</ele>
        <time>2018-05-24T11:32:32Z</time>
      </trkpt>
      <trkpt lat="46.62004" lon="5.53928">
        <ele>513</ele>
        <time>2018-05-24T11:32:40Z</time>
      </trkpt>
      <trkpt lat="46.62044" lon="5.53924">
        <ele>510</ele>
        <time>2018-05-24T11:33:12Z</time>
      </trkpt>
      <trkpt lat="46.62078" lon="5.53916">
        <ele>506</ele>
        <time>2018-05-24T11:33:49Z</time>
      </trkpt>
      <trkpt lat="46.62095" lon="5.5391">
        <ele>504</ele>
        <time>2018-05-24T11:34:07Z</time>
      </trkpt>
      <trkpt lat="46.62105" lon="5.53909">
        <ele>504</ele>
        <time>2018-05-24T11:34:14Z</time>
      </trkpt>
      <trkpt lat="46.62139" lon="5.539">
        <ele>501</ele>
        <time>2018-05-24T11:34:46Z</time>
      </trkpt>
      <trkpt lat="46.62148" lon="5.539">
        <ele>501</ele>
        <time>2018-05-24T11:34:53Z</time>
      </trkpt>
      <trkpt lat="46.62159" lon="5.53898">
        <ele>499</ele>
        <time>2018-05-24T11:35:02Z</time>
      </trkpt>
      <trkpt lat="46.62168" lon="5.53898">
        <ele>498</ele>
        <time>2018-05-24T11:35:10Z</time>
      </trkpt>
      <trkpt lat="46.62182" lon="5.53891">
        <ele>496</ele>
        <time>2018-05-24T11:35:26Z</time>
      </trkpt>
      <trkpt lat="46.62192" lon="5.53888">
        <ele>496</ele>
        <time>2018-05-24T11:35:35Z</time>
      </trkpt>
      <trkpt lat="46.6222" lon="5.53887">
        <ele>494</ele>
        <time>2018-05-24T11:35:59Z</time>
      </trkpt>
      <trkpt lat="46.62259" lon="5.53873">
        <ele>490</ele>
        <time>2018-05-24T11:36:32Z</time>
      </trkpt>
      <trkpt lat="46.62267" lon="5.53874">
        <ele>489</ele>
        <time>2018-05-24T11:36:37Z</time>
      </trkpt>
      <trkpt lat="46.62279" lon="5.53869">
        <ele>487</ele>
        <time>2018-05-24T11:36:51Z</time>
      </trkpt>
      <trkpt lat="46.62289" lon="5.53868">
        <ele>485</ele>
        <time>2018-05-24T11:37:00Z</time>
      </trkpt>
      <trkpt lat="46.62298" lon="5.53867">
        <ele>484</ele>
        <time>2018-05-24T11:37:07Z</time>
      </trkpt>
      <trkpt lat="46.62336" lon="5.53859">
        <ele>478</ele>
        <time>2018-05-24T11:37:41Z</time>
      </trkpt>
      <trkpt lat="46.62349" lon="5.53855">
        <ele>476</ele>
        <time>2018-05-24T11:37:56Z</time>
      </trkpt>
      <trkpt lat="46.6236" lon="5.53855">
        <ele>476</ele>
        <time>2018-05-24T11:38:04Z</time>
      </trkpt>
      <trkpt lat="46.62369" lon="5.53852">
        <ele>474</ele>
        <time>2018-05-24T11:38:11Z</time>
      </trkpt>
      <trkpt lat="46.62404" lon="5.53846">
        <ele>472</ele>
        <time>2018-05-24T11:38:43Z</time>
      </trkpt>
      <trkpt lat="46.62423" lon="5.53847">
        <ele>470</ele>
        <time>2018-05-24T11:38:59Z</time>
      </trkpt>
      <trkpt lat="46.62433" lon="5.53851">
        <ele>469</ele>
        <time>2018-05-24T11:39:05Z</time>
      </trkpt>
      <trkpt lat="46.62441" lon="5.53845">
        <ele>467</ele>
        <time>2018-05-24T11:39:14Z</time>
      </trkpt>
      <trkpt lat="46.6245" lon="5.53842">
        <ele>467</ele>
        <time>2018-05-24T11:39:20Z</time>
      </trkpt>
      <trkpt lat="46.62472" lon="5.53815">
        <ele>462</ele>
        <time>2018-05-24T11:39:43Z</time>
      </trkpt>
      <trkpt lat="46.62477" lon="5.53803">
        <ele>459</ele>
        <time>2018-05-24T11:39:52Z</time>
      </trkpt>
      <trkpt lat="46.62478" lon="5.53776">
        <ele>455</ele>
        <time>2018-05-24T11:40:07Z</time>
      </trkpt>
      <trkpt lat="46.62476" lon="5.53761">
        <ele>454</ele>
        <time>2018-05-24T11:40:15Z</time>
      </trkpt>
      <trkpt lat="46.62477" lon="5.53747">
        <ele>454</ele>
        <time>2018-05-24T11:40:23Z</time>
      </trkpt>
      <trkpt lat="46.62479" lon="5.53733">
        <ele>453</ele>
        <time>2018-05-24T11:40:32Z</time>
      </trkpt>
      <trkpt lat="46.6248" lon="5.53727">
        <ele>453</ele>
        <time>2018-05-24T11:40:36Z</time>
      </trkpt>
      <trkpt lat="46.62481" lon="5.53713">
        <ele>452</ele>
        <time>2018-05-24T11:40:42Z</time>
      </trkpt>
      <trkpt lat="46.6248" lon="5.53706">
        <ele>452</ele>
        <time>2018-05-24T11:40:45Z</time>
      </trkpt>
      <trkpt lat="46.62484" lon="5.53699">
        <ele>450</ele>
        <time>2018-05-24T11:40:53Z</time>
      </trkpt>
      <trkpt lat="46.62487" lon="5.53693">
        <ele>450</ele>
        <time>2018-05-24T11:40:57Z</time>
      </trkpt>
      <trkpt lat="46.62488" lon="5.53686">
        <ele>451</ele>
        <time>2018-05-24T11:41:01Z</time>
      </trkpt>
      <trkpt lat="46.62489" lon="5.53678">
        <ele>450</ele>
        <time>2018-05-24T11:41:06Z</time>
      </trkpt>
      <trkpt lat="46.6249" lon="5.53672">
        <ele>451</ele>
        <time>2018-05-24T11:41:10Z</time>
      </trkpt>
      <trkpt lat="46.62507" lon="5.53619">
        <ele>450</ele>
        <time>2018-05-24T11:41:41Z</time>
      </trkpt>
      <trkpt lat="46.62508" lon="5.53612">
        <ele>450</ele>
        <time>2018-05-24T11:41:45Z</time>
      </trkpt>
      <trkpt lat="46.62517" lon="5.53585">
        <ele>448</ele>
        <time>2018-05-24T11:42:03Z</time>
      </trkpt>
      <trkpt lat="46.62519" lon="5.53578">
        <ele>449</ele>
        <time>2018-05-24T11:42:08Z</time>
      </trkpt>
      <trkpt lat="46.62521" lon="5.53571">
        <ele>449</ele>
        <time>2018-05-24T11:42:13Z</time>
      </trkpt>
      <trkpt lat="46.62523" lon="5.53564">
        <ele>448</ele>
        <time>2018-05-24T11:42:17Z</time>
      </trkpt>
      <trkpt lat="46.62525" lon="5.53558">
        <ele>448</ele>
        <time>2018-05-24T11:42:21Z</time>
      </trkpt>
      <trkpt lat="46.62527" lon="5.53544">
        <ele>448</ele>
        <time>2018-05-24T11:42:29Z</time>
      </trkpt>
      <trkpt lat="46.62531" lon="5.5353">
        <ele>449</ele>
        <time>2018-05-24T11:42:37Z</time>
      </trkpt>
      <trkpt lat="46.62533" lon="5.53524">
        <ele>448</ele>
        <time>2018-05-24T11:42:41Z</time>
      </trkpt>
      <trkpt lat="46.62535" lon="5.53509">
        <ele>449</ele>
        <time>2018-05-24T11:42:54Z</time>
      </trkpt>
      <trkpt lat="46.62537" lon="5.53503">
        <ele>449</ele>
        <time>2018-05-24T11:42:58Z</time>
      </trkpt>
      <trkpt lat="46.62539" lon="5.53495">
        <ele>450</ele>
        <time>2018-05-24T11:43:03Z</time>
      </trkpt>
      <trkpt lat="46.62542" lon="5.53468">
        <ele>449</ele>
        <time>2018-05-24T11:43:19Z</time>
      </trkpt>
      <trkpt lat="46.62543" lon="5.53462">
        <ele>450</ele>
        <time>2018-05-24T11:43:23Z</time>
      </trkpt>
      <trkpt lat="46.62542" lon="5.53451">
        <ele>450</ele>
        <time>2018-05-24T11:43:31Z</time>
      </trkpt>
      <trkpt lat="46.62539" lon="5.53444">
        <ele>450</ele>
        <time>2018-05-24T11:43:40Z</time>
      </trkpt>
      <trkpt lat="46.62533" lon="5.53427">
        <ele>450</ele>
        <time>2018-05-24T11:44:02Z</time>
      </trkpt>
      <trkpt lat="46.62527" lon="5.5341">
        <ele>450</ele>
        <time>2018-05-24T11:44:16Z</time>
      </trkpt>
      <trkpt lat="46.62521" lon="5.53384">
        <ele>450</ele>
        <time>2018-05-24T11:44:33Z</time>
      </trkpt>
      <trkpt lat="46.62524" lon="5.53369">
        <ele>449</ele>
        <time>2018-05-24T11:44:42Z</time>
      </trkpt>
      <trkpt lat="46.62542" lon="5.53321">
        <ele>447</ele>
        <time>2018-05-24T11:45:14Z</time>
      </trkpt>
      <trkpt lat="46.62545" lon="5.53267">
        <ele>441</ele>
        <time>2018-05-24T11:45:47Z</time>
      </trkpt>
      <trkpt lat="46.62547" lon="5.53254">
        <ele>441</ele>
        <time>2018-05-24T11:45:55Z</time>
      </trkpt>
      <trkpt lat="46.62549" lon="5.53232">
        <ele>439</ele>
        <time>2018-05-24T11:46:07Z</time>
      </trkpt>
      <trkpt lat="46.6255" lon="5.53225">
        <ele>439</ele>
        <time>2018-05-24T11:46:11Z</time>
      </trkpt>
      <trkpt lat="46.62555" lon="5.53214">
        <ele>438</ele>
        <time>2018-05-24T11:46:19Z</time>
      </trkpt>
      <trkpt lat="46.62559" lon="5.53208">
        <ele>437</ele>
        <time>2018-05-24T11:46:23Z</time>
      </trkpt>
      <trkpt lat="46.62566" lon="5.53196">
        <ele>437</ele>
        <time>2018-05-24T11:46:33Z</time>
      </trkpt>
      <trkpt lat="46.6257" lon="5.53191">
        <ele>437</ele>
        <time>2018-05-24T11:46:38Z</time>
      </trkpt>
      <trkpt lat="46.62573" lon="5.53185">
        <ele>437</ele>
        <time>2018-05-24T11:46:42Z</time>
      </trkpt>
      <trkpt lat="46.62576" lon="5.53181">
        <ele>437</ele>
        <time>2018-05-24T11:46:46Z</time>
      </trkpt>
      <trkpt lat="46.62583" lon="5.5317">
        <ele>437</ele>
        <time>2018-05-24T11:46:54Z</time>
      </trkpt>
      <trkpt lat="46.62592" lon="5.53161">
        <ele>436</ele>
        <time>2018-05-24T11:47:02Z</time>
      </trkpt>
      <trkpt lat="46.62598" lon="5.53149">
        <ele>436</ele>
        <time>2018-05-24T11:47:10Z</time>
      </trkpt>
      <trkpt lat="46.62602" lon="5.53144">
        <ele>437</ele>
        <time>2018-05-24T11:47:14Z</time>
      </trkpt>
      <trkpt lat="46.62605" lon="5.53138">
        <ele>436</ele>
        <time>2018-05-24T11:47:19Z</time>
      </trkpt>
      <trkpt lat="46.62615" lon="5.53123">
        <ele>437</ele>
        <time>2018-05-24T11:47:31Z</time>
      </trkpt>
      <trkpt lat="46.62629" lon="5.53076">
        <ele>439</ele>
        <time>2018-05-24T11:48:02Z</time>
      </trkpt>
      <trkpt lat="46.62639" lon="5.53044">
        <ele>440</ele>
        <time>2018-05-24T11:48:23Z</time>
      </trkpt>
      <trkpt lat="46.6264" lon="5.53033">
        <ele>441</ele>
        <time>2018-05-24T11:48:32Z</time>
      </trkpt>
      <trkpt lat="46.62641" lon="5.53027">
        <ele>441</ele>
        <time>2018-05-24T11:48:36Z</time>
      </trkpt>
      <trkpt lat="46.62643" lon="5.5302">
        <ele>441</ele>
        <time>2018-05-24T11:48:40Z</time>
      </trkpt>
      <trkpt lat="46.62645" lon="5.53014">
        <ele>441</ele>
        <time>2018-05-24T11:48:45Z</time>
      </trkpt>
      <trkpt lat="46.62648" lon="5.52996">
        <ele>442</ele>
        <time>2018-05-24T11:48:57Z</time>
      </trkpt>
      <trkpt lat="46.62656" lon="5.52959">
        <ele>442</ele>
        <time>2018-05-24T11:49:28Z</time>
      </trkpt>
      <trkpt lat="46.62658" lon="5.52952">
        <ele>442</ele>
        <time>2018-05-24T11:49:33Z</time>
      </trkpt>
      <trkpt lat="46.6266" lon="5.52944">
        <ele>443</ele>
        <time>2018-05-24T11:49:40Z</time>
      </trkpt>
      <trkpt lat="46.62663" lon="5.52933">
        <ele>443</ele>
        <time>2018-05-24T11:49:48Z</time>
      </trkpt>
      <trkpt lat="46.62666" lon="5.52919">
        <ele>443</ele>
        <time>2018-05-24T11:49:57Z</time>
      </trkpt>
      <trkpt lat="46.62665" lon="5.52909">
        <ele>443</ele>
        <time>2018-05-24T11:50:05Z</time>
      </trkpt>
      <trkpt lat="46.62666" lon="5.52902">
        <ele>444</ele>
        <time>2018-05-24T11:50:10Z</time>
      </trkpt>
      <trkpt lat="46.62672" lon="5.52893">
        <ele>443</ele>
        <time>2018-05-24T11:50:23Z</time>
      </trkpt>
      <trkpt lat="46.62676" lon="5.52889">
        <ele>443</ele>
        <time>2018-05-24T11:50:27Z</time>
      </trkpt>
      <trkpt lat="46.62692" lon="5.52873">
        <ele>442</ele>
        <time>2018-05-24T11:50:45Z</time>
      </trkpt>
      <trkpt lat="46.62696" lon="5.52871">
        <ele>441</ele>
        <time>2018-05-24T11:50:49Z</time>
      </trkpt>
      <trkpt lat="46.62702" lon="5.5287">
        <ele>441</ele>
        <time>2018-05-24T11:50:54Z</time>
      </trkpt>
      <trkpt lat="46.62706" lon="5.52873">
        <ele>441</ele>
        <time>2018-05-24T11:50:58Z</time>
      </trkpt>
      <trkpt lat="46.62722" lon="5.52883">
        <ele>442</ele>
        <time>2018-05-24T11:51:14Z</time>
      </trkpt>
      <trkpt lat="46.62737" lon="5.52884">
        <ele>442</ele>
        <time>2018-05-24T11:51:27Z</time>
      </trkpt>
      <trkpt lat="46.62742" lon="5.52884">
        <ele>442</ele>
        <time>2018-05-24T11:51:36Z</time>
      </trkpt>
      <trkpt lat="46.62747" lon="5.52893">
        <ele>443</ele>
        <time>2018-05-24T11:51:47Z</time>
      </trkpt>
      <trkpt lat="46.62756" lon="5.52894">
        <ele>442</ele>
        <time>2018-05-24T11:52:18Z</time>
      </trkpt>
      <trkpt lat="46.62761" lon="5.52895">
        <ele>442</ele>
        <time>2018-05-24T11:52:23Z</time>
      </trkpt>
      <trkpt lat="46.62766" lon="5.52896">
        <ele>442</ele>
        <time>2018-05-24T11:52:28Z</time>
      </trkpt>
      <trkpt lat="46.62771" lon="5.52897">
        <ele>442</ele>
        <time>2018-05-24T11:52:33Z</time>
      </trkpt>
      <trkpt lat="46.62776" lon="5.52898">
        <ele>442</ele>
        <time>2018-05-24T11:52:37Z</time>
      </trkpt>
      <trkpt lat="46.6278" lon="5.529">
        <ele>442</ele>
        <time>2018-05-24T11:52:41Z</time>
      </trkpt>
      <trkpt lat="46.62781" lon="5.52892">
        <ele>442</ele>
        <time>2018-05-24T11:53:08Z</time>
      </trkpt>
      <trkpt lat="46.6278" lon="5.52877">
        <ele>440</ele>
        <time>2018-05-24T11:53:21Z</time>
      </trkpt>
      <trkpt lat="46.62778" lon="5.52868">
        <ele>440</ele>
        <time>2018-05-24T11:53:33Z</time>
      </trkpt>
      <trkpt lat="46.62775" lon="5.52862">
        <ele>440</ele>
        <time>2018-05-24T11:53:38Z</time>
      </trkpt>
      <trkpt lat="46.62775" lon="5.52857">
        <ele>440</ele>
        <time>2018-05-24T11:59:15Z</time>
      </trkpt>
      <trkpt lat="46.62768" lon="5.52861">
        <ele>440</ele>
        <time>2018-05-24T11:59:33Z</time>
      </trkpt>
      <trkpt lat="46.62773" lon="5.52867">
        <ele>438</ele>
        <time>2018-05-24T11:59:40Z</time>
      </trkpt>
      <trkpt lat="46.62777" lon="5.52871">
        <ele>438</ele>
        <time>2018-05-24T11:59:45Z</time>
      </trkpt>
      <trkpt lat="46.6278" lon="5.52878">
        <ele>437</ele>
        <time>2018-05-24T11:59:53Z</time>
      </trkpt>
      <trkpt lat="46.62784" lon="5.52881">
        <ele>439</ele>
        <time>2018-05-24T12:00:11Z</time>
      </trkpt>
      <trkpt lat="46.62787" lon="5.52872">
        <ele>438</ele>
        <time>2018-05-24T12:00:23Z</time>
      </trkpt>
      <trkpt lat="46.62793" lon="5.52864">
        <ele>438</ele>
        <time>2018-05-24T12:00:35Z</time>
      </trkpt>
      <trkpt lat="46.62802" lon="5.52869">
        <ele>438</ele>
        <time>2018-05-24T12:01:00Z</time>
      </trkpt>
      <trkpt lat="46.6281" lon="5.5287">
        <ele>439</ele>
        <time>2018-05-24T12:01:12Z</time>
      </trkpt>
      <trkpt lat="46.62815" lon="5.52872">
        <ele>440</ele>
        <time>2018-05-24T12:01:24Z</time>
      </trkpt>
      <trkpt lat="46.62829" lon="5.5288">
        <ele>440</ele>
        <time>2018-05-24T12:01:40Z</time>
      </trkpt>
      <trkpt lat="46.62827" lon="5.5289">
        <ele>441</ele>
        <time>2018-05-24T12:02:06Z</time>
      </trkpt>
      <trkpt lat="46.62826" lon="5.52897">
        <ele>441</ele>
        <time>2018-05-24T12:02:12Z</time>
      </trkpt>
      <trkpt lat="46.62828" lon="5.52896">
        <ele>442</ele>
        <time>2018-05-24T12:03:05Z</time>
      </trkpt>
      <trkpt lat="46.62833" lon="5.52893">
        <ele>442</ele>
        <time>2018-05-24T12:03:13Z</time>
      </trkpt>
      <trkpt lat="46.62848" lon="5.52895">
        <ele>441</ele>
        <time>2018-05-24T12:03:28Z</time>
      </trkpt>
      <trkpt lat="46.62853" lon="5.52894">
        <ele>441</ele>
        <time>2018-05-24T12:03:31Z</time>
      </trkpt>
      <trkpt lat="46.62865" lon="5.52896">
        <ele>441</ele>
        <time>2018-05-24T12:03:54Z</time>
      </trkpt>
      <trkpt lat="46.62872" lon="5.52897">
        <ele>442</ele>
        <time>2018-05-24T12:04:06Z</time>
      </trkpt>
      <trkpt lat="46.62883" lon="5.52901">
        <ele>441</ele>
        <time>2018-05-24T12:04:19Z</time>
      </trkpt>
      <trkpt lat="46.62888" lon="5.52904">
        <ele>441</ele>
        <time>2018-05-24T12:04:23Z</time>
      </trkpt>
      <trkpt lat="46.62902" lon="5.5291">
        <ele>442</ele>
        <time>2018-05-24T12:04:33Z</time>
      </trkpt>
      <trkpt lat="46.62906" lon="5.52914">
        <ele>443</ele>
        <time>2018-05-24T12:04:37Z</time>
      </trkpt>
      <trkpt lat="46.62913" lon="5.52923">
        <ele>444</ele>
        <time>2018-05-24T12:04:46Z</time>
      </trkpt>
      <trkpt lat="46.62917" lon="5.52928">
        <ele>444</ele>
        <time>2018-05-24T12:04:51Z</time>
      </trkpt>
      <trkpt lat="46.62929" lon="5.52943">
        <ele>445</ele>
        <time>2018-05-24T12:05:04Z</time>
      </trkpt>
      <trkpt lat="46.62945" lon="5.52957">
        <ele>445</ele>
        <time>2018-05-24T12:05:20Z</time>
      </trkpt>
      <trkpt lat="46.62973" lon="5.52968">
        <ele>443</ele>
        <time>2018-05-24T12:05:49Z</time>
      </trkpt>
      <trkpt lat="46.62991" lon="5.52977">
        <ele>445</ele>
        <time>2018-05-24T12:06:07Z</time>
      </trkpt>
      <trkpt lat="46.63" lon="5.52976">
        <ele>445</ele>
        <time>2018-05-24T12:06:17Z</time>
      </trkpt>
      <trkpt lat="46.63019" lon="5.5297">
        <ele>444</ele>
        <time>2018-05-24T12:06:35Z</time>
      </trkpt>
      <trkpt lat="46.63028" lon="5.52968">
        <ele>445</ele>
        <time>2018-05-24T12:06:43Z</time>
      </trkpt>
      <trkpt lat="46.63054" lon="5.52954">
        <ele>445</ele>
        <time>2018-05-24T12:07:10Z</time>
      </trkpt>
      <trkpt lat="46.63071" lon="5.52938">
        <ele>446</ele>
        <time>2018-05-24T12:07:28Z</time>
      </trkpt>
      <trkpt lat="46.63102" lon="5.52906">
        <ele>446</ele>
        <time>2018-05-24T12:08:02Z</time>
      </trkpt>
      <trkpt lat="46.6311" lon="5.52899">
        <ele>445</ele>
        <time>2018-05-24T12:08:08Z</time>
      </trkpt>
      <trkpt lat="46.63117" lon="5.52891">
        <ele>446</ele>
        <time>2018-05-24T12:08:17Z</time>
      </trkpt>
      <trkpt lat="46.63127" lon="5.52881">
        <ele>447</ele>
        <time>2018-05-24T12:08:27Z</time>
      </trkpt>
      <trkpt lat="46.63161" lon="5.52857">
        <ele>445</ele>
        <time>2018-05-24T12:09:01Z</time>
      </trkpt>
      <trkpt lat="46.63171" lon="5.52853">
        <ele>445</ele>
        <time>2018-05-24T12:09:10Z</time>
      </trkpt>
      <trkpt lat="46.63207" lon="5.52846">
        <ele>445</ele>
        <time>2018-05-24T12:09:44Z</time>
      </trkpt>
      <trkpt lat="46.63211" lon="5.52846">
        <ele>446</ele>
        <time>2018-05-24T12:09:48Z</time>
      </trkpt>
      <trkpt lat="46.63217" lon="5.52846">
        <ele>446</ele>
        <time>2018-05-24T12:09:52Z</time>
      </trkpt>
      <trkpt lat="46.63222" lon="5.52846">
        <ele>446</ele>
        <time>2018-05-24T12:09:56Z</time>
      </trkpt>
      <trkpt lat="46.63237" lon="5.52844">
        <ele>446</ele>
        <time>2018-05-24T12:10:09Z</time>
      </trkpt>
      <trkpt lat="46.63247" lon="5.52843">
        <ele>448</ele>
        <time>2018-05-24T12:10:18Z</time>
      </trkpt>
      <trkpt lat="46.63252" lon="5.52843">
        <ele>448</ele>
        <time>2018-05-24T12:10:22Z</time>
      </trkpt>
      <trkpt lat="46.63258" lon="5.52844">
        <ele>448</ele>
        <time>2018-05-24T12:10:28Z</time>
      </trkpt>
      <trkpt lat="46.63263" lon="5.52845">
        <ele>448</ele>
        <time>2018-05-24T12:10:32Z</time>
      </trkpt>
      <trkpt lat="46.63302" lon="5.52843">
        <ele>450</ele>
        <time>2018-05-24T12:11:06Z</time>
      </trkpt>
      <trkpt lat="46.63341" lon="5.52842">
        <ele>452</ele>
        <time>2018-05-24T12:11:42Z</time>
      </trkpt>
      <trkpt lat="46.6335" lon="5.52841">
        <ele>453</ele>
        <time>2018-05-24T12:11:50Z</time>
      </trkpt>
      <trkpt lat="46.63368" lon="5.5283">
        <ele>454</ele>
        <time>2018-05-24T12:12:06Z</time>
      </trkpt>
      <trkpt lat="46.63375" lon="5.52822">
        <ele>454</ele>
        <time>2018-05-24T12:12:14Z</time>
      </trkpt>
      <trkpt lat="46.63381" lon="5.5281">
        <ele>456</ele>
        <time>2018-05-24T12:12:23Z</time>
      </trkpt>
      <trkpt lat="46.63389" lon="5.52794">
        <ele>456</ele>
        <time>2018-05-24T12:12:36Z</time>
      </trkpt>
      <trkpt lat="46.63395" lon="5.52783">
        <ele>457</ele>
        <time>2018-05-24T12:12:44Z</time>
      </trkpt>
      <trkpt lat="46.63401" lon="5.52771">
        <ele>457</ele>
        <time>2018-05-24T12:13:46Z</time>
      </trkpt>
      <trkpt lat="46.63409" lon="5.52763">
        <ele>457</ele>
        <time>2018-05-24T12:13:54Z</time>
      </trkpt>
      <trkpt lat="46.63416" lon="5.52754">
        <ele>459</ele>
        <time>2018-05-24T12:14:01Z</time>
      </trkpt>
      <trkpt lat="46.63437" lon="5.52739">
        <ele>460</ele>
        <time>2018-05-24T12:14:24Z</time>
      </trkpt>
      <trkpt lat="46.63456" lon="5.52739">
        <ele>461</ele>
        <time>2018-05-24T12:14:39Z</time>
      </trkpt>
      <trkpt lat="46.63472" lon="5.52729">
        <ele>462</ele>
        <time>2018-05-24T12:14:58Z</time>
      </trkpt>
      <trkpt lat="46.63479" lon="5.52718">
        <ele>463</ele>
        <time>2018-05-24T12:15:07Z</time>
      </trkpt>
      <trkpt lat="46.63494" lon="5.527">
        <ele>463</ele>
        <time>2018-05-24T12:15:18Z</time>
      </trkpt>
      <trkpt lat="46.63498" lon="5.52687">
        <ele>464</ele>
        <time>2018-05-24T12:15:28Z</time>
      </trkpt>
      <trkpt lat="46.63504" lon="5.52676">
        <ele>464</ele>
        <time>2018-05-24T12:15:36Z</time>
      </trkpt>
      <trkpt lat="46.63505" lon="5.52662">
        <ele>464</ele>
        <time>2018-05-24T12:15:45Z</time>
      </trkpt>
      <trkpt lat="46.6351" lon="5.52651">
        <ele>465</ele>
        <time>2018-05-24T12:15:54Z</time>
      </trkpt>
      <trkpt lat="46.63514" lon="5.52638">
        <ele>465</ele>
        <time>2018-05-24T12:16:03Z</time>
      </trkpt>
      <trkpt lat="46.6352" lon="5.52624">
        <ele>467</ele>
        <time>2018-05-24T12:16:14Z</time>
      </trkpt>
      <trkpt lat="46.63527" lon="5.52613">
        <ele>467</ele>
        <time>2018-05-24T12:16:23Z</time>
      </trkpt>
      <trkpt lat="46.63535" lon="5.52596">
        <ele>469</ele>
        <time>2018-05-24T12:16:37Z</time>
      </trkpt>
      <trkpt lat="46.63541" lon="5.52587">
        <ele>469</ele>
        <time>2018-05-24T12:16:44Z</time>
      </trkpt>
      <trkpt lat="46.63549" lon="5.52579">
        <ele>471</ele>
        <time>2018-05-24T12:16:52Z</time>
      </trkpt>
      <trkpt lat="46.63586" lon="5.52565">
        <ele>476</ele>
        <time>2018-05-24T12:17:24Z</time>
      </trkpt>
      <trkpt lat="46.63596" lon="5.52562">
        <ele>477</ele>
        <time>2018-05-24T12:17:33Z</time>
      </trkpt>
      <trkpt lat="46.63614" lon="5.5255">
        <ele>478</ele>
        <time>2018-05-24T12:17:49Z</time>
      </trkpt>
      <trkpt lat="46.63623" lon="5.52546">
        <ele>478</ele>
        <time>2018-05-24T12:17:56Z</time>
      </trkpt>
      <trkpt lat="46.63641" lon="5.52546">
        <ele>478</ele>
        <time>2018-05-24T12:18:12Z</time>
      </trkpt>
      <trkpt lat="46.63651" lon="5.52549">
        <ele>479</ele>
        <time>2018-05-24T12:18:24Z</time>
      </trkpt>
      <trkpt lat="46.63661" lon="5.52556">
        <ele>482</ele>
        <time>2018-05-24T12:18:46Z</time>
      </trkpt>
      <trkpt lat="46.63676" lon="5.52555">
        <ele>481</ele>
        <time>2018-05-24T12:19:01Z</time>
      </trkpt>
      <trkpt lat="46.63681" lon="5.52554">
        <ele>481</ele>
        <time>2018-05-24T12:19:06Z</time>
      </trkpt>
      <trkpt lat="46.63686" lon="5.52553">
        <ele>481</ele>
        <time>2018-05-24T12:19:10Z</time>
      </trkpt>
      <trkpt lat="46.63691" lon="5.52553">
        <ele>481</ele>
        <time>2018-05-24T12:19:15Z</time>
      </trkpt>
      <trkpt lat="46.63704" lon="5.52553">
        <ele>481</ele>
        <time>2018-05-24T12:19:28Z</time>
      </trkpt>
      <trkpt lat="46.63709" lon="5.52554">
        <ele>481</ele>
        <time>2018-05-24T12:19:33Z</time>
      </trkpt>
      <trkpt lat="46.63718" lon="5.52557">
        <ele>481</ele>
        <time>2018-05-24T12:19:42Z</time>
      </trkpt>
      <trkpt lat="46.63744" lon="5.52561">
        <ele>480</ele>
        <time>2018-05-24T12:20:06Z</time>
      </trkpt>
      <trkpt lat="46.63749" lon="5.5256">
        <ele>479</ele>
        <time>2018-05-24T12:20:11Z</time>
      </trkpt>
      <trkpt lat="46.63755" lon="5.52562">
        <ele>479</ele>
        <time>2018-05-24T12:20:16Z</time>
      </trkpt>
      <trkpt lat="46.63765" lon="5.52566">
        <ele>479</ele>
        <time>2018-05-24T12:20:26Z</time>
      </trkpt>
      <trkpt lat="46.63798" lon="5.52578">
        <ele>476</ele>
        <time>2018-05-24T12:20:59Z</time>
      </trkpt>
      <trkpt lat="46.63818" lon="5.52583">
        <ele>475</ele>
        <time>2018-05-24T12:21:20Z</time>
      </trkpt>
      <trkpt lat="46.63828" lon="5.52581">
        <ele>473</ele>
        <time>2018-05-24T12:21:33Z</time>
      </trkpt>
      <trkpt lat="46.63855" lon="5.52574">
        <ele>471</ele>
        <time>2018-05-24T12:21:50Z</time>
      </trkpt>
      <trkpt lat="46.63864" lon="5.52575">
        <ele>471</ele>
        <time>2018-05-24T12:21:56Z</time>
      </trkpt>
      <trkpt lat="46.63875" lon="5.52574">
        <ele>469</ele>
        <time>2018-05-24T12:22:08Z</time>
      </trkpt>
      <trkpt lat="46.63883" lon="5.52566">
        <ele>468</ele>
        <time>2018-05-24T12:22:16Z</time>
      </trkpt>
      <trkpt lat="46.63889" lon="5.52555">
        <ele>466</ele>
        <time>2018-05-24T12:22:23Z</time>
      </trkpt>
      <trkpt lat="46.63895" lon="5.52546">
        <ele>466</ele>
        <time>2018-05-24T12:22:31Z</time>
      </trkpt>
      <trkpt lat="46.63905" lon="5.5255">
        <ele>464</ele>
        <time>2018-05-24T12:22:46Z</time>
      </trkpt>
      <trkpt lat="46.63906" lon="5.52565">
        <ele>463</ele>
        <time>2018-05-24T12:22:54Z</time>
      </trkpt>
      <trkpt lat="46.63918" lon="5.52586">
        <ele>463</ele>
        <time>2018-05-24T12:23:10Z</time>
      </trkpt>
      <trkpt lat="46.63924" lon="5.52597">
        <ele>461</ele>
        <time>2018-05-24T12:23:18Z</time>
      </trkpt>
      <trkpt lat="46.63929" lon="5.52613">
        <ele>460</ele>
        <time>2018-05-24T12:23:35Z</time>
      </trkpt>
      <trkpt lat="46.63956" lon="5.52632">
        <ele>458</ele>
        <time>2018-05-24T12:23:51Z</time>
      </trkpt>
      <trkpt lat="46.63974" lon="5.52639">
        <ele>455</ele>
        <time>2018-05-24T12:24:03Z</time>
      </trkpt>
      <trkpt lat="46.6398" lon="5.52653">
        <ele>454</ele>
        <time>2018-05-24T12:24:24Z</time>
      </trkpt>
      <trkpt lat="46.63985" lon="5.52664">
        <ele>452</ele>
        <time>2018-05-24T12:24:42Z</time>
      </trkpt>
      <trkpt lat="46.63988" lon="5.52678">
        <ele>452</ele>
        <time>2018-05-24T12:24:59Z</time>
      </trkpt>
      <trkpt lat="46.63997" lon="5.52683">
        <ele>450</ele>
        <time>2018-05-24T12:25:23Z</time>
      </trkpt>
      <trkpt lat="46.63998" lon="5.52688">
        <ele>465</ele>
        <time>2018-05-24T12:28:41Z</time>
      </trkpt>
      <trkpt lat="46.63987" lon="5.52695">
        <ele>461</ele>
        <time>2018-05-24T12:29:42Z</time>
      </trkpt>
      <trkpt lat="46.63982" lon="5.52681">
        <ele>462</ele>
        <time>2018-05-24T12:30:26Z</time>
      </trkpt>
      <trkpt lat="46.63988" lon="5.52678">
        <ele>462</ele>
        <time>2018-05-24T12:30:38Z</time>
      </trkpt>
      <trkpt lat="46.63994" lon="5.52676">
        <ele>462</ele>
        <time>2018-05-24T12:35:43Z</time>
      </trkpt>
      <trkpt lat="46.63966" lon="5.52639">
        <ele>456</ele>
        <time>2018-05-24T12:39:17Z</time>
      </trkpt>
      <trkpt lat="46.63958" lon="5.5263">
        <ele>457</ele>
        <time>2018-05-24T12:39:27Z</time>
      </trkpt>
      <trkpt lat="46.63922" lon="5.52598">
        <ele>460</ele>
        <time>2018-05-24T12:39:59Z</time>
      </trkpt>
      <trkpt lat="46.63915" lon="5.52588">
        <ele>461</ele>
        <time>2018-05-24T12:40:06Z</time>
      </trkpt>
      <trkpt lat="46.63909" lon="5.52579">
        <ele>461</ele>
        <time>2018-05-24T12:40:13Z</time>
      </trkpt>
      <trkpt lat="46.63895" lon="5.5253">
        <ele>462</ele>
        <time>2018-05-24T12:40:48Z</time>
      </trkpt>
      <trkpt lat="46.63892" lon="5.52517">
        <ele>462</ele>
        <time>2018-05-24T12:40:57Z</time>
      </trkpt>
      <trkpt lat="46.63899" lon="5.52492">
        <ele>462</ele>
        <time>2018-05-24T12:41:16Z</time>
      </trkpt>
      <trkpt lat="46.63905" lon="5.5247">
        <ele>457</ele>
        <time>2018-05-24T12:42:40Z</time>
      </trkpt>
      <trkpt lat="46.63913" lon="5.52455">
        <ele>456</ele>
        <time>2018-05-24T12:42:55Z</time>
      </trkpt>
      <trkpt lat="46.6392" lon="5.52442">
        <ele>456</ele>
        <time>2018-05-24T12:43:09Z</time>
      </trkpt>
      <trkpt lat="46.63927" lon="5.52417">
        <ele>454</ele>
        <time>2018-05-24T12:43:28Z</time>
      </trkpt>
      <trkpt lat="46.63922" lon="5.52399">
        <ele>453</ele>
        <time>2018-05-24T12:43:46Z</time>
      </trkpt>
      <trkpt lat="46.63913" lon="5.52374">
        <ele>450</ele>
        <time>2018-05-24T12:44:06Z</time>
      </trkpt>
      <trkpt lat="46.63907" lon="5.52363">
        <ele>450</ele>
        <time>2018-05-24T12:44:16Z</time>
      </trkpt>
      <trkpt lat="46.63884" lon="5.5232">
        <ele>446</ele>
        <time>2018-05-24T12:44:53Z</time>
      </trkpt>
      <trkpt lat="46.63866" lon="5.52285">
        <ele>443</ele>
        <time>2018-05-24T12:45:24Z</time>
      </trkpt>
      <trkpt lat="46.63853" lon="5.52261">
        <ele>442</ele>
        <time>2018-05-24T12:45:45Z</time>
      </trkpt>
      <trkpt lat="46.6383" lon="5.52248">
        <ele>438</ele>
        <time>2018-05-24T12:46:13Z</time>
      </trkpt>
      <trkpt lat="46.63823" lon="5.52239">
        <ele>438</ele>
        <time>2018-05-24T12:46:23Z</time>
      </trkpt>
      <trkpt lat="46.63817" lon="5.52229">
        <ele>436</ele>
        <time>2018-05-24T12:46:32Z</time>
      </trkpt>
      <trkpt lat="46.63811" lon="5.52215">
        <ele>435</ele>
        <time>2018-05-24T12:46:43Z</time>
      </trkpt>
      <trkpt lat="46.63807" lon="5.52178">
        <ele>430</ele>
        <time>2018-05-24T12:47:17Z</time>
      </trkpt>
      <trkpt lat="46.63812" lon="5.52163">
        <ele>428</ele>
        <time>2018-05-24T12:47:35Z</time>
      </trkpt>
      <trkpt lat="46.63817" lon="5.5216">
        <ele>427</ele>
        <time>2018-05-24T12:47:39Z</time>
      </trkpt>
      <trkpt lat="46.63827" lon="5.52158">
        <ele>427</ele>
        <time>2018-05-24T12:47:46Z</time>
      </trkpt>
      <trkpt lat="46.63837" lon="5.52156">
        <ele>424</ele>
        <time>2018-05-24T12:47:58Z</time>
      </trkpt>
      <trkpt lat="46.63847" lon="5.52153">
        <ele>423</ele>
        <time>2018-05-24T12:48:09Z</time>
      </trkpt>
      <trkpt lat="46.63853" lon="5.52155">
        <ele>422</ele>
        <time>2018-05-24T12:48:14Z</time>
      </trkpt>
      <trkpt lat="46.63857" lon="5.52157">
        <ele>422</ele>
        <time>2018-05-24T12:48:18Z</time>
      </trkpt>
      <trkpt lat="46.63868" lon="5.52159">
        <ele>420</ele>
        <time>2018-05-24T12:48:28Z</time>
      </trkpt>
      <trkpt lat="46.63872" lon="5.52159">
        <ele>420</ele>
        <time>2018-05-24T12:48:33Z</time>
      </trkpt>
      <trkpt lat="46.63907" lon="5.52162">
        <ele>415</ele>
        <time>2018-05-24T12:49:10Z</time>
      </trkpt>
      <trkpt lat="46.63939" lon="5.52172">
        <ele>410</ele>
        <time>2018-05-24T12:49:51Z</time>
      </trkpt>
      <trkpt lat="46.63949" lon="5.52174">
        <ele>409</ele>
        <time>2018-05-24T12:50:00Z</time>
      </trkpt>
      <trkpt lat="46.63958" lon="5.52178">
        <ele>409</ele>
        <time>2018-05-24T12:50:08Z</time>
      </trkpt>
      <trkpt lat="46.6399" lon="5.52192">
        <ele>404</ele>
        <time>2018-05-24T12:50:47Z</time>
      </trkpt>
      <trkpt lat="46.64009" lon="5.522">
        <ele>401</ele>
        <time>2018-05-24T12:51:06Z</time>
      </trkpt>
      <trkpt lat="46.64017" lon="5.52204">
        <ele>401</ele>
        <time>2018-05-24T12:51:12Z</time>
      </trkpt>
      <trkpt lat="46.64026" lon="5.5221">
        <ele>400</ele>
        <time>2018-05-24T12:51:22Z</time>
      </trkpt>
      <trkpt lat="46.64051" lon="5.5223">
        <ele>400</ele>
        <time>2018-05-24T12:51:58Z</time>
      </trkpt>
      <trkpt lat="46.64069" lon="5.52243">
        <ele>397</ele>
        <time>2018-05-24T12:52:10Z</time>
      </trkpt>
      <trkpt lat="46.64099" lon="5.52253">
        <ele>392</ele>
        <time>2018-05-24T12:52:45Z</time>
      </trkpt>
      <trkpt lat="46.64118" lon="5.52262">
        <ele>391</ele>
        <time>2018-05-24T12:53:03Z</time>
      </trkpt>
      <trkpt lat="46.64163" lon="5.52277">
        <ele>385</ele>
        <time>2018-05-24T12:53:51Z</time>
      </trkpt>
      <trkpt lat="46.64196" lon="5.52295">
        <ele>381</ele>
        <time>2018-05-24T12:54:25Z</time>
      </trkpt>
      <trkpt lat="46.64208" lon="5.52302">
        <ele>380</ele>
        <time>2018-05-24T12:54:36Z</time>
      </trkpt>
      <trkpt lat="46.64222" lon="5.52306">
        <ele>378</ele>
        <time>2018-05-24T12:54:46Z</time>
      </trkpt>
      <trkpt lat="46.64231" lon="5.52304">
        <ele>378</ele>
        <time>2018-05-24T12:55:02Z</time>
      </trkpt>
      <trkpt lat="46.64256" lon="5.52305">
        <ele>376</ele>
        <time>2018-05-24T12:55:26Z</time>
      </trkpt>
      <trkpt lat="46.64291" lon="5.5229">
        <ele>372</ele>
        <time>2018-05-24T12:56:03Z</time>
      </trkpt>
      <trkpt lat="46.64299" lon="5.52286">
        <ele>372</ele>
        <time>2018-05-24T12:56:12Z</time>
      </trkpt>
      <trkpt lat="46.64308" lon="5.52282">
        <ele>372</ele>
        <time>2018-05-24T12:56:22Z</time>
      </trkpt>
      <trkpt lat="46.64317" lon="5.52278">
        <ele>371</ele>
        <time>2018-05-24T12:56:32Z</time>
      </trkpt>
      <trkpt lat="46.64327" lon="5.52279">
        <ele>369</ele>
        <time>2018-05-24T12:56:39Z</time>
      </trkpt>
      <trkpt lat="46.64355" lon="5.52271">
        <ele>367</ele>
        <time>2018-05-24T12:57:03Z</time>
      </trkpt>
      <trkpt lat="46.64359" lon="5.52271">
        <ele>366</ele>
        <time>2018-05-24T12:57:07Z</time>
      </trkpt>
      <trkpt lat="46.64369" lon="5.5227">
        <ele>366</ele>
        <time>2018-05-24T12:57:15Z</time>
      </trkpt>
      <trkpt lat="46.64374" lon="5.52271">
        <ele>365</ele>
        <time>2018-05-24T12:57:19Z</time>
      </trkpt>
      <trkpt lat="46.64379" lon="5.52269">
        <ele>365</ele>
        <time>2018-05-24T12:57:24Z</time>
      </trkpt>
      <trkpt lat="46.64386" lon="5.52267">
        <ele>364</ele>
        <time>2018-05-24T12:57:31Z</time>
      </trkpt>
      <trkpt lat="46.64401" lon="5.52267">
        <ele>364</ele>
        <time>2018-05-24T12:57:44Z</time>
      </trkpt>
      <trkpt lat="46.64411" lon="5.52268">
        <ele>364</ele>
        <time>2018-05-24T12:57:52Z</time>
      </trkpt>
      <trkpt lat="46.64426" lon="5.52263">
        <ele>363</ele>
        <time>2018-05-24T12:58:05Z</time>
      </trkpt>
      <trkpt lat="46.6443" lon="5.52261">
        <ele>364</ele>
        <time>2018-05-24T12:58:10Z</time>
      </trkpt>
      <trkpt lat="46.64446" lon="5.52257">
        <ele>363</ele>
        <time>2018-05-24T12:58:23Z</time>
      </trkpt>
      <trkpt lat="46.6445" lon="5.52255">
        <ele>362</ele>
        <time>2018-05-24T12:58:28Z</time>
      </trkpt>
      <trkpt lat="46.64456" lon="5.52255">
        <ele>362</ele>
        <time>2018-05-24T12:58:33Z</time>
      </trkpt>
      <trkpt lat="46.6446" lon="5.52255">
        <ele>362</ele>
        <time>2018-05-24T12:58:37Z</time>
      </trkpt>
      <trkpt lat="46.64465" lon="5.52253">
        <ele>361</ele>
        <time>2018-05-24T12:58:42Z</time>
      </trkpt>
      <trkpt lat="46.64475" lon="5.52252">
        <ele>361</ele>
        <time>2018-05-24T12:58:50Z</time>
      </trkpt>
      <trkpt lat="46.64516" lon="5.52231">
        <ele>363</ele>
        <time>2018-05-24T12:59:35Z</time>
      </trkpt>
      <trkpt lat="46.64526" lon="5.52227">
        <ele>363</ele>
        <time>2018-05-24T12:59:43Z</time>
      </trkpt>
      <trkpt lat="46.64535" lon="5.5222">
        <ele>363</ele>
        <time>2018-05-24T12:59:52Z</time>
      </trkpt>
      <trkpt lat="46.64544" lon="5.52218">
        <ele>362</ele>
        <time>2018-05-24T12:59:59Z</time>
      </trkpt>
      <trkpt lat="46.64553" lon="5.5222">
        <ele>362</ele>
        <time>2018-05-24T13:00:06Z</time>
      </trkpt>
      <trkpt lat="46.64568" lon="5.52216">
        <ele>363</ele>
        <time>2018-05-24T13:00:22Z</time>
      </trkpt>
      <trkpt lat="46.64578" lon="5.52218">
        <ele>363</ele>
        <time>2018-05-24T13:00:29Z</time>
      </trkpt>
      <trkpt lat="46.64596" lon="5.5221">
        <ele>362</ele>
        <time>2018-05-24T13:00:47Z</time>
      </trkpt>
      <trkpt lat="46.64613" lon="5.522">
        <ele>363</ele>
        <time>2018-05-24T13:02:22Z</time>
      </trkpt>
      <trkpt lat="46.64631" lon="5.52192">
        <ele>365</ele>
        <time>2018-05-24T13:02:41Z</time>
      </trkpt>
      <trkpt lat="46.64649" lon="5.52185">
        <ele>364</ele>
        <time>2018-05-24T13:02:57Z</time>
      </trkpt>
      <trkpt lat="46.64659" lon="5.52183">
        <ele>363</ele>
        <time>2018-05-24T13:03:06Z</time>
      </trkpt>
      <trkpt lat="46.6467" lon="5.52186">
        <ele>362</ele>
        <time>2018-05-24T13:03:18Z</time>
      </trkpt>
      <trkpt lat="46.64675" lon="5.52189">
        <ele>362</ele>
        <time>2018-05-24T13:03:32Z</time>
      </trkpt>
      <trkpt lat="46.64685" lon="5.52188">
        <ele>361</ele>
        <time>2018-05-24T13:03:42Z</time>
      </trkpt>
      <trkpt lat="46.6469" lon="5.52188">
        <ele>361</ele>
        <time>2018-05-24T13:03:46Z</time>
      </trkpt>
      <trkpt lat="46.647" lon="5.52188">
        <ele>360</ele>
        <time>2018-05-24T13:03:55Z</time>
      </trkpt>
      <trkpt lat="46.6471" lon="5.52186">
        <ele>361</ele>
        <time>2018-05-24T13:04:04Z</time>
      </trkpt>
      <trkpt lat="46.64714" lon="5.52186">
        <ele>361</ele>
        <time>2018-05-24T13:04:08Z</time>
      </trkpt>
      <trkpt lat="46.64724" lon="5.52186">
        <ele>361</ele>
        <time>2018-05-24T13:04:16Z</time>
      </trkpt>
      <trkpt lat="46.64729" lon="5.52183">
        <ele>360</ele>
        <time>2018-05-24T13:04:21Z</time>
      </trkpt>
      <trkpt lat="46.64734" lon="5.52182">
        <ele>360</ele>
        <time>2018-05-24T13:04:25Z</time>
      </trkpt>
      <trkpt lat="46.64739" lon="5.52182">
        <ele>360</ele>
        <time>2018-05-24T13:04:29Z</time>
      </trkpt>
      <trkpt lat="46.64743" lon="5.52182">
        <ele>360</ele>
        <time>2018-05-24T13:04:33Z</time>
      </trkpt>
      <trkpt lat="46.64767" lon="5.52179">
        <ele>358</ele>
        <time>2018-05-24T13:04:54Z</time>
      </trkpt>
      <trkpt lat="46.64772" lon="5.52178">
        <ele>358</ele>
        <time>2018-05-24T13:04:58Z</time>
      </trkpt>
      <trkpt lat="46.64811" lon="5.52179">
        <ele>358</ele>
        <time>2018-05-24T13:05:31Z</time>
      </trkpt>
      <trkpt lat="46.6482" lon="5.5218">
        <ele>359</ele>
        <time>2018-05-24T13:05:39Z</time>
      </trkpt>
      <trkpt lat="46.64825" lon="5.5218">
        <ele>359</ele>
        <time>2018-05-24T13:05:44Z</time>
      </trkpt>
      <trkpt lat="46.64855" lon="5.52181">
        <ele>358</ele>
        <time>2018-05-24T13:06:08Z</time>
      </trkpt>
      <trkpt lat="46.64865" lon="5.52181">
        <ele>359</ele>
        <time>2018-05-24T13:06:16Z</time>
      </trkpt>
      <trkpt lat="46.64875" lon="5.52181">
        <ele>358</ele>
        <time>2018-05-24T13:06:25Z</time>
      </trkpt>
      <trkpt lat="46.64884" lon="5.52183">
        <ele>358</ele>
        <time>2018-05-24T13:06:33Z</time>
      </trkpt>
      <trkpt lat="46.64889" lon="5.52184">
        <ele>358</ele>
        <time>2018-05-24T13:06:37Z</time>
      </trkpt>
      <trkpt lat="46.64894" lon="5.52185">
        <ele>357</ele>
        <time>2018-05-24T13:06:42Z</time>
      </trkpt>
      <trkpt lat="46.64899" lon="5.52184">
        <ele>357</ele>
        <time>2018-05-24T13:06:46Z</time>
      </trkpt>
      <trkpt lat="46.64909" lon="5.52183">
        <ele>357</ele>
        <time>2018-05-24T13:06:55Z</time>
      </trkpt>
      <trkpt lat="46.64914" lon="5.52183">
        <ele>357</ele>
        <time>2018-05-24T13:06:58Z</time>
      </trkpt>
      <trkpt lat="46.64924" lon="5.52184">
        <ele>357</ele>
        <time>2018-05-24T13:07:06Z</time>
      </trkpt>
      <trkpt lat="46.64929" lon="5.52184">
        <ele>357</ele>
        <time>2018-05-24T13:07:10Z</time>
      </trkpt>
      <trkpt lat="46.64941" lon="5.52184">
        <ele>357</ele>
        <time>2018-05-24T13:07:21Z</time>
      </trkpt>
      <trkpt lat="46.64946" lon="5.52183">
        <ele>358</ele>
        <time>2018-05-24T13:07:32Z</time>
      </trkpt>
      <trkpt lat="46.64952" lon="5.52181">
        <ele>358</ele>
        <time>2018-05-24T13:08:27Z</time>
      </trkpt>
      <trkpt lat="46.64957" lon="5.52181">
        <ele>357</ele>
        <time>2018-05-24T13:08:31Z</time>
      </trkpt>
      <trkpt lat="46.64963" lon="5.52178">
        <ele>359</ele>
        <time>2018-05-24T13:08:35Z</time>
      </trkpt>
      <trkpt lat="46.64972" lon="5.5217">
        <ele>360</ele>
        <time>2018-05-24T13:08:44Z</time>
      </trkpt>
      <trkpt lat="46.6498" lon="5.52162">
        <ele>360</ele>
        <time>2018-05-24T13:08:53Z</time>
      </trkpt>
      <trkpt lat="46.64984" lon="5.52157">
        <ele>360</ele>
        <time>2018-05-24T13:08:58Z</time>
      </trkpt>
      <trkpt lat="46.64988" lon="5.5215">
        <ele>360</ele>
        <time>2018-05-24T13:09:05Z</time>
      </trkpt>
      <trkpt lat="46.64989" lon="5.52143">
        <ele>359</ele>
        <time>2018-05-24T13:09:10Z</time>
      </trkpt>
      <trkpt lat="46.64994" lon="5.52137">
        <ele>359</ele>
        <time>2018-05-24T13:09:17Z</time>
      </trkpt>
      <trkpt lat="46.64997" lon="5.52132">
        <ele>360</ele>
        <time>2018-05-24T13:09:21Z</time>
      </trkpt>
      <trkpt lat="46.65002" lon="5.52129">
        <ele>360</ele>
        <time>2018-05-24T13:09:25Z</time>
      </trkpt>
      <trkpt lat="46.65006" lon="5.52126">
        <ele>360</ele>
        <time>2018-05-24T13:09:29Z</time>
      </trkpt>
      <trkpt lat="46.65012" lon="5.52125">
        <ele>361</ele>
        <time>2018-05-24T13:09:33Z</time>
      </trkpt>
      <trkpt lat="46.65017" lon="5.52123">
        <ele>360</ele>
        <time>2018-05-24T13:09:37Z</time>
      </trkpt>
      <trkpt lat="46.65026" lon="5.52119">
        <ele>361</ele>
        <time>2018-05-24T13:09:45Z</time>
      </trkpt>
      <trkpt lat="46.65037" lon="5.52119">
        <ele>361</ele>
        <time>2018-05-24T13:09:54Z</time>
      </trkpt>
      <trkpt lat="46.65047" lon="5.5212">
        <ele>360</ele>
        <time>2018-05-24T13:10:03Z</time>
      </trkpt>
      <trkpt lat="46.65065" lon="5.52115">
        <ele>360</ele>
        <time>2018-05-24T13:10:20Z</time>
      </trkpt>
      <trkpt lat="46.65095" lon="5.52113">
        <ele>357</ele>
        <time>2018-05-24T13:10:45Z</time>
      </trkpt>
      <trkpt lat="46.65103" lon="5.52114">
        <ele>358</ele>
        <time>2018-05-24T13:10:52Z</time>
      </trkpt>
      <trkpt lat="46.65132" lon="5.52113">
        <ele>354</ele>
        <time>2018-05-24T13:11:16Z</time>
      </trkpt>
      <trkpt lat="46.65141" lon="5.52111">
        <ele>355</ele>
        <time>2018-05-24T13:11:24Z</time>
      </trkpt>
      <trkpt lat="46.6516" lon="5.52107">
        <ele>353</ele>
        <time>2018-05-24T13:11:41Z</time>
      </trkpt>
      <trkpt lat="46.65177" lon="5.52109">
        <ele>353</ele>
        <time>2018-05-24T13:11:57Z</time>
      </trkpt>
      <trkpt lat="46.65181" lon="5.52111">
        <ele>352</ele>
        <time>2018-05-24T13:12:01Z</time>
      </trkpt>
      <trkpt lat="46.65183" lon="5.52119">
        <ele>351</ele>
        <time>2018-05-24T13:12:09Z</time>
      </trkpt>
      <trkpt lat="46.65183" lon="5.52126">
        <ele>351</ele>
        <time>2018-05-24T13:12:14Z</time>
      </trkpt>
      <trkpt lat="46.65179" lon="5.5214">
        <ele>351</ele>
        <time>2018-05-24T13:12:24Z</time>
      </trkpt>
      <trkpt lat="46.65176" lon="5.52146">
        <ele>351</ele>
        <time>2018-05-24T13:12:29Z</time>
      </trkpt>
      <trkpt lat="46.65169" lon="5.52158">
        <ele>352</ele>
        <time>2018-05-24T13:12:37Z</time>
      </trkpt>
      <trkpt lat="46.65167" lon="5.52168">
        <ele>352</ele>
        <time>2018-05-24T13:12:45Z</time>
      </trkpt>
      <trkpt lat="46.65164" lon="5.52174">
        <ele>352</ele>
        <time>2018-05-24T13:12:49Z</time>
      </trkpt>
      <trkpt lat="46.65163" lon="5.5218">
        <ele>352</ele>
        <time>2018-05-24T13:12:53Z</time>
      </trkpt>
      <trkpt lat="46.65157" lon="5.52202">
        <ele>350</ele>
        <time>2018-05-24T13:13:10Z</time>
      </trkpt>
      <trkpt lat="46.6516" lon="5.52216">
        <ele>348</ele>
        <time>2018-05-24T13:13:28Z</time>
      </trkpt>
      <trkpt lat="46.65167" lon="5.5222">
        <ele>345</ele>
        <time>2018-05-24T13:14:53Z</time>
      </trkpt>
      <trkpt lat="46.65167" lon="5.52212">
        <ele>346</ele>
        <time>2018-05-24T13:15:00Z</time>
      </trkpt>
      <trkpt lat="46.65163" lon="5.52203">
        <ele>346</ele>
        <time>2018-05-24T13:15:11Z</time>
      </trkpt>
      <trkpt lat="46.65164" lon="5.52196">
        <ele>347</ele>
        <time>2018-05-24T13:15:15Z</time>
      </trkpt>
      <trkpt lat="46.65166" lon="5.52191">
        <ele>347</ele>
        <time>2018-05-24T13:15:19Z</time>
      </trkpt>
      <trkpt lat="46.65163" lon="5.52183">
        <ele>348</ele>
        <time>2018-05-24T13:15:26Z</time>
      </trkpt>
      <trkpt lat="46.65164" lon="5.52201">
        <ele>350</ele>
        <time>2018-05-24T13:16:22Z</time>
      </trkpt>
      <trkpt lat="46.65163" lon="5.52219">
        <ele>348</ele>
        <time>2018-05-24T13:16:40Z</time>
      </trkpt>
      <trkpt lat="46.65158" lon="5.52218">
        <ele>346</ele>
        <time>2018-05-24T13:17:40Z</time>
      </trkpt>
      <trkpt lat="46.65151" lon="5.52226">
        <ele>345</ele>
        <time>2018-05-24T13:17:53Z</time>
      </trkpt>
      <trkpt lat="46.65156" lon="5.52223">
        <ele>345</ele>
        <time>2018-05-24T13:18:26Z</time>
      </trkpt>
      <trkpt lat="46.65161" lon="5.52225">
        <ele>344</ele>
        <time>2018-05-24T13:19:14Z</time>
      </trkpt>
      <trkpt lat="46.65166" lon="5.52225">
        <ele>343</ele>
        <time>2018-05-24T13:19:20Z</time>
      </trkpt>
      <trkpt lat="46.65163" lon="5.52229">
        <ele>342</ele>
        <time>2018-05-24T13:28:25Z</time>
      </trkpt>
      <trkpt lat="46.65187" lon="5.5224">
        <ele>338</ele>
        <time>2018-05-24T13:29:05Z</time>
      </trkpt>
      <trkpt lat="46.65197" lon="5.52242">
        <ele>337</ele>
        <time>2018-05-24T13:29:19Z</time>
      </trkpt>
      <trkpt lat="46.65206" lon="5.52245">
        <ele>337</ele>
        <time>2018-05-24T13:29:29Z</time>
      </trkpt>
      <trkpt lat="46.65221" lon="5.52248">
        <ele>336</ele>
        <time>2018-05-24T13:29:46Z</time>
      </trkpt>
      <trkpt lat="46.6523" lon="5.52248">
        <ele>334</ele>
        <time>2018-05-24T13:29:56Z</time>
      </trkpt>
      <trkpt lat="46.65225" lon="5.52263">
        <ele>331</ele>
        <time>2018-05-24T13:30:34Z</time>
      </trkpt>
      <trkpt lat="46.65216" lon="5.52271">
        <ele>329</ele>
        <time>2018-05-24T13:30:51Z</time>
      </trkpt>
      <trkpt lat="46.65199" lon="5.52278">
        <ele>328</ele>
        <time>2018-05-24T13:31:13Z</time>
      </trkpt>
      <trkpt lat="46.65189" lon="5.52285">
        <ele>327</ele>
        <time>2018-05-24T13:31:28Z</time>
      </trkpt>
      <trkpt lat="46.65181" lon="5.52291">
        <ele>327</ele>
        <time>2018-05-24T13:31:40Z</time>
      </trkpt>
      <trkpt lat="46.65173" lon="5.523">
        <ele>324</ele>
        <time>2018-05-24T13:31:58Z</time>
      </trkpt>
      <trkpt lat="46.65163" lon="5.52306">
        <ele>324</ele>
        <time>2018-05-24T13:32:16Z</time>
      </trkpt>
      <trkpt lat="46.65154" lon="5.52313">
        <ele>322</ele>
        <time>2018-05-24T13:32:39Z</time>
      </trkpt>
      <trkpt lat="46.65132" lon="5.52327">
        <ele>316</ele>
        <time>2018-05-24T13:33:15Z</time>
      </trkpt>
      <trkpt lat="46.65124" lon="5.52331">
        <ele>316</ele>
        <time>2018-05-24T13:33:27Z</time>
      </trkpt>
      <trkpt lat="46.65115" lon="5.52336">
        <ele>312</ele>
        <time>2018-05-24T13:33:45Z</time>
      </trkpt>
      <trkpt lat="46.65105" lon="5.52341">
        <ele>311</ele>
        <time>2018-05-24T13:34:10Z</time>
      </trkpt>
      <trkpt lat="46.65095" lon="5.52343">
        <ele>309</ele>
        <time>2018-05-24T13:34:30Z</time>
      </trkpt>
      <trkpt lat="46.65087" lon="5.5235">
        <ele>307</ele>
        <time>2018-05-24T13:34:45Z</time>
      </trkpt>
      <trkpt lat="46.65068" lon="5.5236">
        <ele>304</ele>
        <time>2018-05-24T13:35:20Z</time>
      </trkpt>
      <trkpt lat="46.65055" lon="5.52367">
        <ele>301</ele>
        <time>2018-05-24T13:35:45Z</time>
      </trkpt>
      <trkpt lat="46.65048" lon="5.52372">
        <ele>299</ele>
        <time>2018-05-24T13:36:00Z</time>
      </trkpt>
      <trkpt lat="46.65039" lon="5.52371">
        <ele>298</ele>
        <time>2018-05-24T13:36:10Z</time>
      </trkpt>
      <trkpt lat="46.65034" lon="5.52378">
        <ele>298</ele>
        <time>2018-05-24T13:36:22Z</time>
      </trkpt>
      <trkpt lat="46.65029" lon="5.52382">
        <ele>297</ele>
        <time>2018-05-24T13:36:32Z</time>
      </trkpt>
      <trkpt lat="46.65015" lon="5.52388">
        <ele>297</ele>
        <time>2018-05-24T13:36:48Z</time>
      </trkpt>
      <trkpt lat="46.64998" lon="5.52398">
        <ele>293</ele>
        <time>2018-05-24T13:37:12Z</time>
      </trkpt>
      <trkpt lat="46.64989" lon="5.52402">
        <ele>293</ele>
        <time>2018-05-24T13:37:29Z</time>
      </trkpt>
      <trkpt lat="46.64981" lon="5.52412">
        <ele>291</ele>
        <time>2018-05-24T13:37:43Z</time>
      </trkpt>
      <trkpt lat="46.64961" lon="5.52426">
        <ele>287</ele>
        <time>2018-05-24T13:38:09Z</time>
      </trkpt>
      <trkpt lat="46.64954" lon="5.52434">
        <ele>286</ele>
        <time>2018-05-24T13:38:20Z</time>
      </trkpt>
      <trkpt lat="46.64945" lon="5.52438">
        <ele>285</ele>
        <time>2018-05-24T13:38:30Z</time>
      </trkpt>
      <trkpt lat="46.64935" lon="5.52444">
        <ele>285</ele>
        <time>2018-05-24T13:38:38Z</time>
      </trkpt>
      <trkpt lat="46.64929" lon="5.52453">
        <ele>284</ele>
        <time>2018-05-24T13:38:44Z</time>
      </trkpt>
      <trkpt lat="46.64929" lon="5.52471">
        <ele>284</ele>
        <time>2018-05-24T13:38:58Z</time>
      </trkpt>
      <trkpt lat="46.64933" lon="5.52475">
        <ele>282</ele>
        <time>2018-05-24T13:39:09Z</time>
      </trkpt>
      <trkpt lat="46.64937" lon="5.5248">
        <ele>280</ele>
        <time>2018-05-24T13:39:19Z</time>
      </trkpt>
      <trkpt lat="46.64938" lon="5.52474">
        <ele>278</ele>
        <time>2018-05-24T13:39:59Z</time>
      </trkpt>
      <trkpt lat="46.64936" lon="5.52478">
        <ele>275</ele>
        <time>2018-05-24T13:41:47Z</time>
      </trkpt>
      <trkpt lat="46.64934" lon="5.52484">
        <ele>275</ele>
        <time>2018-05-24T13:41:52Z</time>
      </trkpt>
      <trkpt lat="46.64933" lon="5.52491">
        <ele>274</ele>
        <time>2018-05-24T13:41:57Z</time>
      </trkpt>
      <trkpt lat="46.64931" lon="5.525">
        <ele>276</ele>
        <time>2018-05-24T13:42:07Z</time>
      </trkpt>
      <trkpt lat="46.64934" lon="5.52501">
        <ele>276</ele>
        <time>2018-05-24T13:42:43Z</time>
      </trkpt>
      <trkpt lat="46.64943" lon="5.5251">
        <ele>275</ele>
        <time>2018-05-24T13:43:05Z</time>
      </trkpt>
      <trkpt lat="46.64953" lon="5.52515">
        <ele>275</ele>
        <time>2018-05-24T13:43:17Z</time>
      </trkpt>
      <trkpt lat="46.64961" lon="5.52522">
        <ele>273</ele>
        <time>2018-05-24T13:43:30Z</time>
      </trkpt>
      <trkpt lat="46.64977" lon="5.5253">
        <ele>274</ele>
        <time>2018-05-24T13:43:53Z</time>
      </trkpt>
      <trkpt lat="46.65003" lon="5.5256">
        <ele>272</ele>
        <time>2018-05-24T13:44:26Z</time>
      </trkpt>
      <trkpt lat="46.65009" lon="5.52571">
        <ele>271</ele>
        <time>2018-05-24T13:44:34Z</time>
      </trkpt>
      <trkpt lat="46.65018" lon="5.52577">
        <ele>271</ele>
        <time>2018-05-24T13:44:42Z</time>
      </trkpt>
      <trkpt lat="46.65022" lon="5.52591">
        <ele>270</ele>
        <time>2018-05-24T13:44:51Z</time>
      </trkpt>
      <trkpt lat="46.65032" lon="5.52603">
        <ele>270</ele>
        <time>2018-05-24T13:45:05Z</time>
      </trkpt>
      <trkpt lat="46.6504" lon="5.52606">
        <ele>270</ele>
        <time>2018-05-24T13:45:14Z</time>
      </trkpt>
      <trkpt lat="46.65048" lon="5.52614">
        <ele>270</ele>
        <time>2018-05-24T13:45:24Z</time>
      </trkpt>
      <trkpt lat="46.65049" lon="5.52628">
        <ele>269</ele>
        <time>2018-05-24T13:45:34Z</time>
      </trkpt>
      <trkpt lat="46.65067" lon="5.52658">
        <ele>269</ele>
        <time>2018-05-24T13:46:04Z</time>
      </trkpt>
      <trkpt lat="46.65075" lon="5.52666">
        <ele>268</ele>
        <time>2018-05-24T13:46:12Z</time>
      </trkpt>
      <trkpt lat="46.65088" lon="5.52687">
        <ele>268</ele>
        <time>2018-05-24T13:46:30Z</time>
      </trkpt>
      <trkpt lat="46.65104" lon="5.52698">
        <ele>268</ele>
        <time>2018-05-24T13:46:46Z</time>
      </trkpt>
      <trkpt lat="46.65122" lon="5.52708">
        <ele>266</ele>
        <time>2018-05-24T13:47:02Z</time>
      </trkpt>
      <trkpt lat="46.65139" lon="5.52713">
        <ele>265</ele>
        <time>2018-05-24T13:47:21Z</time>
      </trkpt>
      <trkpt lat="46.6515" lon="5.52717">
        <ele>265</ele>
        <time>2018-05-24T13:47:32Z</time>
      </trkpt>
      <trkpt lat="46.65158" lon="5.52725">
        <ele>264</ele>
        <time>2018-05-24T13:47:41Z</time>
      </trkpt>
      <trkpt lat="46.65165" lon="5.52737">
        <ele>263</ele>
        <time>2018-05-24T13:47:51Z</time>
      </trkpt>
      <trkpt lat="46.65166" lon="5.52744">
        <ele>264</ele>
        <time>2018-05-24T13:47:56Z</time>
      </trkpt>
      <trkpt lat="46.6517" lon="5.52753">
        <ele>263</ele>
        <time>2018-05-24T13:48:04Z</time>
      </trkpt>
      <trkpt lat="46.65176" lon="5.52764">
        <ele>262</ele>
        <time>2018-05-24T13:48:13Z</time>
      </trkpt>
      <trkpt lat="46.65178" lon="5.52773">
        <ele>262</ele>
        <time>2018-05-24T13:48:23Z</time>
      </trkpt>
      <trkpt lat="46.65186" lon="5.52781">
        <ele>261</ele>
        <time>2018-05-24T13:48:34Z</time>
      </trkpt>
      <trkpt lat="46.65195" lon="5.52791">
        <ele>260</ele>
        <time>2018-05-24T13:48:48Z</time>
      </trkpt>
      <trkpt lat="46.65208" lon="5.52787">
        <ele>259</ele>
        <time>2018-05-24T13:49:04Z</time>
      </trkpt>
      <trkpt lat="46.65217" lon="5.52784">
        <ele>259</ele>
        <time>2018-05-24T13:49:13Z</time>
      </trkpt>
      <trkpt lat="46.65227" lon="5.52781">
        <ele>259</ele>
        <time>2018-05-24T13:49:23Z</time>
      </trkpt>
      <trkpt lat="46.65237" lon="5.52782">
        <ele>259</ele>
        <time>2018-05-24T13:49:32Z</time>
      </trkpt>
      <trkpt lat="46.65246" lon="5.52779">
        <ele>259</ele>
        <time>2018-05-24T13:49:40Z</time>
      </trkpt>
      <trkpt lat="46.65252" lon="5.52791">
        <ele>259</ele>
        <time>2018-05-24T13:49:53Z</time>
      </trkpt>
      <trkpt lat="46.65255" lon="5.52804">
        <ele>257</ele>
        <time>2018-05-24T13:50:02Z</time>
      </trkpt>
      <trkpt lat="46.65281" lon="5.52846">
        <ele>257</ele>
        <time>2018-05-24T13:50:37Z</time>
      </trkpt>
      <trkpt lat="46.65287" lon="5.52856">
        <ele>256</ele>
        <time>2018-05-24T13:50:47Z</time>
      </trkpt>
      <trkpt lat="46.65294" lon="5.52866">
        <ele>257</ele>
        <time>2018-05-24T13:50:57Z</time>
      </trkpt>
      <trkpt lat="46.65306" lon="5.5289">
        <ele>256</ele>
        <time>2018-05-24T13:51:15Z</time>
      </trkpt>
      <trkpt lat="46.6531" lon="5.52895">
        <ele>257</ele>
        <time>2018-05-24T13:51:19Z</time>
      </trkpt>
      <trkpt lat="46.65317" lon="5.52904">
        <ele>256</ele>
        <time>2018-05-24T13:51:28Z</time>
      </trkpt>
      <trkpt lat="46.65321" lon="5.52909">
        <ele>256</ele>
        <time>2018-05-24T13:51:33Z</time>
      </trkpt>
      <trkpt lat="46.65324" lon="5.52915">
        <ele>256</ele>
        <time>2018-05-24T13:51:38Z</time>
      </trkpt>
      <trkpt lat="46.65328" lon="5.52921">
        <ele>256</ele>
        <time>2018-05-24T13:51:46Z</time>
      </trkpt>
      <trkpt lat="46.65335" lon="5.52928">
        <ele>256</ele>
        <time>2018-05-24T13:51:58Z</time>
      </trkpt>
      <trkpt lat="46.65339" lon="5.52933">
        <ele>256</ele>
        <time>2018-05-24T13:52:03Z</time>
      </trkpt>
      <trkpt lat="46.65347" lon="5.52942">
        <ele>255</ele>
        <time>2018-05-24T13:52:14Z</time>
      </trkpt>
      <trkpt lat="46.65354" lon="5.5295">
        <ele>254</ele>
        <time>2018-05-24T13:52:23Z</time>
      </trkpt>
      <trkpt lat="46.65366" lon="5.52956">
        <ele>254</ele>
        <time>2018-05-24T13:52:37Z</time>
      </trkpt>
      <trkpt lat="46.65374" lon="5.52962">
        <ele>255</ele>
        <time>2018-05-24T13:52:55Z</time>
      </trkpt>
    </trkseg>
  </trk>
</gpx>